<?xml version="1.0" encoding="UTF-8" standalone="no" ?>
<gpx xmlns="http://www.topografix.com/GPX/1/1" xmlns:xsi="http://www.w3.org/2001/XMLSchema-instance" xsi:schemaLocation="http://www.topografix.com/GPX/1/1 http://www.topografix.com/GPX/1/1/gpx.xsd" version="1.1" creator="VisuGPX - https://www.visugpx.com">
  <metadata>
    <name>Malvallons par Pastré</name>
    <desc><![CDATA[Démarrage depuis la Campagne Pastré par le sentier jaune puis tour des malvallons et retour par le Col de la Selle.]]></desc>
  </metadata>
  <trk>
    <name><![CDATA[Malvallons par Pastré_1]]></name>
    <trkseg>
      <trkpt lat="43.23944" lon="5.36366">
        <ele>10</ele>
        <time>2014-01-05T10:04:00Z</time>
      </trkpt>
      <trkpt lat="43.23957" lon="5.364">
        <ele>13</ele>
        <time>2014-01-05T10:04:50Z</time>
      </trkpt>
      <trkpt lat="43.23956" lon="5.3641">
        <ele>12</ele>
        <time>2014-01-05T10:05:06Z</time>
      </trkpt>
      <trkpt lat="43.23964" lon="5.36419">
        <ele>12</ele>
        <time>2014-01-05T10:05:15Z</time>
      </trkpt>
      <trkpt lat="43.23967" lon="5.3643">
        <ele>12</ele>
        <time>2014-01-05T10:05:24Z</time>
      </trkpt>
      <trkpt lat="43.2397" lon="5.36444">
        <ele>12</ele>
        <time>2014-01-05T10:05:33Z</time>
      </trkpt>
      <trkpt lat="43.23975" lon="5.36457">
        <ele>12</ele>
        <time>2014-01-05T10:05:42Z</time>
      </trkpt>
      <trkpt lat="43.23978" lon="5.36473">
        <ele>12</ele>
        <time>2014-01-05T10:05:52Z</time>
      </trkpt>
      <trkpt lat="43.23982" lon="5.36487">
        <ele>10</ele>
        <time>2014-01-05T10:06:01Z</time>
      </trkpt>
      <trkpt lat="43.23984" lon="5.36506">
        <ele>10</ele>
        <time>2014-01-05T10:06:11Z</time>
      </trkpt>
      <trkpt lat="43.23987" lon="5.36522">
        <ele>10</ele>
        <time>2014-01-05T10:06:20Z</time>
      </trkpt>
      <trkpt lat="43.23991" lon="5.36536">
        <ele>10</ele>
        <time>2014-01-05T10:06:29Z</time>
      </trkpt>
      <trkpt lat="43.23994" lon="5.36549">
        <ele>10</ele>
        <time>2014-01-05T10:06:38Z</time>
      </trkpt>
      <trkpt lat="43.23996" lon="5.36567">
        <ele>10</ele>
        <time>2014-01-05T10:06:48Z</time>
      </trkpt>
      <trkpt lat="43.23996" lon="5.36583">
        <ele>10</ele>
        <time>2014-01-05T10:06:57Z</time>
      </trkpt>
      <trkpt lat="43.23997" lon="5.36601">
        <ele>10</ele>
        <time>2014-01-05T10:07:06Z</time>
      </trkpt>
      <trkpt lat="43.23999" lon="5.36619">
        <ele>10</ele>
        <time>2014-01-05T10:07:16Z</time>
      </trkpt>
      <trkpt lat="43.23998" lon="5.36636">
        <ele>10</ele>
        <time>2014-01-05T10:07:26Z</time>
      </trkpt>
      <trkpt lat="43.23995" lon="5.36649">
        <ele>10</ele>
        <time>2014-01-05T10:07:35Z</time>
      </trkpt>
      <trkpt lat="43.23985" lon="5.36651">
        <ele>10</ele>
        <time>2014-01-05T10:07:45Z</time>
      </trkpt>
      <trkpt lat="43.23975" lon="5.36655">
        <ele>10</ele>
        <time>2014-01-05T10:07:56Z</time>
      </trkpt>
      <trkpt lat="43.23979" lon="5.36666">
        <ele>10</ele>
        <time>2014-01-05T10:08:06Z</time>
      </trkpt>
      <trkpt lat="43.23986" lon="5.36676">
        <ele>10</ele>
        <time>2014-01-05T10:08:16Z</time>
      </trkpt>
      <trkpt lat="43.23991" lon="5.36688">
        <ele>10</ele>
        <time>2014-01-05T10:08:26Z</time>
      </trkpt>
      <trkpt lat="43.23994" lon="5.36694">
        <ele>10</ele>
        <time>2014-01-05T10:08:35Z</time>
      </trkpt>
      <trkpt lat="43.23995" lon="5.36695">
        <ele>10</ele>
        <time>2014-01-05T10:08:50Z</time>
      </trkpt>
      <trkpt lat="43.23986" lon="5.36706">
        <ele>10</ele>
        <time>2014-01-05T10:09:00Z</time>
      </trkpt>
      <trkpt lat="43.23979" lon="5.3672">
        <ele>10</ele>
        <time>2014-01-05T10:09:10Z</time>
      </trkpt>
      <trkpt lat="43.23969" lon="5.3673">
        <ele>10</ele>
        <time>2014-01-05T10:09:20Z</time>
      </trkpt>
      <trkpt lat="43.23959" lon="5.36738">
        <ele>10</ele>
        <time>2014-01-05T10:09:29Z</time>
      </trkpt>
      <trkpt lat="43.23949" lon="5.36749">
        <ele>10</ele>
        <time>2014-01-05T10:09:39Z</time>
      </trkpt>
      <trkpt lat="43.2394" lon="5.36764">
        <ele>10</ele>
        <time>2014-01-05T10:09:49Z</time>
      </trkpt>
      <trkpt lat="43.2393" lon="5.36772">
        <ele>12</ele>
        <time>2014-01-05T10:09:58Z</time>
      </trkpt>
      <trkpt lat="43.23922" lon="5.36779">
        <ele>13</ele>
        <time>2014-01-05T10:10:07Z</time>
      </trkpt>
      <trkpt lat="43.23912" lon="5.36787">
        <ele>13</ele>
        <time>2014-01-05T10:10:16Z</time>
      </trkpt>
      <trkpt lat="43.23903" lon="5.36797">
        <ele>13</ele>
        <time>2014-01-05T10:10:26Z</time>
      </trkpt>
      <trkpt lat="43.23893" lon="5.36804">
        <ele>13</ele>
        <time>2014-01-05T10:10:35Z</time>
      </trkpt>
      <trkpt lat="43.23882" lon="5.36815">
        <ele>13</ele>
        <time>2014-01-05T10:10:45Z</time>
      </trkpt>
      <trkpt lat="43.23872" lon="5.36824">
        <ele>13</ele>
        <time>2014-01-05T10:10:55Z</time>
      </trkpt>
      <trkpt lat="43.23864" lon="5.36835">
        <ele>13</ele>
        <time>2014-01-05T10:11:04Z</time>
      </trkpt>
      <trkpt lat="43.23854" lon="5.36843">
        <ele>13</ele>
        <time>2014-01-05T10:11:14Z</time>
      </trkpt>
      <trkpt lat="43.23843" lon="5.36849">
        <ele>16</ele>
        <time>2014-01-05T10:11:24Z</time>
      </trkpt>
      <trkpt lat="43.23833" lon="5.3686">
        <ele>17</ele>
        <time>2014-01-05T10:11:34Z</time>
      </trkpt>
      <trkpt lat="43.2382" lon="5.36869">
        <ele>19</ele>
        <time>2014-01-05T10:11:45Z</time>
      </trkpt>
      <trkpt lat="43.2381" lon="5.36878">
        <ele>19</ele>
        <time>2014-01-05T10:11:55Z</time>
      </trkpt>
      <trkpt lat="43.238" lon="5.36887">
        <ele>19</ele>
        <time>2014-01-05T10:12:04Z</time>
      </trkpt>
      <trkpt lat="43.2379" lon="5.36899">
        <ele>19</ele>
        <time>2014-01-05T10:12:14Z</time>
      </trkpt>
      <trkpt lat="43.23781" lon="5.36909">
        <ele>19</ele>
        <time>2014-01-05T10:12:23Z</time>
      </trkpt>
      <trkpt lat="43.23771" lon="5.36918">
        <ele>19</ele>
        <time>2014-01-05T10:12:33Z</time>
      </trkpt>
      <trkpt lat="43.23761" lon="5.36927">
        <ele>19</ele>
        <time>2014-01-05T10:12:43Z</time>
      </trkpt>
      <trkpt lat="43.23751" lon="5.36936">
        <ele>19</ele>
        <time>2014-01-05T10:12:52Z</time>
      </trkpt>
      <trkpt lat="43.23741" lon="5.36945">
        <ele>19</ele>
        <time>2014-01-05T10:13:01Z</time>
      </trkpt>
      <trkpt lat="43.23731" lon="5.36959">
        <ele>20</ele>
        <time>2014-01-05T10:13:11Z</time>
      </trkpt>
      <trkpt lat="43.2372" lon="5.36969">
        <ele>20</ele>
        <time>2014-01-05T10:13:22Z</time>
      </trkpt>
      <trkpt lat="43.23711" lon="5.36982">
        <ele>20</ele>
        <time>2014-01-05T10:13:32Z</time>
      </trkpt>
      <trkpt lat="43.237" lon="5.36991">
        <ele>20</ele>
        <time>2014-01-05T10:13:41Z</time>
      </trkpt>
      <trkpt lat="43.2369" lon="5.36998">
        <ele>20</ele>
        <time>2014-01-05T10:13:50Z</time>
      </trkpt>
      <trkpt lat="43.2368" lon="5.37007">
        <ele>22</ele>
        <time>2014-01-05T10:13:59Z</time>
      </trkpt>
      <trkpt lat="43.23671" lon="5.37017">
        <ele>22</ele>
        <time>2014-01-05T10:14:08Z</time>
      </trkpt>
      <trkpt lat="43.23662" lon="5.37024">
        <ele>22</ele>
        <time>2014-01-05T10:14:17Z</time>
      </trkpt>
      <trkpt lat="43.23651" lon="5.37031">
        <ele>22</ele>
        <time>2014-01-05T10:14:26Z</time>
      </trkpt>
      <trkpt lat="43.2364" lon="5.37038">
        <ele>26</ele>
        <time>2014-01-05T10:14:35Z</time>
      </trkpt>
      <trkpt lat="43.2363" lon="5.37046">
        <ele>26</ele>
        <time>2014-01-05T10:14:44Z</time>
      </trkpt>
      <trkpt lat="43.23621" lon="5.37059">
        <ele>27</ele>
        <time>2014-01-05T10:14:53Z</time>
      </trkpt>
      <trkpt lat="43.23611" lon="5.37066">
        <ele>27</ele>
        <time>2014-01-05T10:15:02Z</time>
      </trkpt>
      <trkpt lat="43.23601" lon="5.37078">
        <ele>28</ele>
        <time>2014-01-05T10:15:12Z</time>
      </trkpt>
      <trkpt lat="43.23592" lon="5.3709">
        <ele>28</ele>
        <time>2014-01-05T10:15:22Z</time>
      </trkpt>
      <trkpt lat="43.23583" lon="5.37096">
        <ele>28</ele>
        <time>2014-01-05T10:15:31Z</time>
      </trkpt>
      <trkpt lat="43.23573" lon="5.37107">
        <ele>28</ele>
        <time>2014-01-05T10:15:41Z</time>
      </trkpt>
      <trkpt lat="43.23563" lon="5.37118">
        <ele>28</ele>
        <time>2014-01-05T10:15:50Z</time>
      </trkpt>
      <trkpt lat="43.23553" lon="5.37125">
        <ele>28</ele>
        <time>2014-01-05T10:15:59Z</time>
      </trkpt>
      <trkpt lat="43.23544" lon="5.37129">
        <ele>30</ele>
        <time>2014-01-05T10:16:08Z</time>
      </trkpt>
      <trkpt lat="43.23535" lon="5.37138">
        <ele>30</ele>
        <time>2014-01-05T10:16:17Z</time>
      </trkpt>
      <trkpt lat="43.23524" lon="5.37145">
        <ele>31</ele>
        <time>2014-01-05T10:16:26Z</time>
      </trkpt>
      <trkpt lat="43.23515" lon="5.37156">
        <ele>32</ele>
        <time>2014-01-05T10:16:35Z</time>
      </trkpt>
      <trkpt lat="43.23506" lon="5.37166">
        <ele>32</ele>
        <time>2014-01-05T10:16:44Z</time>
      </trkpt>
      <trkpt lat="43.23497" lon="5.37176">
        <ele>32</ele>
        <time>2014-01-05T10:16:53Z</time>
      </trkpt>
      <trkpt lat="43.23487" lon="5.37188">
        <ele>33</ele>
        <time>2014-01-05T10:17:03Z</time>
      </trkpt>
      <trkpt lat="43.23478" lon="5.37198">
        <ele>33</ele>
        <time>2014-01-05T10:17:13Z</time>
      </trkpt>
      <trkpt lat="43.23467" lon="5.37213">
        <ele>36</ele>
        <time>2014-01-05T10:17:23Z</time>
      </trkpt>
      <trkpt lat="43.23459" lon="5.37218">
        <ele>36</ele>
        <time>2014-01-05T10:17:32Z</time>
      </trkpt>
      <trkpt lat="43.2345" lon="5.37223">
        <ele>38</ele>
        <time>2014-01-05T10:17:43Z</time>
      </trkpt>
      <trkpt lat="43.23445" lon="5.37234">
        <ele>39</ele>
        <time>2014-01-05T10:17:52Z</time>
      </trkpt>
      <trkpt lat="43.23441" lon="5.37249">
        <ele>41</ele>
        <time>2014-01-05T10:18:01Z</time>
      </trkpt>
      <trkpt lat="43.23437" lon="5.37264">
        <ele>41</ele>
        <time>2014-01-05T10:18:10Z</time>
      </trkpt>
      <trkpt lat="43.23436" lon="5.37281">
        <ele>41</ele>
        <time>2014-01-05T10:18:21Z</time>
      </trkpt>
      <trkpt lat="43.23432" lon="5.37293">
        <ele>41</ele>
        <time>2014-01-05T10:18:30Z</time>
      </trkpt>
      <trkpt lat="43.23427" lon="5.37309">
        <ele>41</ele>
        <time>2014-01-05T10:18:39Z</time>
      </trkpt>
      <trkpt lat="43.23422" lon="5.37322">
        <ele>41</ele>
        <time>2014-01-05T10:18:49Z</time>
      </trkpt>
      <trkpt lat="43.23417" lon="5.37335">
        <ele>41</ele>
        <time>2014-01-05T10:18:58Z</time>
      </trkpt>
      <trkpt lat="43.23406" lon="5.37344">
        <ele>42</ele>
        <time>2014-01-05T10:19:08Z</time>
      </trkpt>
      <trkpt lat="43.23398" lon="5.37357">
        <ele>43</ele>
        <time>2014-01-05T10:19:17Z</time>
      </trkpt>
      <trkpt lat="43.23388" lon="5.37366">
        <ele>43</ele>
        <time>2014-01-05T10:19:26Z</time>
      </trkpt>
      <trkpt lat="43.23374" lon="5.37367">
        <ele>46</ele>
        <time>2014-01-05T10:19:37Z</time>
      </trkpt>
      <trkpt lat="43.23363" lon="5.37357">
        <ele>46</ele>
        <time>2014-01-05T10:19:47Z</time>
      </trkpt>
      <trkpt lat="43.23353" lon="5.3735">
        <ele>49</ele>
        <time>2014-01-05T10:19:57Z</time>
      </trkpt>
      <trkpt lat="43.23349" lon="5.37336">
        <ele>49</ele>
        <time>2014-01-05T10:20:06Z</time>
      </trkpt>
      <trkpt lat="43.23345" lon="5.37323">
        <ele>49</ele>
        <time>2014-01-05T10:20:15Z</time>
      </trkpt>
      <trkpt lat="43.23337" lon="5.37314">
        <ele>49</ele>
        <time>2014-01-05T10:20:24Z</time>
      </trkpt>
      <trkpt lat="43.23326" lon="5.37314">
        <ele>49</ele>
        <time>2014-01-05T10:20:33Z</time>
      </trkpt>
      <trkpt lat="43.23319" lon="5.37316">
        <ele>48</ele>
        <time>2014-01-05T10:20:43Z</time>
      </trkpt>
      <trkpt lat="43.23321" lon="5.37315">
        <ele>48</ele>
        <time>2014-01-05T10:21:01Z</time>
      </trkpt>
      <trkpt lat="43.23321" lon="5.37315">
        <ele>48</ele>
        <time>2014-01-05T10:21:17Z</time>
      </trkpt>
      <trkpt lat="43.2332" lon="5.37316">
        <ele>48</ele>
        <time>2014-01-05T10:21:26Z</time>
      </trkpt>
      <trkpt lat="43.2332" lon="5.37318">
        <ele>48</ele>
        <time>2014-01-05T10:21:37Z</time>
      </trkpt>
      <trkpt lat="43.23321" lon="5.37316">
        <ele>48</ele>
        <time>2014-01-05T10:21:46Z</time>
      </trkpt>
      <trkpt lat="43.2332" lon="5.37318">
        <ele>48</ele>
        <time>2014-01-05T10:22:10Z</time>
      </trkpt>
      <trkpt lat="43.23321" lon="5.37321">
        <ele>48</ele>
        <time>2014-01-05T10:22:20Z</time>
      </trkpt>
      <trkpt lat="43.23319" lon="5.3732">
        <ele>48</ele>
        <time>2014-01-05T10:22:39Z</time>
      </trkpt>
      <trkpt lat="43.23318" lon="5.3732">
        <ele>48</ele>
        <time>2014-01-05T10:22:48Z</time>
      </trkpt>
      <trkpt lat="43.23319" lon="5.37317">
        <ele>48</ele>
        <time>2014-01-05T10:23:01Z</time>
      </trkpt>
      <trkpt lat="43.23319" lon="5.37318">
        <ele>48</ele>
        <time>2014-01-05T10:23:15Z</time>
      </trkpt>
      <trkpt lat="43.2332" lon="5.37319">
        <ele>48</ele>
        <time>2014-01-05T10:23:25Z</time>
      </trkpt>
      <trkpt lat="43.23318" lon="5.37318">
        <ele>48</ele>
        <time>2014-01-05T10:23:38Z</time>
      </trkpt>
      <trkpt lat="43.23312" lon="5.3732">
        <ele>48</ele>
        <time>2014-01-05T10:23:48Z</time>
      </trkpt>
      <trkpt lat="43.23304" lon="5.37326">
        <ele>48</ele>
        <time>2014-01-05T10:23:57Z</time>
      </trkpt>
      <trkpt lat="43.23295" lon="5.37333">
        <ele>48</ele>
        <time>2014-01-05T10:24:07Z</time>
      </trkpt>
      <trkpt lat="43.23288" lon="5.37344">
        <ele>48</ele>
        <time>2014-01-05T10:24:16Z</time>
      </trkpt>
      <trkpt lat="43.23281" lon="5.37351">
        <ele>48</ele>
        <time>2014-01-05T10:24:25Z</time>
      </trkpt>
      <trkpt lat="43.23272" lon="5.3736">
        <ele>51</ele>
        <time>2014-01-05T10:24:35Z</time>
      </trkpt>
      <trkpt lat="43.2327" lon="5.37371">
        <ele>51</ele>
        <time>2014-01-05T10:24:44Z</time>
      </trkpt>
      <trkpt lat="43.2327" lon="5.37385">
        <ele>52</ele>
        <time>2014-01-05T10:24:53Z</time>
      </trkpt>
      <trkpt lat="43.23265" lon="5.37394">
        <ele>56</ele>
        <time>2014-01-05T10:25:02Z</time>
      </trkpt>
      <trkpt lat="43.23258" lon="5.37406">
        <ele>59</ele>
        <time>2014-01-05T10:25:11Z</time>
      </trkpt>
      <trkpt lat="43.23249" lon="5.37418">
        <ele>59</ele>
        <time>2014-01-05T10:25:21Z</time>
      </trkpt>
      <trkpt lat="43.2324" lon="5.37425">
        <ele>59</ele>
        <time>2014-01-05T10:25:30Z</time>
      </trkpt>
      <trkpt lat="43.23231" lon="5.37433">
        <ele>59</ele>
        <time>2014-01-05T10:25:40Z</time>
      </trkpt>
      <trkpt lat="43.23224" lon="5.37442">
        <ele>59</ele>
        <time>2014-01-05T10:25:49Z</time>
      </trkpt>
      <trkpt lat="43.23214" lon="5.37453">
        <ele>60</ele>
        <time>2014-01-05T10:25:59Z</time>
      </trkpt>
      <trkpt lat="43.23204" lon="5.37465">
        <ele>60</ele>
        <time>2014-01-05T10:26:10Z</time>
      </trkpt>
      <trkpt lat="43.23194" lon="5.37469">
        <ele>60</ele>
        <time>2014-01-05T10:26:19Z</time>
      </trkpt>
      <trkpt lat="43.23193" lon="5.3748">
        <ele>60</ele>
        <time>2014-01-05T10:26:28Z</time>
      </trkpt>
      <trkpt lat="43.23204" lon="5.37483">
        <ele>62</ele>
        <time>2014-01-05T10:26:37Z</time>
      </trkpt>
      <trkpt lat="43.23213" lon="5.37474">
        <ele>63</ele>
        <time>2014-01-05T10:26:46Z</time>
      </trkpt>
      <trkpt lat="43.23223" lon="5.37467">
        <ele>63</ele>
        <time>2014-01-05T10:26:56Z</time>
      </trkpt>
      <trkpt lat="43.23236" lon="5.37463">
        <ele>63</ele>
        <time>2014-01-05T10:27:05Z</time>
      </trkpt>
      <trkpt lat="43.23246" lon="5.37469">
        <ele>63</ele>
        <time>2014-01-05T10:27:17Z</time>
      </trkpt>
      <trkpt lat="43.23254" lon="5.37481">
        <ele>63</ele>
        <time>2014-01-05T10:27:27Z</time>
      </trkpt>
      <trkpt lat="43.2326" lon="5.37493">
        <ele>63</ele>
        <time>2014-01-05T10:27:36Z</time>
      </trkpt>
      <trkpt lat="43.23268" lon="5.37505">
        <ele>63</ele>
        <time>2014-01-05T10:27:45Z</time>
      </trkpt>
      <trkpt lat="43.23272" lon="5.3751">
        <ele>63</ele>
        <time>2014-01-05T10:28:02Z</time>
      </trkpt>
      <trkpt lat="43.23271" lon="5.37509">
        <ele>67</ele>
        <time>2014-01-05T10:28:21Z</time>
      </trkpt>
      <trkpt lat="43.2327" lon="5.37507">
        <ele>69</ele>
        <time>2014-01-05T10:28:32Z</time>
      </trkpt>
      <trkpt lat="43.23264" lon="5.37498">
        <ele>69</ele>
        <time>2014-01-05T10:28:42Z</time>
      </trkpt>
      <trkpt lat="43.23257" lon="5.37484">
        <ele>69</ele>
        <time>2014-01-05T10:28:52Z</time>
      </trkpt>
      <trkpt lat="43.2325" lon="5.37473">
        <ele>69</ele>
        <time>2014-01-05T10:29:02Z</time>
      </trkpt>
      <trkpt lat="43.2324" lon="5.37466">
        <ele>68</ele>
        <time>2014-01-05T10:29:11Z</time>
      </trkpt>
      <trkpt lat="43.23229" lon="5.3747">
        <ele>65</ele>
        <time>2014-01-05T10:29:20Z</time>
      </trkpt>
      <trkpt lat="43.23216" lon="5.37477">
        <ele>64</ele>
        <time>2014-01-05T10:29:29Z</time>
      </trkpt>
      <trkpt lat="43.23206" lon="5.37484">
        <ele>64</ele>
        <time>2014-01-05T10:29:38Z</time>
      </trkpt>
      <trkpt lat="43.23195" lon="5.3748">
        <ele>62</ele>
        <time>2014-01-05T10:29:47Z</time>
      </trkpt>
      <trkpt lat="43.23195" lon="5.37465">
        <ele>59</ele>
        <time>2014-01-05T10:29:56Z</time>
      </trkpt>
      <trkpt lat="43.23196" lon="5.37459">
        <ele>59</ele>
        <time>2014-01-05T10:30:05Z</time>
      </trkpt>
      <trkpt lat="43.23194" lon="5.37456">
        <ele>59</ele>
        <time>2014-01-05T10:30:14Z</time>
      </trkpt>
      <trkpt lat="43.23194" lon="5.37452">
        <ele>59</ele>
        <time>2014-01-05T10:30:26Z</time>
      </trkpt>
      <trkpt lat="43.23194" lon="5.37452">
        <ele>59</ele>
        <time>2014-01-05T10:30:36Z</time>
      </trkpt>
      <trkpt lat="43.23196" lon="5.37453">
        <ele>59</ele>
        <time>2014-01-05T10:30:47Z</time>
      </trkpt>
      <trkpt lat="43.23196" lon="5.37454">
        <ele>63</ele>
        <time>2014-01-05T10:30:59Z</time>
      </trkpt>
      <trkpt lat="43.23206" lon="5.37452">
        <ele>63</ele>
        <time>2014-01-05T10:31:09Z</time>
      </trkpt>
      <trkpt lat="43.23214" lon="5.37445">
        <ele>62</ele>
        <time>2014-01-05T10:31:19Z</time>
      </trkpt>
      <trkpt lat="43.23216" lon="5.37435">
        <ele>61</ele>
        <time>2014-01-05T10:31:28Z</time>
      </trkpt>
      <trkpt lat="43.23217" lon="5.37426">
        <ele>59</ele>
        <time>2014-01-05T10:31:37Z</time>
      </trkpt>
      <trkpt lat="43.23218" lon="5.37418">
        <ele>53</ele>
        <time>2014-01-05T10:31:48Z</time>
      </trkpt>
      <trkpt lat="43.23211" lon="5.37415">
        <ele>52</ele>
        <time>2014-01-05T10:31:57Z</time>
      </trkpt>
      <trkpt lat="43.23198" lon="5.37415">
        <ele>52</ele>
        <time>2014-01-05T10:32:06Z</time>
      </trkpt>
      <trkpt lat="43.23189" lon="5.37419">
        <ele>52</ele>
        <time>2014-01-05T10:32:16Z</time>
      </trkpt>
      <trkpt lat="43.23189" lon="5.37418">
        <ele>52</ele>
        <time>2014-01-05T10:32:27Z</time>
      </trkpt>
      <trkpt lat="43.23191" lon="5.37414">
        <ele>52</ele>
        <time>2014-01-05T10:32:36Z</time>
      </trkpt>
      <trkpt lat="43.2319" lon="5.37409">
        <ele>53</ele>
        <time>2014-01-05T10:32:47Z</time>
      </trkpt>
      <trkpt lat="43.23192" lon="5.37409">
        <ele>53</ele>
        <time>2014-01-05T10:32:57Z</time>
      </trkpt>
      <trkpt lat="43.23191" lon="5.37411">
        <ele>53</ele>
        <time>2014-01-05T10:33:15Z</time>
      </trkpt>
      <trkpt lat="43.23182" lon="5.37422">
        <ele>53</ele>
        <time>2014-01-05T10:33:24Z</time>
      </trkpt>
      <trkpt lat="43.23171" lon="5.37434">
        <ele>53</ele>
        <time>2014-01-05T10:33:33Z</time>
      </trkpt>
      <trkpt lat="43.23158" lon="5.37436">
        <ele>54</ele>
        <time>2014-01-05T10:33:43Z</time>
      </trkpt>
      <trkpt lat="43.23148" lon="5.37443">
        <ele>54</ele>
        <time>2014-01-05T10:33:52Z</time>
      </trkpt>
      <trkpt lat="43.23139" lon="5.37452">
        <ele>53</ele>
        <time>2014-01-05T10:34:02Z</time>
      </trkpt>
      <trkpt lat="43.23131" lon="5.37466">
        <ele>50</ele>
        <time>2014-01-05T10:34:11Z</time>
      </trkpt>
      <trkpt lat="43.23121" lon="5.37468">
        <ele>48</ele>
        <time>2014-01-05T10:34:20Z</time>
      </trkpt>
      <trkpt lat="43.23109" lon="5.37472">
        <ele>48</ele>
        <time>2014-01-05T10:34:29Z</time>
      </trkpt>
      <trkpt lat="43.231" lon="5.37477">
        <ele>48</ele>
        <time>2014-01-05T10:34:38Z</time>
      </trkpt>
      <trkpt lat="43.23087" lon="5.37479">
        <ele>49</ele>
        <time>2014-01-05T10:34:48Z</time>
      </trkpt>
      <trkpt lat="43.23073" lon="5.37484">
        <ele>56</ele>
        <time>2014-01-05T10:34:58Z</time>
      </trkpt>
      <trkpt lat="43.23068" lon="5.37494">
        <ele>57</ele>
        <time>2014-01-05T10:35:08Z</time>
      </trkpt>
      <trkpt lat="43.23064" lon="5.37505">
        <ele>56</ele>
        <time>2014-01-05T10:35:17Z</time>
      </trkpt>
      <trkpt lat="43.23056" lon="5.37516">
        <ele>54</ele>
        <time>2014-01-05T10:35:27Z</time>
      </trkpt>
      <trkpt lat="43.23047" lon="5.37526">
        <ele>52</ele>
        <time>2014-01-05T10:35:37Z</time>
      </trkpt>
      <trkpt lat="43.23038" lon="5.37528">
        <ele>53</ele>
        <time>2014-01-05T10:35:46Z</time>
      </trkpt>
      <trkpt lat="43.2303" lon="5.37539">
        <ele>60</ele>
        <time>2014-01-05T10:35:57Z</time>
      </trkpt>
      <trkpt lat="43.23021" lon="5.37549">
        <ele>63</ele>
        <time>2014-01-05T10:36:06Z</time>
      </trkpt>
      <trkpt lat="43.23019" lon="5.37563">
        <ele>63</ele>
        <time>2014-01-05T10:36:15Z</time>
      </trkpt>
      <trkpt lat="43.23017" lon="5.37573">
        <ele>63</ele>
        <time>2014-01-05T10:36:26Z</time>
      </trkpt>
      <trkpt lat="43.23011" lon="5.37585">
        <ele>61</ele>
        <time>2014-01-05T10:36:37Z</time>
      </trkpt>
      <trkpt lat="43.23004" lon="5.37594">
        <ele>61</ele>
        <time>2014-01-05T10:36:46Z</time>
      </trkpt>
      <trkpt lat="43.22993" lon="5.37599">
        <ele>62</ele>
        <time>2014-01-05T10:36:56Z</time>
      </trkpt>
      <trkpt lat="43.22985" lon="5.37597">
        <ele>65</ele>
        <time>2014-01-05T10:37:07Z</time>
      </trkpt>
      <trkpt lat="43.2298" lon="5.37594">
        <ele>67</ele>
        <time>2014-01-05T10:37:17Z</time>
      </trkpt>
      <trkpt lat="43.22975" lon="5.37594">
        <ele>71</ele>
        <time>2014-01-05T10:37:28Z</time>
      </trkpt>
      <trkpt lat="43.22972" lon="5.37596">
        <ele>72</ele>
        <time>2014-01-05T10:37:39Z</time>
      </trkpt>
      <trkpt lat="43.22972" lon="5.37601">
        <ele>73</ele>
        <time>2014-01-05T10:37:48Z</time>
      </trkpt>
      <trkpt lat="43.22968" lon="5.37596">
        <ele>77</ele>
        <time>2014-01-05T10:37:57Z</time>
      </trkpt>
      <trkpt lat="43.22967" lon="5.37601">
        <ele>85</ele>
        <time>2014-01-05T10:38:06Z</time>
      </trkpt>
      <trkpt lat="43.22956" lon="5.37598">
        <ele>88</ele>
        <time>2014-01-05T10:38:16Z</time>
      </trkpt>
      <trkpt lat="43.22944" lon="5.37595">
        <ele>88</ele>
        <time>2014-01-05T10:38:25Z</time>
      </trkpt>
      <trkpt lat="43.22935" lon="5.37597">
        <ele>90</ele>
        <time>2014-01-05T10:38:34Z</time>
      </trkpt>
      <trkpt lat="43.22932" lon="5.37599">
        <ele>90</ele>
        <time>2014-01-05T10:38:43Z</time>
      </trkpt>
      <trkpt lat="43.22938" lon="5.37607">
        <ele>89</ele>
        <time>2014-01-05T10:38:52Z</time>
      </trkpt>
      <trkpt lat="43.22941" lon="5.3761">
        <ele>95</ele>
        <time>2014-01-05T10:39:03Z</time>
      </trkpt>
      <trkpt lat="43.22932" lon="5.3761">
        <ele>96</ele>
        <time>2014-01-05T10:39:12Z</time>
      </trkpt>
      <trkpt lat="43.22932" lon="5.37625">
        <ele>97</ele>
        <time>2014-01-05T10:39:21Z</time>
      </trkpt>
      <trkpt lat="43.22927" lon="5.37638">
        <ele>99</ele>
        <time>2014-01-05T10:39:30Z</time>
      </trkpt>
      <trkpt lat="43.22916" lon="5.37638">
        <ele>99</ele>
        <time>2014-01-05T10:39:40Z</time>
      </trkpt>
      <trkpt lat="43.22911" lon="5.3764">
        <ele>99</ele>
        <time>2014-01-05T10:39:49Z</time>
      </trkpt>
      <trkpt lat="43.22911" lon="5.37648">
        <ele>97</ele>
        <time>2014-01-05T10:40:03Z</time>
      </trkpt>
      <trkpt lat="43.22904" lon="5.3765">
        <ele>97</ele>
        <time>2014-01-05T10:40:12Z</time>
      </trkpt>
      <trkpt lat="43.22898" lon="5.37653">
        <ele>99</ele>
        <time>2014-01-05T10:40:23Z</time>
      </trkpt>
      <trkpt lat="43.22889" lon="5.37648">
        <ele>106</ele>
        <time>2014-01-05T10:40:32Z</time>
      </trkpt>
      <trkpt lat="43.22883" lon="5.37648">
        <ele>114</ele>
        <time>2014-01-05T10:40:42Z</time>
      </trkpt>
      <trkpt lat="43.22876" lon="5.37651">
        <ele>114</ele>
        <time>2014-01-05T10:40:52Z</time>
      </trkpt>
      <trkpt lat="43.22871" lon="5.37659">
        <ele>114</ele>
        <time>2014-01-05T10:41:01Z</time>
      </trkpt>
      <trkpt lat="43.22868" lon="5.37667">
        <ele>111</ele>
        <time>2014-01-05T10:41:11Z</time>
      </trkpt>
      <trkpt lat="43.22863" lon="5.37677">
        <ele>106</ele>
        <time>2014-01-05T10:41:21Z</time>
      </trkpt>
      <trkpt lat="43.22863" lon="5.37684">
        <ele>106</ele>
        <time>2014-01-05T10:41:30Z</time>
      </trkpt>
      <trkpt lat="43.22859" lon="5.37691">
        <ele>106</ele>
        <time>2014-01-05T10:41:41Z</time>
      </trkpt>
      <trkpt lat="43.22849" lon="5.37696">
        <ele>106</ele>
        <time>2014-01-05T10:41:52Z</time>
      </trkpt>
      <trkpt lat="43.22846" lon="5.37706">
        <ele>108</ele>
        <time>2014-01-05T10:42:01Z</time>
      </trkpt>
      <trkpt lat="43.22842" lon="5.37713">
        <ele>108</ele>
        <time>2014-01-05T10:42:10Z</time>
      </trkpt>
      <trkpt lat="43.22835" lon="5.37722">
        <ele>112</ele>
        <time>2014-01-05T10:42:20Z</time>
      </trkpt>
      <trkpt lat="43.22827" lon="5.37729">
        <ele>112</ele>
        <time>2014-01-05T10:42:29Z</time>
      </trkpt>
      <trkpt lat="43.22818" lon="5.37735">
        <ele>112</ele>
        <time>2014-01-05T10:42:39Z</time>
      </trkpt>
      <trkpt lat="43.2281" lon="5.37738">
        <ele>112</ele>
        <time>2014-01-05T10:42:48Z</time>
      </trkpt>
      <trkpt lat="43.22802" lon="5.3774">
        <ele>117</ele>
        <time>2014-01-05T10:42:58Z</time>
      </trkpt>
      <trkpt lat="43.22788" lon="5.37737">
        <ele>126</ele>
        <time>2014-01-05T10:43:07Z</time>
      </trkpt>
      <trkpt lat="43.22778" lon="5.37741">
        <ele>128</ele>
        <time>2014-01-05T10:43:18Z</time>
      </trkpt>
      <trkpt lat="43.22766" lon="5.37751">
        <ele>128</ele>
        <time>2014-01-05T10:43:28Z</time>
      </trkpt>
      <trkpt lat="43.22756" lon="5.37757">
        <ele>128</ele>
        <time>2014-01-05T10:43:38Z</time>
      </trkpt>
      <trkpt lat="43.22745" lon="5.37759">
        <ele>128</ele>
        <time>2014-01-05T10:43:47Z</time>
      </trkpt>
      <trkpt lat="43.22739" lon="5.37773">
        <ele>128</ele>
        <time>2014-01-05T10:43:57Z</time>
      </trkpt>
      <trkpt lat="43.22729" lon="5.3778">
        <ele>127</ele>
        <time>2014-01-05T10:44:07Z</time>
      </trkpt>
      <trkpt lat="43.22723" lon="5.37785">
        <ele>127</ele>
        <time>2014-01-05T10:44:17Z</time>
      </trkpt>
      <trkpt lat="43.22715" lon="5.37793">
        <ele>128</ele>
        <time>2014-01-05T10:44:26Z</time>
      </trkpt>
      <trkpt lat="43.22709" lon="5.37803">
        <ele>133</ele>
        <time>2014-01-05T10:44:36Z</time>
      </trkpt>
      <trkpt lat="43.227" lon="5.37813">
        <ele>134</ele>
        <time>2014-01-05T10:44:45Z</time>
      </trkpt>
      <trkpt lat="43.22688" lon="5.37814">
        <ele>134</ele>
        <time>2014-01-05T10:44:55Z</time>
      </trkpt>
      <trkpt lat="43.22678" lon="5.37814">
        <ele>134</ele>
        <time>2014-01-05T10:45:04Z</time>
      </trkpt>
      <trkpt lat="43.22676" lon="5.37817">
        <ele>134</ele>
        <time>2014-01-05T10:45:16Z</time>
      </trkpt>
      <trkpt lat="43.22675" lon="5.37817">
        <ele>134</ele>
        <time>2014-01-05T10:45:30Z</time>
      </trkpt>
      <trkpt lat="43.22674" lon="5.37818">
        <ele>133</ele>
        <time>2014-01-05T10:45:40Z</time>
      </trkpt>
      <trkpt lat="43.22674" lon="5.37815">
        <ele>132</ele>
        <time>2014-01-05T10:45:57Z</time>
      </trkpt>
      <trkpt lat="43.22676" lon="5.37816">
        <ele>132</ele>
        <time>2014-01-05T10:46:17Z</time>
      </trkpt>
      <trkpt lat="43.22675" lon="5.37816">
        <ele>133</ele>
        <time>2014-01-05T10:46:28Z</time>
      </trkpt>
      <trkpt lat="43.22673" lon="5.37817">
        <ele>133</ele>
        <time>2014-01-05T10:46:41Z</time>
      </trkpt>
      <trkpt lat="43.22673" lon="5.37815">
        <ele>133</ele>
        <time>2014-01-05T10:47:06Z</time>
      </trkpt>
      <trkpt lat="43.22673" lon="5.37814">
        <ele>133</ele>
        <time>2014-01-05T10:47:17Z</time>
      </trkpt>
      <trkpt lat="43.22672" lon="5.37815">
        <ele>133</ele>
        <time>2014-01-05T10:47:26Z</time>
      </trkpt>
      <trkpt lat="43.22673" lon="5.37814">
        <ele>131</ele>
        <time>2014-01-05T10:47:50Z</time>
      </trkpt>
      <trkpt lat="43.22677" lon="5.37819">
        <ele>131</ele>
        <time>2014-01-05T10:48:01Z</time>
      </trkpt>
      <trkpt lat="43.22676" lon="5.37818">
        <ele>131</ele>
        <time>2014-01-05T10:48:10Z</time>
      </trkpt>
      <trkpt lat="43.22675" lon="5.37817">
        <ele>131</ele>
        <time>2014-01-05T10:48:25Z</time>
      </trkpt>
      <trkpt lat="43.22674" lon="5.37816">
        <ele>131</ele>
        <time>2014-01-05T10:48:41Z</time>
      </trkpt>
      <trkpt lat="43.22675" lon="5.37813">
        <ele>131</ele>
        <time>2014-01-05T10:48:57Z</time>
      </trkpt>
      <trkpt lat="43.22673" lon="5.37813">
        <ele>131</ele>
        <time>2014-01-05T10:49:08Z</time>
      </trkpt>
      <trkpt lat="43.22673" lon="5.37813">
        <ele>131</ele>
        <time>2014-01-05T10:49:22Z</time>
      </trkpt>
      <trkpt lat="43.22672" lon="5.37814">
        <ele>131</ele>
        <time>2014-01-05T10:49:42Z</time>
      </trkpt>
      <trkpt lat="43.22671" lon="5.37822">
        <ele>131</ele>
        <time>2014-01-05T10:49:51Z</time>
      </trkpt>
      <trkpt lat="43.22673" lon="5.37836">
        <ele>131</ele>
        <time>2014-01-05T10:50:01Z</time>
      </trkpt>
      <trkpt lat="43.22681" lon="5.37843">
        <ele>131</ele>
        <time>2014-01-05T10:50:11Z</time>
      </trkpt>
      <trkpt lat="43.2269" lon="5.37851">
        <ele>132</ele>
        <time>2014-01-05T10:50:20Z</time>
      </trkpt>
      <trkpt lat="43.22699" lon="5.37854">
        <ele>134</ele>
        <time>2014-01-05T10:50:30Z</time>
      </trkpt>
      <trkpt lat="43.22704" lon="5.37868">
        <ele>138</ele>
        <time>2014-01-05T10:50:41Z</time>
      </trkpt>
      <trkpt lat="43.22714" lon="5.37873">
        <ele>142</ele>
        <time>2014-01-05T10:50:51Z</time>
      </trkpt>
      <trkpt lat="43.22718" lon="5.37877">
        <ele>142</ele>
        <time>2014-01-05T10:51:03Z</time>
      </trkpt>
      <trkpt lat="43.22724" lon="5.37882">
        <ele>142</ele>
        <time>2014-01-05T10:51:13Z</time>
      </trkpt>
      <trkpt lat="43.22725" lon="5.37896">
        <ele>140</ele>
        <time>2014-01-05T10:51:23Z</time>
      </trkpt>
      <trkpt lat="43.22726" lon="5.37905">
        <ele>140</ele>
        <time>2014-01-05T10:51:32Z</time>
      </trkpt>
      <trkpt lat="43.22728" lon="5.37918">
        <ele>140</ele>
        <time>2014-01-05T10:51:43Z</time>
      </trkpt>
      <trkpt lat="43.22729" lon="5.37926">
        <ele>141</ele>
        <time>2014-01-05T10:51:53Z</time>
      </trkpt>
      <trkpt lat="43.22732" lon="5.3793">
        <ele>143</ele>
        <time>2014-01-05T10:52:03Z</time>
      </trkpt>
      <trkpt lat="43.22736" lon="5.37932">
        <ele>145</ele>
        <time>2014-01-05T10:52:12Z</time>
      </trkpt>
      <trkpt lat="43.22735" lon="5.37938">
        <ele>146</ele>
        <time>2014-01-05T10:52:23Z</time>
      </trkpt>
      <trkpt lat="43.2274" lon="5.37934">
        <ele>147</ele>
        <time>2014-01-05T10:52:33Z</time>
      </trkpt>
      <trkpt lat="43.22744" lon="5.37938">
        <ele>151</ele>
        <time>2014-01-05T10:52:43Z</time>
      </trkpt>
      <trkpt lat="43.22745" lon="5.37941">
        <ele>157</ele>
        <time>2014-01-05T10:52:52Z</time>
      </trkpt>
      <trkpt lat="43.22752" lon="5.37936">
        <ele>157</ele>
        <time>2014-01-05T10:53:01Z</time>
      </trkpt>
      <trkpt lat="43.22757" lon="5.37925">
        <ele>158</ele>
        <time>2014-01-05T10:53:11Z</time>
      </trkpt>
      <trkpt lat="43.22758" lon="5.37916">
        <ele>158</ele>
        <time>2014-01-05T10:53:21Z</time>
      </trkpt>
      <trkpt lat="43.22754" lon="5.37913">
        <ele>167</ele>
        <time>2014-01-05T10:53:32Z</time>
      </trkpt>
      <trkpt lat="43.22758" lon="5.37913">
        <ele>166</ele>
        <time>2014-01-05T10:53:41Z</time>
      </trkpt>
      <trkpt lat="43.22762" lon="5.37917">
        <ele>159</ele>
        <time>2014-01-05T10:53:51Z</time>
      </trkpt>
      <trkpt lat="43.22764" lon="5.37918">
        <ele>151</ele>
        <time>2014-01-05T10:54:04Z</time>
      </trkpt>
      <trkpt lat="43.22765" lon="5.37916">
        <ele>151</ele>
        <time>2014-01-05T10:54:17Z</time>
      </trkpt>
      <trkpt lat="43.22767" lon="5.37914">
        <ele>153</ele>
        <time>2014-01-05T10:54:29Z</time>
      </trkpt>
      <trkpt lat="43.22764" lon="5.37913">
        <ele>158</ele>
        <time>2014-01-05T10:54:39Z</time>
      </trkpt>
      <trkpt lat="43.22764" lon="5.37914">
        <ele>164</ele>
        <time>2014-01-05T10:54:50Z</time>
      </trkpt>
      <trkpt lat="43.22764" lon="5.37915">
        <ele>171</ele>
        <time>2014-01-05T10:55:04Z</time>
      </trkpt>
      <trkpt lat="43.22764" lon="5.37919">
        <ele>168</ele>
        <time>2014-01-05T10:55:14Z</time>
      </trkpt>
      <trkpt lat="43.22763" lon="5.37917">
        <ele>168</ele>
        <time>2014-01-05T10:55:28Z</time>
      </trkpt>
      <trkpt lat="43.22765" lon="5.37918">
        <ele>168</ele>
        <time>2014-01-05T10:55:38Z</time>
      </trkpt>
      <trkpt lat="43.22766" lon="5.37925">
        <ele>166</ele>
        <time>2014-01-05T10:55:48Z</time>
      </trkpt>
      <trkpt lat="43.2277" lon="5.37931">
        <ele>166</ele>
        <time>2014-01-05T10:55:58Z</time>
      </trkpt>
      <trkpt lat="43.22771" lon="5.37936">
        <ele>166</ele>
        <time>2014-01-05T10:56:09Z</time>
      </trkpt>
      <trkpt lat="43.22769" lon="5.37939">
        <ele>168</ele>
        <time>2014-01-05T10:56:18Z</time>
      </trkpt>
      <trkpt lat="43.2277" lon="5.37943">
        <ele>173</ele>
        <time>2014-01-05T10:56:35Z</time>
      </trkpt>
      <trkpt lat="43.2277" lon="5.37946">
        <ele>175</ele>
        <time>2014-01-05T10:56:46Z</time>
      </trkpt>
      <trkpt lat="43.22771" lon="5.37951">
        <ele>177</ele>
        <time>2014-01-05T10:56:56Z</time>
      </trkpt>
      <trkpt lat="43.22771" lon="5.37957">
        <ele>177</ele>
        <time>2014-01-05T10:57:13Z</time>
      </trkpt>
      <trkpt lat="43.2277" lon="5.37967">
        <ele>177</ele>
        <time>2014-01-05T10:57:23Z</time>
      </trkpt>
      <trkpt lat="43.22771" lon="5.37976">
        <ele>177</ele>
        <time>2014-01-05T10:57:33Z</time>
      </trkpt>
      <trkpt lat="43.2277" lon="5.37977">
        <ele>177</ele>
        <time>2014-01-05T10:57:44Z</time>
      </trkpt>
      <trkpt lat="43.22769" lon="5.37979">
        <ele>180</ele>
        <time>2014-01-05T10:57:55Z</time>
      </trkpt>
      <trkpt lat="43.22767" lon="5.37983">
        <ele>180</ele>
        <time>2014-01-05T10:58:04Z</time>
      </trkpt>
      <trkpt lat="43.22766" lon="5.37986">
        <ele>184</ele>
        <time>2014-01-05T10:58:15Z</time>
      </trkpt>
      <trkpt lat="43.22767" lon="5.37987">
        <ele>187</ele>
        <time>2014-01-05T10:58:27Z</time>
      </trkpt>
      <trkpt lat="43.22763" lon="5.37993">
        <ele>190</ele>
        <time>2014-01-05T10:58:38Z</time>
      </trkpt>
      <trkpt lat="43.22764" lon="5.38002">
        <ele>190</ele>
        <time>2014-01-05T10:58:49Z</time>
      </trkpt>
      <trkpt lat="43.22762" lon="5.38011">
        <ele>190</ele>
        <time>2014-01-05T10:59:01Z</time>
      </trkpt>
      <trkpt lat="43.22764" lon="5.38012">
        <ele>191</ele>
        <time>2014-01-05T10:59:12Z</time>
      </trkpt>
      <trkpt lat="43.22767" lon="5.38012">
        <ele>194</ele>
        <time>2014-01-05T10:59:22Z</time>
      </trkpt>
      <trkpt lat="43.2277" lon="5.38012">
        <ele>196</ele>
        <time>2014-01-05T10:59:31Z</time>
      </trkpt>
      <trkpt lat="43.22773" lon="5.38009">
        <ele>198</ele>
        <time>2014-01-05T10:59:40Z</time>
      </trkpt>
      <trkpt lat="43.22769" lon="5.38008">
        <ele>203</ele>
        <time>2014-01-05T10:59:49Z</time>
      </trkpt>
      <trkpt lat="43.22767" lon="5.38005">
        <ele>208</ele>
        <time>2014-01-05T10:59:59Z</time>
      </trkpt>
      <trkpt lat="43.22764" lon="5.38">
        <ele>211</ele>
        <time>2014-01-05T11:00:08Z</time>
      </trkpt>
      <trkpt lat="43.22771" lon="5.3801">
        <ele>208</ele>
        <time>2014-01-05T11:00:18Z</time>
      </trkpt>
      <trkpt lat="43.22778" lon="5.38025">
        <ele>202</ele>
        <time>2014-01-05T11:00:31Z</time>
      </trkpt>
      <trkpt lat="43.22771" lon="5.38017">
        <ele>197</ele>
        <time>2014-01-05T11:00:40Z</time>
      </trkpt>
      <trkpt lat="43.22773" lon="5.38013">
        <ele>197</ele>
        <time>2014-01-05T11:00:52Z</time>
      </trkpt>
      <trkpt lat="43.22767" lon="5.38005">
        <ele>201</ele>
        <time>2014-01-05T11:01:01Z</time>
      </trkpt>
      <trkpt lat="43.22758" lon="5.37989">
        <ele>206</ele>
        <time>2014-01-05T11:01:12Z</time>
      </trkpt>
      <trkpt lat="43.22761" lon="5.3799">
        <ele>213</ele>
        <time>2014-01-05T11:01:22Z</time>
      </trkpt>
      <trkpt lat="43.22769" lon="5.37995">
        <ele>214</ele>
        <time>2014-01-05T11:01:31Z</time>
      </trkpt>
      <trkpt lat="43.22765" lon="5.38007">
        <ele>205</ele>
        <time>2014-01-05T11:01:41Z</time>
      </trkpt>
      <trkpt lat="43.2277" lon="5.38016">
        <ele>190</ele>
        <time>2014-01-05T11:01:50Z</time>
      </trkpt>
      <trkpt lat="43.22768" lon="5.38013">
        <ele>180</ele>
        <time>2014-01-05T11:02:00Z</time>
      </trkpt>
      <trkpt lat="43.22764" lon="5.37999">
        <ele>180</ele>
        <time>2014-01-05T11:02:10Z</time>
      </trkpt>
      <trkpt lat="43.22767" lon="5.38005">
        <ele>181</ele>
        <time>2014-01-05T11:02:19Z</time>
      </trkpt>
      <trkpt lat="43.22767" lon="5.38002">
        <ele>188</ele>
        <time>2014-01-05T11:02:28Z</time>
      </trkpt>
      <trkpt lat="43.2276" lon="5.37995">
        <ele>192</ele>
        <time>2014-01-05T11:02:37Z</time>
      </trkpt>
      <trkpt lat="43.22756" lon="5.37987">
        <ele>205</ele>
        <time>2014-01-05T11:02:47Z</time>
      </trkpt>
      <trkpt lat="43.22743" lon="5.37965">
        <ele>213</ele>
        <time>2014-01-05T11:02:57Z</time>
      </trkpt>
      <trkpt lat="43.22755" lon="5.37979">
        <ele>219</ele>
        <time>2014-01-05T11:03:06Z</time>
      </trkpt>
      <trkpt lat="43.2277" lon="5.37983">
        <ele>221</ele>
        <time>2014-01-05T11:03:42Z</time>
      </trkpt>
      <trkpt lat="43.22784" lon="5.37985">
        <ele>223</ele>
        <time>2014-01-05T11:04:16Z</time>
      </trkpt>
      <trkpt lat="43.22785" lon="5.3801">
        <ele>223</ele>
        <time>2014-01-05T11:04:25Z</time>
      </trkpt>
      <trkpt lat="43.22784" lon="5.3802">
        <ele>212</ele>
        <time>2014-01-05T11:04:37Z</time>
      </trkpt>
      <trkpt lat="43.2278" lon="5.38029">
        <ele>212</ele>
        <time>2014-01-05T11:04:47Z</time>
      </trkpt>
      <trkpt lat="43.22776" lon="5.38041">
        <ele>212</ele>
        <time>2014-01-05T11:04:57Z</time>
      </trkpt>
      <trkpt lat="43.22769" lon="5.38056">
        <ele>212</ele>
        <time>2014-01-05T11:05:06Z</time>
      </trkpt>
      <trkpt lat="43.22764" lon="5.38069">
        <ele>212</ele>
        <time>2014-01-05T11:05:15Z</time>
      </trkpt>
      <trkpt lat="43.22757" lon="5.38078">
        <ele>212</ele>
        <time>2014-01-05T11:05:24Z</time>
      </trkpt>
      <trkpt lat="43.22753" lon="5.38088">
        <ele>212</ele>
        <time>2014-01-05T11:05:34Z</time>
      </trkpt>
      <trkpt lat="43.22742" lon="5.38096">
        <ele>212</ele>
        <time>2014-01-05T11:05:43Z</time>
      </trkpt>
      <trkpt lat="43.22734" lon="5.38095">
        <ele>212</ele>
        <time>2014-01-05T11:05:54Z</time>
      </trkpt>
      <trkpt lat="43.22726" lon="5.38097">
        <ele>212</ele>
        <time>2014-01-05T11:06:03Z</time>
      </trkpt>
      <trkpt lat="43.22722" lon="5.38106">
        <ele>214</ele>
        <time>2014-01-05T11:06:13Z</time>
      </trkpt>
      <trkpt lat="43.22721" lon="5.38114">
        <ele>216</ele>
        <time>2014-01-05T11:06:23Z</time>
      </trkpt>
      <trkpt lat="43.22715" lon="5.38121">
        <ele>217</ele>
        <time>2014-01-05T11:06:33Z</time>
      </trkpt>
      <trkpt lat="43.22713" lon="5.38129">
        <ele>217</ele>
        <time>2014-01-05T11:06:43Z</time>
      </trkpt>
      <trkpt lat="43.22708" lon="5.38134">
        <ele>223</ele>
        <time>2014-01-05T11:06:53Z</time>
      </trkpt>
      <trkpt lat="43.22706" lon="5.38141">
        <ele>225</ele>
        <time>2014-01-05T11:07:03Z</time>
      </trkpt>
      <trkpt lat="43.22703" lon="5.38149">
        <ele>227</ele>
        <time>2014-01-05T11:07:14Z</time>
      </trkpt>
      <trkpt lat="43.22697" lon="5.38148">
        <ele>230</ele>
        <time>2014-01-05T11:07:25Z</time>
      </trkpt>
      <trkpt lat="43.22691" lon="5.38142">
        <ele>232</ele>
        <time>2014-01-05T11:07:34Z</time>
      </trkpt>
      <trkpt lat="43.22685" lon="5.38133">
        <ele>236</ele>
        <time>2014-01-05T11:07:43Z</time>
      </trkpt>
      <trkpt lat="43.22678" lon="5.38126">
        <ele>236</ele>
        <time>2014-01-05T11:07:54Z</time>
      </trkpt>
      <trkpt lat="43.2267" lon="5.38123">
        <ele>236</ele>
        <time>2014-01-05T11:08:03Z</time>
      </trkpt>
      <trkpt lat="43.22666" lon="5.3812">
        <ele>238</ele>
        <time>2014-01-05T11:08:14Z</time>
      </trkpt>
      <trkpt lat="43.22662" lon="5.38104">
        <ele>238</ele>
        <time>2014-01-05T11:08:23Z</time>
      </trkpt>
      <trkpt lat="43.22658" lon="5.38092">
        <ele>238</ele>
        <time>2014-01-05T11:08:34Z</time>
      </trkpt>
      <trkpt lat="43.22655" lon="5.38083">
        <ele>238</ele>
        <time>2014-01-05T11:08:44Z</time>
      </trkpt>
      <trkpt lat="43.22646" lon="5.38071">
        <ele>238</ele>
        <time>2014-01-05T11:08:54Z</time>
      </trkpt>
      <trkpt lat="43.2264" lon="5.38061">
        <ele>239</ele>
        <time>2014-01-05T11:09:03Z</time>
      </trkpt>
      <trkpt lat="43.2264" lon="5.38062">
        <ele>240</ele>
        <time>2014-01-05T11:09:32Z</time>
      </trkpt>
      <trkpt lat="43.22641" lon="5.38062">
        <ele>240</ele>
        <time>2014-01-05T11:09:49Z</time>
      </trkpt>
      <trkpt lat="43.22638" lon="5.3806">
        <ele>240</ele>
        <time>2014-01-05T11:10:01Z</time>
      </trkpt>
      <trkpt lat="43.22638" lon="5.38054">
        <ele>241</ele>
        <time>2014-01-05T11:10:15Z</time>
      </trkpt>
      <trkpt lat="43.22639" lon="5.38053">
        <ele>243</ele>
        <time>2014-01-05T11:10:27Z</time>
      </trkpt>
      <trkpt lat="43.2264" lon="5.3806">
        <ele>243</ele>
        <time>2014-01-05T11:10:36Z</time>
      </trkpt>
      <trkpt lat="43.22641" lon="5.38062">
        <ele>243</ele>
        <time>2014-01-05T11:10:46Z</time>
      </trkpt>
      <trkpt lat="43.22641" lon="5.38063">
        <ele>241</ele>
        <time>2014-01-05T11:11:06Z</time>
      </trkpt>
      <trkpt lat="43.22641" lon="5.38063">
        <ele>239</ele>
        <time>2014-01-05T11:11:29Z</time>
      </trkpt>
      <trkpt lat="43.2264" lon="5.38065">
        <ele>239</ele>
        <time>2014-01-05T11:11:39Z</time>
      </trkpt>
      <trkpt lat="43.22639" lon="5.3806">
        <ele>233</ele>
        <time>2014-01-05T11:12:03Z</time>
      </trkpt>
      <trkpt lat="43.22639" lon="5.38048">
        <ele>233</ele>
        <time>2014-01-05T11:12:12Z</time>
      </trkpt>
      <trkpt lat="43.22637" lon="5.38034">
        <ele>233</ele>
        <time>2014-01-05T11:12:22Z</time>
      </trkpt>
      <trkpt lat="43.22634" lon="5.38023">
        <ele>233</ele>
        <time>2014-01-05T11:12:31Z</time>
      </trkpt>
      <trkpt lat="43.22633" lon="5.38011">
        <ele>233</ele>
        <time>2014-01-05T11:12:40Z</time>
      </trkpt>
      <trkpt lat="43.22628" lon="5.38">
        <ele>233</ele>
        <time>2014-01-05T11:12:49Z</time>
      </trkpt>
      <trkpt lat="43.22622" lon="5.37995">
        <ele>233</ele>
        <time>2014-01-05T11:12:59Z</time>
      </trkpt>
      <trkpt lat="43.22613" lon="5.37995">
        <ele>233</ele>
        <time>2014-01-05T11:13:08Z</time>
      </trkpt>
      <trkpt lat="43.22602" lon="5.37995">
        <ele>233</ele>
        <time>2014-01-05T11:13:17Z</time>
      </trkpt>
      <trkpt lat="43.226" lon="5.37984">
        <ele>235</ele>
        <time>2014-01-05T11:13:28Z</time>
      </trkpt>
      <trkpt lat="43.22595" lon="5.3797">
        <ele>235</ele>
        <time>2014-01-05T11:13:37Z</time>
      </trkpt>
      <trkpt lat="43.22593" lon="5.37961">
        <ele>236</ele>
        <time>2014-01-05T11:13:47Z</time>
      </trkpt>
      <trkpt lat="43.22589" lon="5.37948">
        <ele>236</ele>
        <time>2014-01-05T11:13:56Z</time>
      </trkpt>
      <trkpt lat="43.22584" lon="5.37938">
        <ele>236</ele>
        <time>2014-01-05T11:14:05Z</time>
      </trkpt>
      <trkpt lat="43.22581" lon="5.37932">
        <ele>231</ele>
        <time>2014-01-05T11:14:15Z</time>
      </trkpt>
      <trkpt lat="43.22573" lon="5.3793">
        <ele>229</ele>
        <time>2014-01-05T11:14:25Z</time>
      </trkpt>
      <trkpt lat="43.22563" lon="5.37928">
        <ele>227</ele>
        <time>2014-01-05T11:14:34Z</time>
      </trkpt>
      <trkpt lat="43.22551" lon="5.37922">
        <ele>226</ele>
        <time>2014-01-05T11:14:43Z</time>
      </trkpt>
      <trkpt lat="43.22539" lon="5.37918">
        <ele>224</ele>
        <time>2014-01-05T11:14:53Z</time>
      </trkpt>
      <trkpt lat="43.22526" lon="5.37912">
        <ele>221</ele>
        <time>2014-01-05T11:15:03Z</time>
      </trkpt>
      <trkpt lat="43.22515" lon="5.37913">
        <ele>220</ele>
        <time>2014-01-05T11:15:12Z</time>
      </trkpt>
      <trkpt lat="43.22505" lon="5.3793">
        <ele>219</ele>
        <time>2014-01-05T11:15:22Z</time>
      </trkpt>
      <trkpt lat="43.22494" lon="5.37941">
        <ele>219</ele>
        <time>2014-01-05T11:15:31Z</time>
      </trkpt>
      <trkpt lat="43.22483" lon="5.37945">
        <ele>221</ele>
        <time>2014-01-05T11:15:40Z</time>
      </trkpt>
      <trkpt lat="43.2247" lon="5.37929">
        <ele>222</ele>
        <time>2014-01-05T11:15:50Z</time>
      </trkpt>
      <trkpt lat="43.22459" lon="5.37923">
        <ele>222</ele>
        <time>2014-01-05T11:15:59Z</time>
      </trkpt>
      <trkpt lat="43.22452" lon="5.37914">
        <ele>222</ele>
        <time>2014-01-05T11:16:10Z</time>
      </trkpt>
      <trkpt lat="43.22445" lon="5.37903">
        <ele>218</ele>
        <time>2014-01-05T11:16:19Z</time>
      </trkpt>
      <trkpt lat="43.22438" lon="5.37895">
        <ele>217</ele>
        <time>2014-01-05T11:16:28Z</time>
      </trkpt>
      <trkpt lat="43.2243" lon="5.37885">
        <ele>222</ele>
        <time>2014-01-05T11:16:38Z</time>
      </trkpt>
      <trkpt lat="43.22426" lon="5.37872">
        <ele>223</ele>
        <time>2014-01-05T11:16:47Z</time>
      </trkpt>
      <trkpt lat="43.22421" lon="5.37867">
        <ele>225</ele>
        <time>2014-01-05T11:16:57Z</time>
      </trkpt>
      <trkpt lat="43.22415" lon="5.3786">
        <ele>231</ele>
        <time>2014-01-05T11:17:06Z</time>
      </trkpt>
      <trkpt lat="43.22408" lon="5.37861">
        <ele>239</ele>
        <time>2014-01-05T11:17:16Z</time>
      </trkpt>
      <trkpt lat="43.22403" lon="5.37853">
        <ele>246</ele>
        <time>2014-01-05T11:17:25Z</time>
      </trkpt>
      <trkpt lat="43.22401" lon="5.37848">
        <ele>248</ele>
        <time>2014-01-05T11:17:35Z</time>
      </trkpt>
      <trkpt lat="43.22405" lon="5.37847">
        <ele>244</ele>
        <time>2014-01-05T11:17:44Z</time>
      </trkpt>
      <trkpt lat="43.22411" lon="5.37847">
        <ele>237</ele>
        <time>2014-01-05T11:17:54Z</time>
      </trkpt>
      <trkpt lat="43.22408" lon="5.37845">
        <ele>231</ele>
        <time>2014-01-05T11:18:11Z</time>
      </trkpt>
      <trkpt lat="43.22407" lon="5.37844">
        <ele>228</ele>
        <time>2014-01-05T11:18:21Z</time>
      </trkpt>
      <trkpt lat="43.22403" lon="5.37845">
        <ele>238</ele>
        <time>2014-01-05T11:18:34Z</time>
      </trkpt>
      <trkpt lat="43.22403" lon="5.3785">
        <ele>242</ele>
        <time>2014-01-05T11:18:43Z</time>
      </trkpt>
      <trkpt lat="43.22402" lon="5.37865">
        <ele>240</ele>
        <time>2014-01-05T11:18:53Z</time>
      </trkpt>
      <trkpt lat="43.22402" lon="5.37874">
        <ele>239</ele>
        <time>2014-01-05T11:19:02Z</time>
      </trkpt>
      <trkpt lat="43.22401" lon="5.37885">
        <ele>238</ele>
        <time>2014-01-05T11:19:12Z</time>
      </trkpt>
      <trkpt lat="43.22395" lon="5.37899">
        <ele>238</ele>
        <time>2014-01-05T11:19:22Z</time>
      </trkpt>
      <trkpt lat="43.22391" lon="5.37907">
        <ele>238</ele>
        <time>2014-01-05T11:19:33Z</time>
      </trkpt>
      <trkpt lat="43.22386" lon="5.37911">
        <ele>238</ele>
        <time>2014-01-05T11:19:43Z</time>
      </trkpt>
      <trkpt lat="43.22383" lon="5.37906">
        <ele>238</ele>
        <time>2014-01-05T11:19:53Z</time>
      </trkpt>
      <trkpt lat="43.22379" lon="5.37906">
        <ele>239</ele>
        <time>2014-01-05T11:20:04Z</time>
      </trkpt>
      <trkpt lat="43.22379" lon="5.37912">
        <ele>244</ele>
        <time>2014-01-05T11:20:14Z</time>
      </trkpt>
      <trkpt lat="43.22377" lon="5.37912">
        <ele>244</ele>
        <time>2014-01-05T11:20:28Z</time>
      </trkpt>
      <trkpt lat="43.22373" lon="5.37905">
        <ele>245</ele>
        <time>2014-01-05T11:20:39Z</time>
      </trkpt>
      <trkpt lat="43.2237" lon="5.379">
        <ele>248</ele>
        <time>2014-01-05T11:20:52Z</time>
      </trkpt>
      <trkpt lat="43.22369" lon="5.37897">
        <ele>248</ele>
        <time>2014-01-05T11:21:01Z</time>
      </trkpt>
      <trkpt lat="43.22369" lon="5.37887">
        <ele>248</ele>
        <time>2014-01-05T11:21:10Z</time>
      </trkpt>
      <trkpt lat="43.22368" lon="5.3788">
        <ele>249</ele>
        <time>2014-01-05T11:21:21Z</time>
      </trkpt>
      <trkpt lat="43.22361" lon="5.37876">
        <ele>252</ele>
        <time>2014-01-05T11:21:32Z</time>
      </trkpt>
      <trkpt lat="43.22356" lon="5.37871">
        <ele>260</ele>
        <time>2014-01-05T11:21:43Z</time>
      </trkpt>
      <trkpt lat="43.22355" lon="5.37867">
        <ele>263</ele>
        <time>2014-01-05T11:21:52Z</time>
      </trkpt>
      <trkpt lat="43.22352" lon="5.37862">
        <ele>264</ele>
        <time>2014-01-05T11:22:02Z</time>
      </trkpt>
      <trkpt lat="43.22349" lon="5.37861">
        <ele>264</ele>
        <time>2014-01-05T11:22:12Z</time>
      </trkpt>
      <trkpt lat="43.22348" lon="5.37856">
        <ele>264</ele>
        <time>2014-01-05T11:22:23Z</time>
      </trkpt>
      <trkpt lat="43.22346" lon="5.37854">
        <ele>267</ele>
        <time>2014-01-05T11:22:41Z</time>
      </trkpt>
      <trkpt lat="43.22343" lon="5.37846">
        <ele>267</ele>
        <time>2014-01-05T11:22:50Z</time>
      </trkpt>
      <trkpt lat="43.22338" lon="5.37849">
        <ele>267</ele>
        <time>2014-01-05T11:23:00Z</time>
      </trkpt>
      <trkpt lat="43.22336" lon="5.37847">
        <ele>272</ele>
        <time>2014-01-05T11:23:18Z</time>
      </trkpt>
      <trkpt lat="43.22341" lon="5.37841">
        <ele>272</ele>
        <time>2014-01-05T11:23:27Z</time>
      </trkpt>
      <trkpt lat="43.22343" lon="5.37831">
        <ele>272</ele>
        <time>2014-01-05T11:23:36Z</time>
      </trkpt>
      <trkpt lat="43.22337" lon="5.37827">
        <ele>272</ele>
        <time>2014-01-05T11:23:45Z</time>
      </trkpt>
      <trkpt lat="43.22337" lon="5.37829">
        <ele>272</ele>
        <time>2014-01-05T11:24:11Z</time>
      </trkpt>
      <trkpt lat="43.22342" lon="5.37832">
        <ele>270</ele>
        <time>2014-01-05T11:24:21Z</time>
      </trkpt>
      <trkpt lat="43.22345" lon="5.37843">
        <ele>269</ele>
        <time>2014-01-05T11:24:31Z</time>
      </trkpt>
      <trkpt lat="43.22347" lon="5.37854">
        <ele>269</ele>
        <time>2014-01-05T11:24:41Z</time>
      </trkpt>
      <trkpt lat="43.22347" lon="5.37858">
        <ele>269</ele>
        <time>2014-01-05T11:24:50Z</time>
      </trkpt>
      <trkpt lat="43.22348" lon="5.37868">
        <ele>266</ele>
        <time>2014-01-05T11:24:59Z</time>
      </trkpt>
      <trkpt lat="43.22349" lon="5.37876">
        <ele>266</ele>
        <time>2014-01-05T11:25:09Z</time>
      </trkpt>
      <trkpt lat="43.22348" lon="5.37888">
        <ele>266</ele>
        <time>2014-01-05T11:25:18Z</time>
      </trkpt>
      <trkpt lat="43.2234" lon="5.379">
        <ele>266</ele>
        <time>2014-01-05T11:25:29Z</time>
      </trkpt>
      <trkpt lat="43.22332" lon="5.37913">
        <ele>266</ele>
        <time>2014-01-05T11:25:38Z</time>
      </trkpt>
      <trkpt lat="43.22326" lon="5.37926">
        <ele>266</ele>
        <time>2014-01-05T11:25:47Z</time>
      </trkpt>
      <trkpt lat="43.22324" lon="5.37938">
        <ele>267</ele>
        <time>2014-01-05T11:25:56Z</time>
      </trkpt>
      <trkpt lat="43.22324" lon="5.37953">
        <ele>267</ele>
        <time>2014-01-05T11:26:06Z</time>
      </trkpt>
      <trkpt lat="43.22322" lon="5.37964">
        <ele>267</ele>
        <time>2014-01-05T11:26:15Z</time>
      </trkpt>
      <trkpt lat="43.22321" lon="5.37976">
        <ele>267</ele>
        <time>2014-01-05T11:26:24Z</time>
      </trkpt>
      <trkpt lat="43.22322" lon="5.37989">
        <ele>267</ele>
        <time>2014-01-05T11:26:35Z</time>
      </trkpt>
      <trkpt lat="43.22324" lon="5.38002">
        <ele>267</ele>
        <time>2014-01-05T11:26:44Z</time>
      </trkpt>
      <trkpt lat="43.22322" lon="5.38011">
        <ele>268</ele>
        <time>2014-01-05T11:26:53Z</time>
      </trkpt>
      <trkpt lat="43.22316" lon="5.38024">
        <ele>270</ele>
        <time>2014-01-05T11:27:03Z</time>
      </trkpt>
      <trkpt lat="43.22314" lon="5.38035">
        <ele>270</ele>
        <time>2014-01-05T11:27:12Z</time>
      </trkpt>
      <trkpt lat="43.22308" lon="5.38045">
        <ele>270</ele>
        <time>2014-01-05T11:27:21Z</time>
      </trkpt>
      <trkpt lat="43.22302" lon="5.38055">
        <ele>270</ele>
        <time>2014-01-05T11:27:30Z</time>
      </trkpt>
      <trkpt lat="43.22299" lon="5.38067">
        <ele>271</ele>
        <time>2014-01-05T11:27:39Z</time>
      </trkpt>
      <trkpt lat="43.22292" lon="5.3808">
        <ele>271</ele>
        <time>2014-01-05T11:27:49Z</time>
      </trkpt>
      <trkpt lat="43.22292" lon="5.38089">
        <ele>271</ele>
        <time>2014-01-05T11:27:58Z</time>
      </trkpt>
      <trkpt lat="43.22289" lon="5.38102">
        <ele>272</ele>
        <time>2014-01-05T11:28:08Z</time>
      </trkpt>
      <trkpt lat="43.22285" lon="5.38109">
        <ele>275</ele>
        <time>2014-01-05T11:28:18Z</time>
      </trkpt>
      <trkpt lat="43.22282" lon="5.38119">
        <ele>276</ele>
        <time>2014-01-05T11:28:28Z</time>
      </trkpt>
      <trkpt lat="43.2228" lon="5.38128">
        <ele>279</ele>
        <time>2014-01-05T11:28:38Z</time>
      </trkpt>
      <trkpt lat="43.22278" lon="5.38139">
        <ele>282</ele>
        <time>2014-01-05T11:28:48Z</time>
      </trkpt>
      <trkpt lat="43.22279" lon="5.38149">
        <ele>286</ele>
        <time>2014-01-05T11:28:58Z</time>
      </trkpt>
      <trkpt lat="43.22284" lon="5.38159">
        <ele>289</ele>
        <time>2014-01-05T11:29:08Z</time>
      </trkpt>
      <trkpt lat="43.22288" lon="5.38166">
        <ele>290</ele>
        <time>2014-01-05T11:29:18Z</time>
      </trkpt>
      <trkpt lat="43.2229" lon="5.38174">
        <ele>291</ele>
        <time>2014-01-05T11:29:28Z</time>
      </trkpt>
      <trkpt lat="43.22295" lon="5.38181">
        <ele>291</ele>
        <time>2014-01-05T11:29:38Z</time>
      </trkpt>
      <trkpt lat="43.223" lon="5.38186">
        <ele>291</ele>
        <time>2014-01-05T11:29:47Z</time>
      </trkpt>
      <trkpt lat="43.22304" lon="5.38192">
        <ele>291</ele>
        <time>2014-01-05T11:29:59Z</time>
      </trkpt>
      <trkpt lat="43.22306" lon="5.38193">
        <ele>296</ele>
        <time>2014-01-05T11:30:23Z</time>
      </trkpt>
      <trkpt lat="43.22305" lon="5.38196">
        <ele>299</ele>
        <time>2014-01-05T11:30:35Z</time>
      </trkpt>
      <trkpt lat="43.22304" lon="5.38195">
        <ele>300</ele>
        <time>2014-01-05T11:30:50Z</time>
      </trkpt>
      <trkpt lat="43.22305" lon="5.38198">
        <ele>300</ele>
        <time>2014-01-05T11:31:02Z</time>
      </trkpt>
      <trkpt lat="43.22307" lon="5.38199">
        <ele>302</ele>
        <time>2014-01-05T11:31:15Z</time>
      </trkpt>
      <trkpt lat="43.22309" lon="5.382">
        <ele>303</ele>
        <time>2014-01-05T11:31:25Z</time>
      </trkpt>
      <trkpt lat="43.2231" lon="5.38204">
        <ele>303</ele>
        <time>2014-01-05T11:31:34Z</time>
      </trkpt>
      <trkpt lat="43.22312" lon="5.38205">
        <ele>304</ele>
        <time>2014-01-05T11:31:44Z</time>
      </trkpt>
      <trkpt lat="43.22313" lon="5.38205">
        <ele>304</ele>
        <time>2014-01-05T11:32:23Z</time>
      </trkpt>
      <trkpt lat="43.22313" lon="5.38207">
        <ele>310</ele>
        <time>2014-01-05T11:32:56Z</time>
      </trkpt>
      <trkpt lat="43.22315" lon="5.38207">
        <ele>310</ele>
        <time>2014-01-05T11:33:24Z</time>
      </trkpt>
      <trkpt lat="43.22318" lon="5.38206">
        <ele>311</ele>
        <time>2014-01-05T11:33:36Z</time>
      </trkpt>
      <trkpt lat="43.22321" lon="5.38207">
        <ele>313</ele>
        <time>2014-01-05T11:33:45Z</time>
      </trkpt>
      <trkpt lat="43.22327" lon="5.38206">
        <ele>315</ele>
        <time>2014-01-05T11:33:56Z</time>
      </trkpt>
      <trkpt lat="43.22329" lon="5.38209">
        <ele>317</ele>
        <time>2014-01-05T11:34:05Z</time>
      </trkpt>
      <trkpt lat="43.22326" lon="5.38216">
        <ele>317</ele>
        <time>2014-01-05T11:34:14Z</time>
      </trkpt>
      <trkpt lat="43.22324" lon="5.38222">
        <ele>317</ele>
        <time>2014-01-05T11:34:24Z</time>
      </trkpt>
      <trkpt lat="43.22324" lon="5.38227">
        <ele>320</ele>
        <time>2014-01-05T11:34:35Z</time>
      </trkpt>
      <trkpt lat="43.22322" lon="5.38233">
        <ele>322</ele>
        <time>2014-01-05T11:34:45Z</time>
      </trkpt>
      <trkpt lat="43.22326" lon="5.38235">
        <ele>324</ele>
        <time>2014-01-05T11:34:54Z</time>
      </trkpt>
      <trkpt lat="43.2233" lon="5.3824">
        <ele>326</ele>
        <time>2014-01-05T11:35:04Z</time>
      </trkpt>
      <trkpt lat="43.22327" lon="5.38244">
        <ele>328</ele>
        <time>2014-01-05T11:35:13Z</time>
      </trkpt>
      <trkpt lat="43.22327" lon="5.38247">
        <ele>329</ele>
        <time>2014-01-05T11:35:22Z</time>
      </trkpt>
      <trkpt lat="43.22329" lon="5.38254">
        <ele>329</ele>
        <time>2014-01-05T11:35:32Z</time>
      </trkpt>
      <trkpt lat="43.2233" lon="5.38254">
        <ele>331</ele>
        <time>2014-01-05T11:35:53Z</time>
      </trkpt>
      <trkpt lat="43.22329" lon="5.38261">
        <ele>333</ele>
        <time>2014-01-05T11:36:04Z</time>
      </trkpt>
      <trkpt lat="43.2233" lon="5.38269">
        <ele>333</ele>
        <time>2014-01-05T11:36:15Z</time>
      </trkpt>
      <trkpt lat="43.22332" lon="5.38276">
        <ele>334</ele>
        <time>2014-01-05T11:36:25Z</time>
      </trkpt>
      <trkpt lat="43.22333" lon="5.38282">
        <ele>337</ele>
        <time>2014-01-05T11:36:35Z</time>
      </trkpt>
      <trkpt lat="43.22334" lon="5.38287">
        <ele>339</ele>
        <time>2014-01-05T11:36:44Z</time>
      </trkpt>
      <trkpt lat="43.22335" lon="5.38292">
        <ele>340</ele>
        <time>2014-01-05T11:36:54Z</time>
      </trkpt>
      <trkpt lat="43.22336" lon="5.38295">
        <ele>341</ele>
        <time>2014-01-05T11:37:05Z</time>
      </trkpt>
      <trkpt lat="43.22336" lon="5.38298">
        <ele>343</ele>
        <time>2014-01-05T11:37:14Z</time>
      </trkpt>
      <trkpt lat="43.22336" lon="5.38303">
        <ele>345</ele>
        <time>2014-01-05T11:37:24Z</time>
      </trkpt>
      <trkpt lat="43.22338" lon="5.38309">
        <ele>347</ele>
        <time>2014-01-05T11:37:38Z</time>
      </trkpt>
      <trkpt lat="43.22337" lon="5.38314">
        <ele>348</ele>
        <time>2014-01-05T11:37:49Z</time>
      </trkpt>
      <trkpt lat="43.22335" lon="5.38313">
        <ele>350</ele>
        <time>2014-01-05T11:38:30Z</time>
      </trkpt>
      <trkpt lat="43.22335" lon="5.38315">
        <ele>352</ele>
        <time>2014-01-05T11:39:32Z</time>
      </trkpt>
      <trkpt lat="43.22337" lon="5.38314">
        <ele>353</ele>
        <time>2014-01-05T11:40:44Z</time>
      </trkpt>
      <trkpt lat="43.22337" lon="5.38316">
        <ele>353</ele>
        <time>2014-01-05T11:41:30Z</time>
      </trkpt>
      <trkpt lat="43.22336" lon="5.38317">
        <ele>353</ele>
        <time>2014-01-05T11:41:44Z</time>
      </trkpt>
      <trkpt lat="43.22335" lon="5.38319">
        <ele>353</ele>
        <time>2014-01-05T11:42:00Z</time>
      </trkpt>
      <trkpt lat="43.22336" lon="5.38319">
        <ele>353</ele>
        <time>2014-01-05T11:42:12Z</time>
      </trkpt>
      <trkpt lat="43.22335" lon="5.38326">
        <ele>353</ele>
        <time>2014-01-05T11:42:24Z</time>
      </trkpt>
      <trkpt lat="43.22338" lon="5.38328">
        <ele>353</ele>
        <time>2014-01-05T11:42:34Z</time>
      </trkpt>
      <trkpt lat="43.22344" lon="5.38331">
        <ele>355</ele>
        <time>2014-01-05T11:42:43Z</time>
      </trkpt>
      <trkpt lat="43.22348" lon="5.38336">
        <ele>357</ele>
        <time>2014-01-05T11:42:52Z</time>
      </trkpt>
      <trkpt lat="43.22348" lon="5.38344">
        <ele>359</ele>
        <time>2014-01-05T11:43:04Z</time>
      </trkpt>
      <trkpt lat="43.22346" lon="5.38349">
        <ele>360</ele>
        <time>2014-01-05T11:43:13Z</time>
      </trkpt>
      <trkpt lat="43.22343" lon="5.38358">
        <ele>360</ele>
        <time>2014-01-05T11:43:23Z</time>
      </trkpt>
      <trkpt lat="43.22337" lon="5.38369">
        <ele>360</ele>
        <time>2014-01-05T11:43:33Z</time>
      </trkpt>
      <trkpt lat="43.22334" lon="5.38379">
        <ele>360</ele>
        <time>2014-01-05T11:43:43Z</time>
      </trkpt>
      <trkpt lat="43.22337" lon="5.3839">
        <ele>360</ele>
        <time>2014-01-05T11:43:52Z</time>
      </trkpt>
      <trkpt lat="43.22337" lon="5.38403">
        <ele>360</ele>
        <time>2014-01-05T11:44:01Z</time>
      </trkpt>
      <trkpt lat="43.22337" lon="5.38415">
        <ele>360</ele>
        <time>2014-01-05T11:44:10Z</time>
      </trkpt>
      <trkpt lat="43.2233" lon="5.38426">
        <ele>358</ele>
        <time>2014-01-05T11:44:20Z</time>
      </trkpt>
      <trkpt lat="43.22324" lon="5.38439">
        <ele>357</ele>
        <time>2014-01-05T11:44:29Z</time>
      </trkpt>
      <trkpt lat="43.22318" lon="5.38453">
        <ele>356</ele>
        <time>2014-01-05T11:44:39Z</time>
      </trkpt>
      <trkpt lat="43.22312" lon="5.38465">
        <ele>355</ele>
        <time>2014-01-05T11:44:49Z</time>
      </trkpt>
      <trkpt lat="43.22308" lon="5.38479">
        <ele>355</ele>
        <time>2014-01-05T11:44:59Z</time>
      </trkpt>
      <trkpt lat="43.22303" lon="5.38488">
        <ele>354</ele>
        <time>2014-01-05T11:45:08Z</time>
      </trkpt>
      <trkpt lat="43.22298" lon="5.38499">
        <ele>354</ele>
        <time>2014-01-05T11:45:17Z</time>
      </trkpt>
      <trkpt lat="43.22293" lon="5.38507">
        <ele>354</ele>
        <time>2014-01-05T11:45:27Z</time>
      </trkpt>
      <trkpt lat="43.2229" lon="5.38516">
        <ele>353</ele>
        <time>2014-01-05T11:45:36Z</time>
      </trkpt>
      <trkpt lat="43.22283" lon="5.38527">
        <ele>352</ele>
        <time>2014-01-05T11:45:45Z</time>
      </trkpt>
      <trkpt lat="43.22275" lon="5.38534">
        <ele>351</ele>
        <time>2014-01-05T11:45:54Z</time>
      </trkpt>
      <trkpt lat="43.2227" lon="5.38546">
        <ele>350</ele>
        <time>2014-01-05T11:46:04Z</time>
      </trkpt>
      <trkpt lat="43.22265" lon="5.38553">
        <ele>348</ele>
        <time>2014-01-05T11:46:13Z</time>
      </trkpt>
      <trkpt lat="43.22261" lon="5.38566">
        <ele>347</ele>
        <time>2014-01-05T11:46:23Z</time>
      </trkpt>
      <trkpt lat="43.22256" lon="5.38581">
        <ele>346</ele>
        <time>2014-01-05T11:46:33Z</time>
      </trkpt>
      <trkpt lat="43.22247" lon="5.38595">
        <ele>345</ele>
        <time>2014-01-05T11:46:43Z</time>
      </trkpt>
      <trkpt lat="43.22241" lon="5.38609">
        <ele>345</ele>
        <time>2014-01-05T11:46:52Z</time>
      </trkpt>
      <trkpt lat="43.22235" lon="5.38622">
        <ele>344</ele>
        <time>2014-01-05T11:47:01Z</time>
      </trkpt>
      <trkpt lat="43.22231" lon="5.38634">
        <ele>344</ele>
        <time>2014-01-05T11:47:10Z</time>
      </trkpt>
      <trkpt lat="43.22224" lon="5.38644">
        <ele>344</ele>
        <time>2014-01-05T11:47:19Z</time>
      </trkpt>
      <trkpt lat="43.22216" lon="5.38648">
        <ele>340</ele>
        <time>2014-01-05T11:47:35Z</time>
      </trkpt>
      <trkpt lat="43.22216" lon="5.38644">
        <ele>340</ele>
        <time>2014-01-05T11:47:57Z</time>
      </trkpt>
      <trkpt lat="43.22216" lon="5.38646">
        <ele>340</ele>
        <time>2014-01-05T11:48:06Z</time>
      </trkpt>
      <trkpt lat="43.22209" lon="5.38654">
        <ele>340</ele>
        <time>2014-01-05T11:48:15Z</time>
      </trkpt>
      <trkpt lat="43.22197" lon="5.3866">
        <ele>340</ele>
        <time>2014-01-05T11:48:24Z</time>
      </trkpt>
      <trkpt lat="43.22187" lon="5.38672">
        <ele>340</ele>
        <time>2014-01-05T11:48:34Z</time>
      </trkpt>
      <trkpt lat="43.2218" lon="5.38683">
        <ele>340</ele>
        <time>2014-01-05T11:48:44Z</time>
      </trkpt>
      <trkpt lat="43.22174" lon="5.38693">
        <ele>338</ele>
        <time>2014-01-05T11:48:53Z</time>
      </trkpt>
      <trkpt lat="43.22166" lon="5.387">
        <ele>338</ele>
        <time>2014-01-05T11:49:02Z</time>
      </trkpt>
      <trkpt lat="43.22158" lon="5.38703">
        <ele>338</ele>
        <time>2014-01-05T11:49:11Z</time>
      </trkpt>
      <trkpt lat="43.22149" lon="5.38709">
        <ele>338</ele>
        <time>2014-01-05T11:49:20Z</time>
      </trkpt>
      <trkpt lat="43.2214" lon="5.38721">
        <ele>338</ele>
        <time>2014-01-05T11:49:30Z</time>
      </trkpt>
      <trkpt lat="43.22132" lon="5.38727">
        <ele>338</ele>
        <time>2014-01-05T11:49:40Z</time>
      </trkpt>
      <trkpt lat="43.22126" lon="5.38732">
        <ele>338</ele>
        <time>2014-01-05T11:49:49Z</time>
      </trkpt>
      <trkpt lat="43.22121" lon="5.38738">
        <ele>338</ele>
        <time>2014-01-05T11:49:59Z</time>
      </trkpt>
      <trkpt lat="43.22115" lon="5.3874">
        <ele>338</ele>
        <time>2014-01-05T11:50:08Z</time>
      </trkpt>
      <trkpt lat="43.22109" lon="5.38748">
        <ele>338</ele>
        <time>2014-01-05T11:50:18Z</time>
      </trkpt>
      <trkpt lat="43.22102" lon="5.38755">
        <ele>338</ele>
        <time>2014-01-05T11:50:27Z</time>
      </trkpt>
      <trkpt lat="43.22092" lon="5.38761">
        <ele>338</ele>
        <time>2014-01-05T11:50:37Z</time>
      </trkpt>
      <trkpt lat="43.22083" lon="5.38766">
        <ele>338</ele>
        <time>2014-01-05T11:50:47Z</time>
      </trkpt>
      <trkpt lat="43.22074" lon="5.38767">
        <ele>338</ele>
        <time>2014-01-05T11:50:57Z</time>
      </trkpt>
      <trkpt lat="43.22065" lon="5.38768">
        <ele>338</ele>
        <time>2014-01-05T11:51:06Z</time>
      </trkpt>
      <trkpt lat="43.22056" lon="5.38769">
        <ele>338</ele>
        <time>2014-01-05T11:51:15Z</time>
      </trkpt>
      <trkpt lat="43.22048" lon="5.38766">
        <ele>338</ele>
        <time>2014-01-05T11:51:25Z</time>
      </trkpt>
      <trkpt lat="43.22041" lon="5.38766">
        <ele>338</ele>
        <time>2014-01-05T11:51:35Z</time>
      </trkpt>
      <trkpt lat="43.22032" lon="5.38766">
        <ele>338</ele>
        <time>2014-01-05T11:51:45Z</time>
      </trkpt>
      <trkpt lat="43.22022" lon="5.3877">
        <ele>339</ele>
        <time>2014-01-05T11:51:55Z</time>
      </trkpt>
      <trkpt lat="43.22014" lon="5.38772">
        <ele>340</ele>
        <time>2014-01-05T11:52:05Z</time>
      </trkpt>
      <trkpt lat="43.22007" lon="5.38773">
        <ele>342</ele>
        <time>2014-01-05T11:52:15Z</time>
      </trkpt>
      <trkpt lat="43.22001" lon="5.38774">
        <ele>343</ele>
        <time>2014-01-05T11:52:25Z</time>
      </trkpt>
      <trkpt lat="43.21996" lon="5.3878">
        <ele>343</ele>
        <time>2014-01-05T11:52:34Z</time>
      </trkpt>
      <trkpt lat="43.21989" lon="5.38787">
        <ele>343</ele>
        <time>2014-01-05T11:52:44Z</time>
      </trkpt>
      <trkpt lat="43.21982" lon="5.38792">
        <ele>343</ele>
        <time>2014-01-05T11:52:55Z</time>
      </trkpt>
      <trkpt lat="43.21976" lon="5.38798">
        <ele>345</ele>
        <time>2014-01-05T11:53:06Z</time>
      </trkpt>
      <trkpt lat="43.21973" lon="5.38801">
        <ele>345</ele>
        <time>2014-01-05T11:53:16Z</time>
      </trkpt>
      <trkpt lat="43.21968" lon="5.38806">
        <ele>345</ele>
        <time>2014-01-05T11:53:26Z</time>
      </trkpt>
      <trkpt lat="43.21965" lon="5.3881">
        <ele>345</ele>
        <time>2014-01-05T11:53:35Z</time>
      </trkpt>
      <trkpt lat="43.2196" lon="5.38812">
        <ele>346</ele>
        <time>2014-01-05T11:53:45Z</time>
      </trkpt>
      <trkpt lat="43.21954" lon="5.38814">
        <ele>348</ele>
        <time>2014-01-05T11:53:55Z</time>
      </trkpt>
      <trkpt lat="43.21949" lon="5.38814">
        <ele>350</ele>
        <time>2014-01-05T11:54:05Z</time>
      </trkpt>
      <trkpt lat="43.21943" lon="5.38813">
        <ele>351</ele>
        <time>2014-01-05T11:54:14Z</time>
      </trkpt>
      <trkpt lat="43.21937" lon="5.38815">
        <ele>352</ele>
        <time>2014-01-05T11:54:25Z</time>
      </trkpt>
      <trkpt lat="43.21934" lon="5.38824">
        <ele>353</ele>
        <time>2014-01-05T11:54:35Z</time>
      </trkpt>
      <trkpt lat="43.21931" lon="5.38834">
        <ele>353</ele>
        <time>2014-01-05T11:54:44Z</time>
      </trkpt>
      <trkpt lat="43.21928" lon="5.38844">
        <ele>353</ele>
        <time>2014-01-05T11:54:53Z</time>
      </trkpt>
      <trkpt lat="43.21923" lon="5.38851">
        <ele>354</ele>
        <time>2014-01-05T11:55:02Z</time>
      </trkpt>
      <trkpt lat="43.21915" lon="5.3886">
        <ele>356</ele>
        <time>2014-01-05T11:55:12Z</time>
      </trkpt>
      <trkpt lat="43.21911" lon="5.3887">
        <ele>356</ele>
        <time>2014-01-05T11:55:22Z</time>
      </trkpt>
      <trkpt lat="43.21907" lon="5.38879">
        <ele>356</ele>
        <time>2014-01-05T11:55:32Z</time>
      </trkpt>
      <trkpt lat="43.21903" lon="5.38886">
        <ele>356</ele>
        <time>2014-01-05T11:55:42Z</time>
      </trkpt>
      <trkpt lat="43.21896" lon="5.38892">
        <ele>359</ele>
        <time>2014-01-05T11:55:52Z</time>
      </trkpt>
      <trkpt lat="43.21892" lon="5.38897">
        <ele>361</ele>
        <time>2014-01-05T11:56:02Z</time>
      </trkpt>
      <trkpt lat="43.21887" lon="5.38908">
        <ele>362</ele>
        <time>2014-01-05T11:56:12Z</time>
      </trkpt>
      <trkpt lat="43.21883" lon="5.38917">
        <ele>362</ele>
        <time>2014-01-05T11:56:22Z</time>
      </trkpt>
      <trkpt lat="43.21877" lon="5.38924">
        <ele>363</ele>
        <time>2014-01-05T11:56:33Z</time>
      </trkpt>
      <trkpt lat="43.21875" lon="5.38929">
        <ele>364</ele>
        <time>2014-01-05T11:56:43Z</time>
      </trkpt>
      <trkpt lat="43.2187" lon="5.3894">
        <ele>364</ele>
        <time>2014-01-05T11:56:53Z</time>
      </trkpt>
      <trkpt lat="43.21863" lon="5.38952">
        <ele>365</ele>
        <time>2014-01-05T11:57:03Z</time>
      </trkpt>
      <trkpt lat="43.21856" lon="5.38959">
        <ele>366</ele>
        <time>2014-01-05T11:57:12Z</time>
      </trkpt>
      <trkpt lat="43.21849" lon="5.38963">
        <ele>367</ele>
        <time>2014-01-05T11:57:21Z</time>
      </trkpt>
      <trkpt lat="43.2185" lon="5.38974">
        <ele>367</ele>
        <time>2014-01-05T11:57:30Z</time>
      </trkpt>
      <trkpt lat="43.21846" lon="5.38987">
        <ele>367</ele>
        <time>2014-01-05T11:57:39Z</time>
      </trkpt>
      <trkpt lat="43.21845" lon="5.39001">
        <ele>367</ele>
        <time>2014-01-05T11:57:48Z</time>
      </trkpt>
      <trkpt lat="43.21843" lon="5.39014">
        <ele>367</ele>
        <time>2014-01-05T11:57:57Z</time>
      </trkpt>
      <trkpt lat="43.21841" lon="5.39028">
        <ele>367</ele>
        <time>2014-01-05T11:58:06Z</time>
      </trkpt>
      <trkpt lat="43.21839" lon="5.39043">
        <ele>367</ele>
        <time>2014-01-05T11:58:15Z</time>
      </trkpt>
      <trkpt lat="43.21836" lon="5.39057">
        <ele>367</ele>
        <time>2014-01-05T11:58:24Z</time>
      </trkpt>
      <trkpt lat="43.21833" lon="5.39071">
        <ele>367</ele>
        <time>2014-01-05T11:58:33Z</time>
      </trkpt>
      <trkpt lat="43.21828" lon="5.39083">
        <ele>367</ele>
        <time>2014-01-05T11:58:43Z</time>
      </trkpt>
      <trkpt lat="43.2182" lon="5.39089">
        <ele>366</ele>
        <time>2014-01-05T11:58:52Z</time>
      </trkpt>
      <trkpt lat="43.21819" lon="5.39088">
        <ele>366</ele>
        <time>2014-01-05T11:59:06Z</time>
      </trkpt>
      <trkpt lat="43.21818" lon="5.39087">
        <ele>366</ele>
        <time>2014-01-05T11:59:45Z</time>
      </trkpt>
      <trkpt lat="43.21817" lon="5.39086">
        <ele>366</ele>
        <time>2014-01-05T11:59:54Z</time>
      </trkpt>
      <trkpt lat="43.21815" lon="5.39086">
        <ele>366</ele>
        <time>2014-01-05T12:00:11Z</time>
      </trkpt>
      <trkpt lat="43.21807" lon="5.39088">
        <ele>365</ele>
        <time>2014-01-05T12:00:21Z</time>
      </trkpt>
      <trkpt lat="43.21796" lon="5.39084">
        <ele>364</ele>
        <time>2014-01-05T12:00:30Z</time>
      </trkpt>
      <trkpt lat="43.21786" lon="5.39081">
        <ele>364</ele>
        <time>2014-01-05T12:00:40Z</time>
      </trkpt>
      <trkpt lat="43.21782" lon="5.39068">
        <ele>363</ele>
        <time>2014-01-05T12:00:50Z</time>
      </trkpt>
      <trkpt lat="43.21772" lon="5.39058">
        <ele>363</ele>
        <time>2014-01-05T12:01:00Z</time>
      </trkpt>
      <trkpt lat="43.21764" lon="5.39051">
        <ele>363</ele>
        <time>2014-01-05T12:01:10Z</time>
      </trkpt>
      <trkpt lat="43.21757" lon="5.39039">
        <ele>363</ele>
        <time>2014-01-05T12:01:20Z</time>
      </trkpt>
      <trkpt lat="43.21748" lon="5.39032">
        <ele>363</ele>
        <time>2014-01-05T12:01:29Z</time>
      </trkpt>
      <trkpt lat="43.2174" lon="5.39024">
        <ele>362</ele>
        <time>2014-01-05T12:01:39Z</time>
      </trkpt>
      <trkpt lat="43.2173" lon="5.39025">
        <ele>360</ele>
        <time>2014-01-05T12:01:49Z</time>
      </trkpt>
      <trkpt lat="43.21722" lon="5.39028">
        <ele>359</ele>
        <time>2014-01-05T12:01:58Z</time>
      </trkpt>
      <trkpt lat="43.21713" lon="5.39033">
        <ele>358</ele>
        <time>2014-01-05T12:02:07Z</time>
      </trkpt>
      <trkpt lat="43.21703" lon="5.39039">
        <ele>357</ele>
        <time>2014-01-05T12:02:17Z</time>
      </trkpt>
      <trkpt lat="43.21692" lon="5.3904">
        <ele>356</ele>
        <time>2014-01-05T12:02:27Z</time>
      </trkpt>
      <trkpt lat="43.21683" lon="5.39044">
        <ele>353</ele>
        <time>2014-01-05T12:02:36Z</time>
      </trkpt>
      <trkpt lat="43.21674" lon="5.39041">
        <ele>353</ele>
        <time>2014-01-05T12:02:45Z</time>
      </trkpt>
      <trkpt lat="43.21665" lon="5.39041">
        <ele>352</ele>
        <time>2014-01-05T12:02:58Z</time>
      </trkpt>
      <trkpt lat="43.21662" lon="5.39039">
        <ele>352</ele>
        <time>2014-01-05T12:03:09Z</time>
      </trkpt>
      <trkpt lat="43.21658" lon="5.39039">
        <ele>351</ele>
        <time>2014-01-05T12:03:19Z</time>
      </trkpt>
      <trkpt lat="43.21652" lon="5.39035">
        <ele>351</ele>
        <time>2014-01-05T12:03:28Z</time>
      </trkpt>
      <trkpt lat="43.21644" lon="5.3903">
        <ele>350</ele>
        <time>2014-01-05T12:03:38Z</time>
      </trkpt>
      <trkpt lat="43.21636" lon="5.39027">
        <ele>350</ele>
        <time>2014-01-05T12:03:48Z</time>
      </trkpt>
      <trkpt lat="43.21632" lon="5.39025">
        <ele>349</ele>
        <time>2014-01-05T12:03:57Z</time>
      </trkpt>
      <trkpt lat="43.21625" lon="5.39023">
        <ele>349</ele>
        <time>2014-01-05T12:04:06Z</time>
      </trkpt>
      <trkpt lat="43.21618" lon="5.3902">
        <ele>347</ele>
        <time>2014-01-05T12:04:16Z</time>
      </trkpt>
      <trkpt lat="43.21614" lon="5.39015">
        <ele>344</ele>
        <time>2014-01-05T12:04:25Z</time>
      </trkpt>
      <trkpt lat="43.21612" lon="5.39013">
        <ele>343</ele>
        <time>2014-01-05T12:04:35Z</time>
      </trkpt>
      <trkpt lat="43.21605" lon="5.39011">
        <ele>342</ele>
        <time>2014-01-05T12:04:44Z</time>
      </trkpt>
      <trkpt lat="43.21595" lon="5.39007">
        <ele>342</ele>
        <time>2014-01-05T12:04:54Z</time>
      </trkpt>
      <trkpt lat="43.21588" lon="5.39002">
        <ele>341</ele>
        <time>2014-01-05T12:05:04Z</time>
      </trkpt>
      <trkpt lat="43.21582" lon="5.38997">
        <ele>339</ele>
        <time>2014-01-05T12:05:13Z</time>
      </trkpt>
      <trkpt lat="43.21576" lon="5.38986">
        <ele>338</ele>
        <time>2014-01-05T12:05:22Z</time>
      </trkpt>
      <trkpt lat="43.2157" lon="5.38977">
        <ele>338</ele>
        <time>2014-01-05T12:05:31Z</time>
      </trkpt>
      <trkpt lat="43.21566" lon="5.38972">
        <ele>337</ele>
        <time>2014-01-05T12:05:42Z</time>
      </trkpt>
      <trkpt lat="43.21562" lon="5.38962">
        <ele>337</ele>
        <time>2014-01-05T12:05:52Z</time>
      </trkpt>
      <trkpt lat="43.21561" lon="5.38954">
        <ele>337</ele>
        <time>2014-01-05T12:06:01Z</time>
      </trkpt>
      <trkpt lat="43.21558" lon="5.38941">
        <ele>337</ele>
        <time>2014-01-05T12:06:11Z</time>
      </trkpt>
      <trkpt lat="43.21558" lon="5.38928">
        <ele>337</ele>
        <time>2014-01-05T12:06:20Z</time>
      </trkpt>
      <trkpt lat="43.21558" lon="5.38918">
        <ele>337</ele>
        <time>2014-01-05T12:06:30Z</time>
      </trkpt>
      <trkpt lat="43.21552" lon="5.38912">
        <ele>334</ele>
        <time>2014-01-05T12:06:39Z</time>
      </trkpt>
      <trkpt lat="43.21547" lon="5.38904">
        <ele>332</ele>
        <time>2014-01-05T12:06:48Z</time>
      </trkpt>
      <trkpt lat="43.21549" lon="5.389">
        <ele>330</ele>
        <time>2014-01-05T12:07:02Z</time>
      </trkpt>
      <trkpt lat="43.21547" lon="5.38887">
        <ele>328</ele>
        <time>2014-01-05T12:07:11Z</time>
      </trkpt>
      <trkpt lat="43.21545" lon="5.38877">
        <ele>326</ele>
        <time>2014-01-05T12:07:21Z</time>
      </trkpt>
      <trkpt lat="43.21544" lon="5.38869">
        <ele>326</ele>
        <time>2014-01-05T12:07:30Z</time>
      </trkpt>
      <trkpt lat="43.21543" lon="5.38861">
        <ele>326</ele>
        <time>2014-01-05T12:07:39Z</time>
      </trkpt>
      <trkpt lat="43.21545" lon="5.38849">
        <ele>324</ele>
        <time>2014-01-05T12:07:49Z</time>
      </trkpt>
      <trkpt lat="43.21545" lon="5.38845">
        <ele>324</ele>
        <time>2014-01-05T12:08:20Z</time>
      </trkpt>
      <trkpt lat="43.21545" lon="5.38846">
        <ele>324</ele>
        <time>2014-01-05T12:08:34Z</time>
      </trkpt>
      <trkpt lat="43.21544" lon="5.38848">
        <ele>324</ele>
        <time>2014-01-05T12:08:50Z</time>
      </trkpt>
      <trkpt lat="43.21542" lon="5.38859">
        <ele>324</ele>
        <time>2014-01-05T12:08:59Z</time>
      </trkpt>
      <trkpt lat="43.21543" lon="5.38865">
        <ele>324</ele>
        <time>2014-01-05T12:09:08Z</time>
      </trkpt>
      <trkpt lat="43.21546" lon="5.38869">
        <ele>331</ele>
        <time>2014-01-05T12:09:32Z</time>
      </trkpt>
      <trkpt lat="43.21543" lon="5.38869">
        <ele>331</ele>
        <time>2014-01-05T12:09:44Z</time>
      </trkpt>
      <trkpt lat="43.21542" lon="5.38869">
        <ele>331</ele>
        <time>2014-01-05T12:09:54Z</time>
      </trkpt>
      <trkpt lat="43.21542" lon="5.38867">
        <ele>331</ele>
        <time>2014-01-05T12:10:16Z</time>
      </trkpt>
      <trkpt lat="43.21541" lon="5.38863">
        <ele>331</ele>
        <time>2014-01-05T12:10:28Z</time>
      </trkpt>
      <trkpt lat="43.2154" lon="5.38853">
        <ele>331</ele>
        <time>2014-01-05T12:10:37Z</time>
      </trkpt>
      <trkpt lat="43.21542" lon="5.38844">
        <ele>331</ele>
        <time>2014-01-05T12:10:46Z</time>
      </trkpt>
      <trkpt lat="43.21543" lon="5.38833">
        <ele>331</ele>
        <time>2014-01-05T12:10:56Z</time>
      </trkpt>
      <trkpt lat="43.21545" lon="5.38821">
        <ele>331</ele>
        <time>2014-01-05T12:11:05Z</time>
      </trkpt>
      <trkpt lat="43.21551" lon="5.38814">
        <ele>331</ele>
        <time>2014-01-05T12:11:15Z</time>
      </trkpt>
      <trkpt lat="43.21555" lon="5.38824">
        <ele>331</ele>
        <time>2014-01-05T12:11:25Z</time>
      </trkpt>
      <trkpt lat="43.21555" lon="5.38835">
        <ele>331</ele>
        <time>2014-01-05T12:11:34Z</time>
      </trkpt>
      <trkpt lat="43.21556" lon="5.38847">
        <ele>331</ele>
        <time>2014-01-05T12:11:43Z</time>
      </trkpt>
      <trkpt lat="43.21557" lon="5.38858">
        <ele>332</ele>
        <time>2014-01-05T12:11:52Z</time>
      </trkpt>
      <trkpt lat="43.21558" lon="5.38869">
        <ele>333</ele>
        <time>2014-01-05T12:12:01Z</time>
      </trkpt>
      <trkpt lat="43.21558" lon="5.38882">
        <ele>333</ele>
        <time>2014-01-05T12:12:10Z</time>
      </trkpt>
      <trkpt lat="43.2156" lon="5.38896">
        <ele>333</ele>
        <time>2014-01-05T12:12:19Z</time>
      </trkpt>
      <trkpt lat="43.21561" lon="5.38909">
        <ele>333</ele>
        <time>2014-01-05T12:12:28Z</time>
      </trkpt>
      <trkpt lat="43.21561" lon="5.3892">
        <ele>333</ele>
        <time>2014-01-05T12:12:37Z</time>
      </trkpt>
      <trkpt lat="43.21563" lon="5.38923">
        <ele>333</ele>
        <time>2014-01-05T12:12:51Z</time>
      </trkpt>
      <trkpt lat="43.21568" lon="5.38927">
        <ele>333</ele>
        <time>2014-01-05T12:13:01Z</time>
      </trkpt>
      <trkpt lat="43.21572" lon="5.38933">
        <ele>332</ele>
        <time>2014-01-05T12:13:12Z</time>
      </trkpt>
      <trkpt lat="43.21575" lon="5.38943">
        <ele>331</ele>
        <time>2014-01-05T12:13:21Z</time>
      </trkpt>
      <trkpt lat="43.21578" lon="5.38955">
        <ele>331</ele>
        <time>2014-01-05T12:13:30Z</time>
      </trkpt>
      <trkpt lat="43.21583" lon="5.38964">
        <ele>331</ele>
        <time>2014-01-05T12:13:40Z</time>
      </trkpt>
      <trkpt lat="43.21589" lon="5.38961">
        <ele>327</ele>
        <time>2014-01-05T12:13:50Z</time>
      </trkpt>
      <trkpt lat="43.2159" lon="5.38954">
        <ele>325</ele>
        <time>2014-01-05T12:13:59Z</time>
      </trkpt>
      <trkpt lat="43.21592" lon="5.38945">
        <ele>322</ele>
        <time>2014-01-05T12:14:09Z</time>
      </trkpt>
      <trkpt lat="43.21593" lon="5.38935">
        <ele>319</ele>
        <time>2014-01-05T12:14:18Z</time>
      </trkpt>
      <trkpt lat="43.21597" lon="5.38921">
        <ele>317</ele>
        <time>2014-01-05T12:14:27Z</time>
      </trkpt>
      <trkpt lat="43.216" lon="5.38911">
        <ele>315</ele>
        <time>2014-01-05T12:14:36Z</time>
      </trkpt>
      <trkpt lat="43.21607" lon="5.389">
        <ele>314</ele>
        <time>2014-01-05T12:14:45Z</time>
      </trkpt>
      <trkpt lat="43.21609" lon="5.3889">
        <ele>312</ele>
        <time>2014-01-05T12:14:54Z</time>
      </trkpt>
      <trkpt lat="43.21614" lon="5.38882">
        <ele>310</ele>
        <time>2014-01-05T12:15:03Z</time>
      </trkpt>
      <trkpt lat="43.21616" lon="5.38871">
        <ele>309</ele>
        <time>2014-01-05T12:15:12Z</time>
      </trkpt>
      <trkpt lat="43.21616" lon="5.38862">
        <ele>306</ele>
        <time>2014-01-05T12:15:21Z</time>
      </trkpt>
      <trkpt lat="43.21621" lon="5.38851">
        <ele>303</ele>
        <time>2014-01-05T12:15:31Z</time>
      </trkpt>
      <trkpt lat="43.21626" lon="5.38841">
        <ele>302</ele>
        <time>2014-01-05T12:15:41Z</time>
      </trkpt>
      <trkpt lat="43.21623" lon="5.38836">
        <ele>300</ele>
        <time>2014-01-05T12:15:51Z</time>
      </trkpt>
      <trkpt lat="43.21622" lon="5.3883">
        <ele>297</ele>
        <time>2014-01-05T12:16:00Z</time>
      </trkpt>
      <trkpt lat="43.21625" lon="5.38823">
        <ele>295</ele>
        <time>2014-01-05T12:16:12Z</time>
      </trkpt>
      <trkpt lat="43.21626" lon="5.38819">
        <ele>294</ele>
        <time>2014-01-05T12:16:21Z</time>
      </trkpt>
      <trkpt lat="43.21627" lon="5.38812">
        <ele>292</ele>
        <time>2014-01-05T12:16:31Z</time>
      </trkpt>
      <trkpt lat="43.21625" lon="5.38807">
        <ele>291</ele>
        <time>2014-01-05T12:16:43Z</time>
      </trkpt>
      <trkpt lat="43.2162" lon="5.38797">
        <ele>287</ele>
        <time>2014-01-05T12:16:53Z</time>
      </trkpt>
      <trkpt lat="43.21623" lon="5.38782">
        <ele>281</ele>
        <time>2014-01-05T12:17:02Z</time>
      </trkpt>
      <trkpt lat="43.21616" lon="5.38772">
        <ele>277</ele>
        <time>2014-01-05T12:17:12Z</time>
      </trkpt>
      <trkpt lat="43.21616" lon="5.38758">
        <ele>275</ele>
        <time>2014-01-05T12:17:21Z</time>
      </trkpt>
      <trkpt lat="43.21615" lon="5.38745">
        <ele>273</ele>
        <time>2014-01-05T12:17:32Z</time>
      </trkpt>
      <trkpt lat="43.21611" lon="5.38736">
        <ele>272</ele>
        <time>2014-01-05T12:17:41Z</time>
      </trkpt>
      <trkpt lat="43.21607" lon="5.38726">
        <ele>271</ele>
        <time>2014-01-05T12:17:50Z</time>
      </trkpt>
      <trkpt lat="43.21608" lon="5.38712">
        <ele>271</ele>
        <time>2014-01-05T12:17:59Z</time>
      </trkpt>
      <trkpt lat="43.21618" lon="5.38705">
        <ele>268</ele>
        <time>2014-01-05T12:18:08Z</time>
      </trkpt>
      <trkpt lat="43.21618" lon="5.38692">
        <ele>262</ele>
        <time>2014-01-05T12:18:17Z</time>
      </trkpt>
      <trkpt lat="43.21619" lon="5.38678">
        <ele>257</ele>
        <time>2014-01-05T12:18:27Z</time>
      </trkpt>
      <trkpt lat="43.2162" lon="5.38666">
        <ele>253</ele>
        <time>2014-01-05T12:18:36Z</time>
      </trkpt>
      <trkpt lat="43.21617" lon="5.38653">
        <ele>252</ele>
        <time>2014-01-05T12:18:46Z</time>
      </trkpt>
      <trkpt lat="43.21617" lon="5.38639">
        <ele>250</ele>
        <time>2014-01-05T12:18:55Z</time>
      </trkpt>
      <trkpt lat="43.21614" lon="5.38626">
        <ele>249</ele>
        <time>2014-01-05T12:19:04Z</time>
      </trkpt>
      <trkpt lat="43.21611" lon="5.38613">
        <ele>247</ele>
        <time>2014-01-05T12:19:14Z</time>
      </trkpt>
      <trkpt lat="43.21609" lon="5.38597">
        <ele>246</ele>
        <time>2014-01-05T12:19:23Z</time>
      </trkpt>
      <trkpt lat="43.21613" lon="5.3858">
        <ele>243</ele>
        <time>2014-01-05T12:19:32Z</time>
      </trkpt>
      <trkpt lat="43.2162" lon="5.38565">
        <ele>243</ele>
        <time>2014-01-05T12:19:41Z</time>
      </trkpt>
      <trkpt lat="43.21622" lon="5.38548">
        <ele>242</ele>
        <time>2014-01-05T12:19:51Z</time>
      </trkpt>
      <trkpt lat="43.21623" lon="5.38533">
        <ele>241</ele>
        <time>2014-01-05T12:20:00Z</time>
      </trkpt>
      <trkpt lat="43.21619" lon="5.38519">
        <ele>237</ele>
        <time>2014-01-05T12:20:09Z</time>
      </trkpt>
      <trkpt lat="43.21623" lon="5.38503">
        <ele>237</ele>
        <time>2014-01-05T12:20:18Z</time>
      </trkpt>
      <trkpt lat="43.21624" lon="5.38485">
        <ele>235</ele>
        <time>2014-01-05T12:20:28Z</time>
      </trkpt>
      <trkpt lat="43.21625" lon="5.38464">
        <ele>233</ele>
        <time>2014-01-05T12:20:37Z</time>
      </trkpt>
      <trkpt lat="43.21632" lon="5.38447">
        <ele>233</ele>
        <time>2014-01-05T12:20:46Z</time>
      </trkpt>
      <trkpt lat="43.2164" lon="5.38441">
        <ele>233</ele>
        <time>2014-01-05T12:20:57Z</time>
      </trkpt>
      <trkpt lat="43.21642" lon="5.38444">
        <ele>233</ele>
        <time>2014-01-05T12:21:07Z</time>
      </trkpt>
      <trkpt lat="43.21649" lon="5.38452">
        <ele>229</ele>
        <time>2014-01-05T12:21:17Z</time>
      </trkpt>
      <trkpt lat="43.21655" lon="5.38445">
        <ele>226</ele>
        <time>2014-01-05T12:21:26Z</time>
      </trkpt>
      <trkpt lat="43.2166" lon="5.3843">
        <ele>224</ele>
        <time>2014-01-05T12:21:36Z</time>
      </trkpt>
      <trkpt lat="43.21669" lon="5.38418">
        <ele>222</ele>
        <time>2014-01-05T12:21:45Z</time>
      </trkpt>
      <trkpt lat="43.21678" lon="5.38404">
        <ele>222</ele>
        <time>2014-01-05T12:21:54Z</time>
      </trkpt>
      <trkpt lat="43.21682" lon="5.38391">
        <ele>222</ele>
        <time>2014-01-05T12:22:03Z</time>
      </trkpt>
      <trkpt lat="43.21693" lon="5.38381">
        <ele>221</ele>
        <time>2014-01-05T12:22:12Z</time>
      </trkpt>
      <trkpt lat="43.21701" lon="5.38371">
        <ele>221</ele>
        <time>2014-01-05T12:22:21Z</time>
      </trkpt>
      <trkpt lat="43.21695" lon="5.38355">
        <ele>215</ele>
        <time>2014-01-05T12:22:30Z</time>
      </trkpt>
      <trkpt lat="43.21696" lon="5.3834">
        <ele>210</ele>
        <time>2014-01-05T12:22:39Z</time>
      </trkpt>
      <trkpt lat="43.21697" lon="5.38317">
        <ele>209</ele>
        <time>2014-01-05T12:22:49Z</time>
      </trkpt>
      <trkpt lat="43.217" lon="5.38306">
        <ele>201</ele>
        <time>2014-01-05T12:22:58Z</time>
      </trkpt>
      <trkpt lat="43.21711" lon="5.383">
        <ele>198</ele>
        <time>2014-01-05T12:23:08Z</time>
      </trkpt>
      <trkpt lat="43.21723" lon="5.38283">
        <ele>197</ele>
        <time>2014-01-05T12:23:17Z</time>
      </trkpt>
      <trkpt lat="43.21734" lon="5.38282">
        <ele>196</ele>
        <time>2014-01-05T12:23:26Z</time>
      </trkpt>
      <trkpt lat="43.21746" lon="5.38274">
        <ele>196</ele>
        <time>2014-01-05T12:23:35Z</time>
      </trkpt>
      <trkpt lat="43.21748" lon="5.38265">
        <ele>195</ele>
        <time>2014-01-05T12:23:44Z</time>
      </trkpt>
      <trkpt lat="43.21751" lon="5.3825">
        <ele>192</ele>
        <time>2014-01-05T12:23:54Z</time>
      </trkpt>
      <trkpt lat="43.2175" lon="5.38237">
        <ele>186</ele>
        <time>2014-01-05T12:24:03Z</time>
      </trkpt>
      <trkpt lat="43.21743" lon="5.38221">
        <ele>185</ele>
        <time>2014-01-05T12:24:13Z</time>
      </trkpt>
      <trkpt lat="43.21741" lon="5.38208">
        <ele>185</ele>
        <time>2014-01-05T12:24:22Z</time>
      </trkpt>
      <trkpt lat="43.21753" lon="5.38193">
        <ele>185</ele>
        <time>2014-01-05T12:24:33Z</time>
      </trkpt>
      <trkpt lat="43.2176" lon="5.38187">
        <ele>184</ele>
        <time>2014-01-05T12:24:42Z</time>
      </trkpt>
      <trkpt lat="43.2177" lon="5.38173">
        <ele>176</ele>
        <time>2014-01-05T12:24:51Z</time>
      </trkpt>
      <trkpt lat="43.2177" lon="5.38156">
        <ele>176</ele>
        <time>2014-01-05T12:25:00Z</time>
      </trkpt>
      <trkpt lat="43.2177" lon="5.3814">
        <ele>176</ele>
        <time>2014-01-05T12:25:09Z</time>
      </trkpt>
      <trkpt lat="43.21771" lon="5.38126">
        <ele>174</ele>
        <time>2014-01-05T12:25:18Z</time>
      </trkpt>
      <trkpt lat="43.21778" lon="5.38116">
        <ele>174</ele>
        <time>2014-01-05T12:25:27Z</time>
      </trkpt>
      <trkpt lat="43.21789" lon="5.38114">
        <ele>181</ele>
        <time>2014-01-05T12:25:36Z</time>
      </trkpt>
      <trkpt lat="43.2179" lon="5.38123">
        <ele>183</ele>
        <time>2014-01-05T12:25:45Z</time>
      </trkpt>
      <trkpt lat="43.21805" lon="5.38132">
        <ele>185</ele>
        <time>2014-01-05T12:25:55Z</time>
      </trkpt>
      <trkpt lat="43.21815" lon="5.38129">
        <ele>176</ele>
        <time>2014-01-05T12:26:04Z</time>
      </trkpt>
      <trkpt lat="43.21826" lon="5.38121">
        <ele>173</ele>
        <time>2014-01-05T12:26:13Z</time>
      </trkpt>
      <trkpt lat="43.21836" lon="5.38115">
        <ele>169</ele>
        <time>2014-01-05T12:26:22Z</time>
      </trkpt>
      <trkpt lat="43.21851" lon="5.38105">
        <ele>169</ele>
        <time>2014-01-05T12:26:32Z</time>
      </trkpt>
      <trkpt lat="43.21859" lon="5.38098">
        <ele>165</ele>
        <time>2014-01-05T12:26:41Z</time>
      </trkpt>
      <trkpt lat="43.21869" lon="5.38086">
        <ele>164</ele>
        <time>2014-01-05T12:26:50Z</time>
      </trkpt>
      <trkpt lat="43.21879" lon="5.38076">
        <ele>168</ele>
        <time>2014-01-05T12:27:01Z</time>
      </trkpt>
      <trkpt lat="43.21881" lon="5.38071">
        <ele>166</ele>
        <time>2014-01-05T12:27:10Z</time>
      </trkpt>
      <trkpt lat="43.21886" lon="5.38065">
        <ele>159</ele>
        <time>2014-01-05T12:27:22Z</time>
      </trkpt>
      <trkpt lat="43.21892" lon="5.38058">
        <ele>154</ele>
        <time>2014-01-05T12:27:31Z</time>
      </trkpt>
      <trkpt lat="43.21899" lon="5.38045">
        <ele>154</ele>
        <time>2014-01-05T12:27:41Z</time>
      </trkpt>
      <trkpt lat="43.21909" lon="5.38038">
        <ele>159</ele>
        <time>2014-01-05T12:27:51Z</time>
      </trkpt>
      <trkpt lat="43.21913" lon="5.38033">
        <ele>157</ele>
        <time>2014-01-05T12:28:00Z</time>
      </trkpt>
      <trkpt lat="43.21915" lon="5.38024">
        <ele>146</ele>
        <time>2014-01-05T12:28:10Z</time>
      </trkpt>
      <trkpt lat="43.21921" lon="5.38018">
        <ele>136</ele>
        <time>2014-01-05T12:28:20Z</time>
      </trkpt>
      <trkpt lat="43.21923" lon="5.38007">
        <ele>129</ele>
        <time>2014-01-05T12:28:30Z</time>
      </trkpt>
      <trkpt lat="43.21932" lon="5.37999">
        <ele>124</ele>
        <time>2014-01-05T12:28:40Z</time>
      </trkpt>
      <trkpt lat="43.21932" lon="5.37987">
        <ele>121</ele>
        <time>2014-01-05T12:28:49Z</time>
      </trkpt>
      <trkpt lat="43.21932" lon="5.37974">
        <ele>121</ele>
        <time>2014-01-05T12:28:58Z</time>
      </trkpt>
      <trkpt lat="43.21938" lon="5.37961">
        <ele>121</ele>
        <time>2014-01-05T12:29:08Z</time>
      </trkpt>
      <trkpt lat="43.21945" lon="5.37948">
        <ele>120</ele>
        <time>2014-01-05T12:29:17Z</time>
      </trkpt>
      <trkpt lat="43.21952" lon="5.37935">
        <ele>120</ele>
        <time>2014-01-05T12:29:26Z</time>
      </trkpt>
      <trkpt lat="43.21954" lon="5.37922">
        <ele>120</ele>
        <time>2014-01-05T12:29:36Z</time>
      </trkpt>
      <trkpt lat="43.21956" lon="5.37919">
        <ele>120</ele>
        <time>2014-01-05T12:29:47Z</time>
      </trkpt>
      <trkpt lat="43.21958" lon="5.37918">
        <ele>120</ele>
        <time>2014-01-05T12:29:56Z</time>
      </trkpt>
      <trkpt lat="43.21955" lon="5.37905">
        <ele>119</ele>
        <time>2014-01-05T12:30:07Z</time>
      </trkpt>
      <trkpt lat="43.21949" lon="5.37892">
        <ele>117</ele>
        <time>2014-01-05T12:30:17Z</time>
      </trkpt>
      <trkpt lat="43.21952" lon="5.3789">
        <ele>116</ele>
        <time>2014-01-05T12:30:35Z</time>
      </trkpt>
      <trkpt lat="43.21956" lon="5.37892">
        <ele>117</ele>
        <time>2014-01-05T12:30:48Z</time>
      </trkpt>
      <trkpt lat="43.21956" lon="5.37891">
        <ele>118</ele>
        <time>2014-01-05T12:31:03Z</time>
      </trkpt>
      <trkpt lat="43.21959" lon="5.37894">
        <ele>119</ele>
        <time>2014-01-05T12:31:12Z</time>
      </trkpt>
      <trkpt lat="43.21963" lon="5.379">
        <ele>119</ele>
        <time>2014-01-05T12:31:21Z</time>
      </trkpt>
      <trkpt lat="43.21967" lon="5.37903">
        <ele>119</ele>
        <time>2014-01-05T12:31:30Z</time>
      </trkpt>
      <trkpt lat="43.21972" lon="5.37904">
        <ele>119</ele>
        <time>2014-01-05T12:31:40Z</time>
      </trkpt>
      <trkpt lat="43.21977" lon="5.37902">
        <ele>119</ele>
        <time>2014-01-05T12:31:50Z</time>
      </trkpt>
      <trkpt lat="43.21981" lon="5.379">
        <ele>122</ele>
        <time>2014-01-05T12:32:00Z</time>
      </trkpt>
      <trkpt lat="43.21983" lon="5.37905">
        <ele>130</ele>
        <time>2014-01-05T12:32:11Z</time>
      </trkpt>
      <trkpt lat="43.21985" lon="5.37909">
        <ele>139</ele>
        <time>2014-01-05T12:32:21Z</time>
      </trkpt>
      <trkpt lat="43.21997" lon="5.37908">
        <ele>139</ele>
        <time>2014-01-05T12:32:30Z</time>
      </trkpt>
      <trkpt lat="43.22005" lon="5.37908">
        <ele>139</ele>
        <time>2014-01-05T12:32:41Z</time>
      </trkpt>
      <trkpt lat="43.22009" lon="5.37914">
        <ele>147</ele>
        <time>2014-01-05T12:32:51Z</time>
      </trkpt>
      <trkpt lat="43.22013" lon="5.37918">
        <ele>151</ele>
        <time>2014-01-05T12:33:00Z</time>
      </trkpt>
      <trkpt lat="43.22023" lon="5.37919">
        <ele>153</ele>
        <time>2014-01-05T12:33:10Z</time>
      </trkpt>
      <trkpt lat="43.22042" lon="5.37915">
        <ele>154</ele>
        <time>2014-01-05T12:33:19Z</time>
      </trkpt>
      <trkpt lat="43.22042" lon="5.37916">
        <ele>153</ele>
        <time>2014-01-05T12:33:28Z</time>
      </trkpt>
      <trkpt lat="43.22038" lon="5.3791">
        <ele>147</ele>
        <time>2014-01-05T12:33:37Z</time>
      </trkpt>
      <trkpt lat="43.22041" lon="5.37902">
        <ele>143</ele>
        <time>2014-01-05T12:33:50Z</time>
      </trkpt>
      <trkpt lat="43.22042" lon="5.37898">
        <ele>143</ele>
        <time>2014-01-05T12:33:59Z</time>
      </trkpt>
      <trkpt lat="43.22045" lon="5.37894">
        <ele>143</ele>
        <time>2014-01-05T12:34:08Z</time>
      </trkpt>
      <trkpt lat="43.22046" lon="5.37887">
        <ele>149</ele>
        <time>2014-01-05T12:34:17Z</time>
      </trkpt>
      <trkpt lat="43.22042" lon="5.37881">
        <ele>150</ele>
        <time>2014-01-05T12:34:27Z</time>
      </trkpt>
      <trkpt lat="43.22039" lon="5.37875">
        <ele>149</ele>
        <time>2014-01-05T12:34:36Z</time>
      </trkpt>
      <trkpt lat="43.2204" lon="5.37871">
        <ele>149</ele>
        <time>2014-01-05T12:34:48Z</time>
      </trkpt>
      <trkpt lat="43.22042" lon="5.37866">
        <ele>149</ele>
        <time>2014-01-05T12:34:59Z</time>
      </trkpt>
      <trkpt lat="43.22046" lon="5.37865">
        <ele>152</ele>
        <time>2014-01-05T12:35:12Z</time>
      </trkpt>
      <trkpt lat="43.22049" lon="5.37868">
        <ele>152</ele>
        <time>2014-01-05T12:35:22Z</time>
      </trkpt>
      <trkpt lat="43.22049" lon="5.37866">
        <ele>152</ele>
        <time>2014-01-05T12:35:32Z</time>
      </trkpt>
      <trkpt lat="43.22052" lon="5.37867">
        <ele>152</ele>
        <time>2014-01-05T12:35:43Z</time>
      </trkpt>
      <trkpt lat="43.22052" lon="5.37866">
        <ele>153</ele>
        <time>2014-01-05T12:35:54Z</time>
      </trkpt>
      <trkpt lat="43.22049" lon="5.37867">
        <ele>153</ele>
        <time>2014-01-05T12:36:10Z</time>
      </trkpt>
      <trkpt lat="43.22051" lon="5.37867">
        <ele>153</ele>
        <time>2014-01-05T12:36:23Z</time>
      </trkpt>
      <trkpt lat="43.2205" lon="5.37867">
        <ele>153</ele>
        <time>2014-01-05T12:36:32Z</time>
      </trkpt>
      <trkpt lat="43.22049" lon="5.37867">
        <ele>153</ele>
        <time>2014-01-05T12:36:54Z</time>
      </trkpt>
      <trkpt lat="43.22049" lon="5.37867">
        <ele>153</ele>
        <time>2014-01-05T12:37:06Z</time>
      </trkpt>
      <trkpt lat="43.22049" lon="5.37865">
        <ele>153</ele>
        <time>2014-01-05T12:37:16Z</time>
      </trkpt>
      <trkpt lat="43.22052" lon="5.3787">
        <ele>153</ele>
        <time>2014-01-05T12:37:26Z</time>
      </trkpt>
      <trkpt lat="43.22053" lon="5.37877">
        <ele>153</ele>
        <time>2014-01-05T12:37:35Z</time>
      </trkpt>
      <trkpt lat="43.22055" lon="5.37881">
        <ele>153</ele>
        <time>2014-01-05T12:37:45Z</time>
      </trkpt>
      <trkpt lat="43.22058" lon="5.37882">
        <ele>153</ele>
        <time>2014-01-05T12:37:55Z</time>
      </trkpt>
      <trkpt lat="43.22059" lon="5.37873">
        <ele>153</ele>
        <time>2014-01-05T12:38:05Z</time>
      </trkpt>
      <trkpt lat="43.2206" lon="5.37866">
        <ele>154</ele>
        <time>2014-01-05T12:38:14Z</time>
      </trkpt>
      <trkpt lat="43.22061" lon="5.37855">
        <ele>157</ele>
        <time>2014-01-05T12:38:24Z</time>
      </trkpt>
      <trkpt lat="43.22062" lon="5.37849">
        <ele>159</ele>
        <time>2014-01-05T12:38:33Z</time>
      </trkpt>
      <trkpt lat="43.22065" lon="5.37844">
        <ele>163</ele>
        <time>2014-01-05T12:38:49Z</time>
      </trkpt>
      <trkpt lat="43.22069" lon="5.37841">
        <ele>163</ele>
        <time>2014-01-05T12:38:58Z</time>
      </trkpt>
      <trkpt lat="43.22071" lon="5.37839">
        <ele>163</ele>
        <time>2014-01-05T12:39:08Z</time>
      </trkpt>
      <trkpt lat="43.22076" lon="5.37833">
        <ele>165</ele>
        <time>2014-01-05T12:39:20Z</time>
      </trkpt>
      <trkpt lat="43.2208" lon="5.37827">
        <ele>165</ele>
        <time>2014-01-05T12:39:30Z</time>
      </trkpt>
      <trkpt lat="43.22084" lon="5.37819">
        <ele>170</ele>
        <time>2014-01-05T12:39:39Z</time>
      </trkpt>
      <trkpt lat="43.22088" lon="5.37818">
        <ele>173</ele>
        <time>2014-01-05T12:39:49Z</time>
      </trkpt>
      <trkpt lat="43.22093" lon="5.37815">
        <ele>176</ele>
        <time>2014-01-05T12:40:06Z</time>
      </trkpt>
      <trkpt lat="43.221" lon="5.37813">
        <ele>179</ele>
        <time>2014-01-05T12:40:17Z</time>
      </trkpt>
      <trkpt lat="43.22106" lon="5.37812">
        <ele>179</ele>
        <time>2014-01-05T12:40:26Z</time>
      </trkpt>
      <trkpt lat="43.22111" lon="5.37818">
        <ele>179</ele>
        <time>2014-01-05T12:40:36Z</time>
      </trkpt>
      <trkpt lat="43.22115" lon="5.37822">
        <ele>187</ele>
        <time>2014-01-05T12:40:45Z</time>
      </trkpt>
      <trkpt lat="43.22125" lon="5.3782">
        <ele>186</ele>
        <time>2014-01-05T12:40:55Z</time>
      </trkpt>
      <trkpt lat="43.22136" lon="5.37818">
        <ele>186</ele>
        <time>2014-01-05T12:41:06Z</time>
      </trkpt>
      <trkpt lat="43.2214" lon="5.37818">
        <ele>186</ele>
        <time>2014-01-05T12:41:16Z</time>
      </trkpt>
      <trkpt lat="43.22145" lon="5.3782">
        <ele>186</ele>
        <time>2014-01-05T12:41:35Z</time>
      </trkpt>
      <trkpt lat="43.22146" lon="5.37813">
        <ele>186</ele>
        <time>2014-01-05T12:41:44Z</time>
      </trkpt>
      <trkpt lat="43.22152" lon="5.37809">
        <ele>186</ele>
        <time>2014-01-05T12:41:53Z</time>
      </trkpt>
      <trkpt lat="43.22154" lon="5.37803">
        <ele>186</ele>
        <time>2014-01-05T12:42:02Z</time>
      </trkpt>
      <trkpt lat="43.22162" lon="5.37801">
        <ele>188</ele>
        <time>2014-01-05T12:42:12Z</time>
      </trkpt>
      <trkpt lat="43.2217" lon="5.378">
        <ele>189</ele>
        <time>2014-01-05T12:42:23Z</time>
      </trkpt>
      <trkpt lat="43.22175" lon="5.37791">
        <ele>189</ele>
        <time>2014-01-05T12:42:34Z</time>
      </trkpt>
      <trkpt lat="43.22181" lon="5.37787">
        <ele>190</ele>
        <time>2014-01-05T12:42:43Z</time>
      </trkpt>
      <trkpt lat="43.22186" lon="5.37782">
        <ele>190</ele>
        <time>2014-01-05T12:42:52Z</time>
      </trkpt>
      <trkpt lat="43.2219" lon="5.37776">
        <ele>191</ele>
        <time>2014-01-05T12:43:01Z</time>
      </trkpt>
      <trkpt lat="43.22193" lon="5.37766">
        <ele>193</ele>
        <time>2014-01-05T12:43:11Z</time>
      </trkpt>
      <trkpt lat="43.22193" lon="5.37754">
        <ele>193</ele>
        <time>2014-01-05T12:43:20Z</time>
      </trkpt>
      <trkpt lat="43.22194" lon="5.37745">
        <ele>193</ele>
        <time>2014-01-05T12:43:29Z</time>
      </trkpt>
      <trkpt lat="43.22193" lon="5.37735">
        <ele>193</ele>
        <time>2014-01-05T12:43:39Z</time>
      </trkpt>
      <trkpt lat="43.22197" lon="5.37724">
        <ele>195</ele>
        <time>2014-01-05T12:43:49Z</time>
      </trkpt>
      <trkpt lat="43.222" lon="5.37716">
        <ele>195</ele>
        <time>2014-01-05T12:43:59Z</time>
      </trkpt>
      <trkpt lat="43.22203" lon="5.37707">
        <ele>198</ele>
        <time>2014-01-05T12:44:09Z</time>
      </trkpt>
      <trkpt lat="43.22204" lon="5.37697">
        <ele>198</ele>
        <time>2014-01-05T12:44:18Z</time>
      </trkpt>
      <trkpt lat="43.22207" lon="5.37693">
        <ele>198</ele>
        <time>2014-01-05T12:44:27Z</time>
      </trkpt>
      <trkpt lat="43.22207" lon="5.37685">
        <ele>198</ele>
        <time>2014-01-05T12:44:36Z</time>
      </trkpt>
      <trkpt lat="43.22209" lon="5.37678">
        <ele>199</ele>
        <time>2014-01-05T12:44:47Z</time>
      </trkpt>
      <trkpt lat="43.2221" lon="5.37671">
        <ele>199</ele>
        <time>2014-01-05T12:44:57Z</time>
      </trkpt>
      <trkpt lat="43.22215" lon="5.37663">
        <ele>199</ele>
        <time>2014-01-05T12:45:09Z</time>
      </trkpt>
      <trkpt lat="43.22218" lon="5.37659">
        <ele>203</ele>
        <time>2014-01-05T12:45:19Z</time>
      </trkpt>
      <trkpt lat="43.22214" lon="5.37655">
        <ele>211</ele>
        <time>2014-01-05T12:45:31Z</time>
      </trkpt>
      <trkpt lat="43.22215" lon="5.37648">
        <ele>211</ele>
        <time>2014-01-05T12:45:41Z</time>
      </trkpt>
      <trkpt lat="43.22214" lon="5.37644">
        <ele>211</ele>
        <time>2014-01-05T12:45:50Z</time>
      </trkpt>
      <trkpt lat="43.22212" lon="5.3764">
        <ele>215</ele>
        <time>2014-01-05T12:46:00Z</time>
      </trkpt>
      <trkpt lat="43.22214" lon="5.37632">
        <ele>215</ele>
        <time>2014-01-05T12:46:11Z</time>
      </trkpt>
      <trkpt lat="43.22215" lon="5.37624">
        <ele>213</ele>
        <time>2014-01-05T12:46:22Z</time>
      </trkpt>
      <trkpt lat="43.22219" lon="5.37627">
        <ele>213</ele>
        <time>2014-01-05T12:46:33Z</time>
      </trkpt>
      <trkpt lat="43.22226" lon="5.37641">
        <ele>214</ele>
        <time>2014-01-05T12:46:43Z</time>
      </trkpt>
      <trkpt lat="43.22231" lon="5.3765">
        <ele>215</ele>
        <time>2014-01-05T12:46:52Z</time>
      </trkpt>
      <trkpt lat="43.22238" lon="5.37653">
        <ele>215</ele>
        <time>2014-01-05T12:47:01Z</time>
      </trkpt>
      <trkpt lat="43.22243" lon="5.3765">
        <ele>215</ele>
        <time>2014-01-05T12:47:11Z</time>
      </trkpt>
      <trkpt lat="43.22247" lon="5.37646">
        <ele>215</ele>
        <time>2014-01-05T12:47:22Z</time>
      </trkpt>
      <trkpt lat="43.22251" lon="5.37643">
        <ele>217</ele>
        <time>2014-01-05T12:47:31Z</time>
      </trkpt>
      <trkpt lat="43.22256" lon="5.3764">
        <ele>218</ele>
        <time>2014-01-05T12:47:40Z</time>
      </trkpt>
      <trkpt lat="43.22261" lon="5.37637">
        <ele>219</ele>
        <time>2014-01-05T12:47:52Z</time>
      </trkpt>
      <trkpt lat="43.22264" lon="5.37643">
        <ele>223</ele>
        <time>2014-01-05T12:48:01Z</time>
      </trkpt>
      <trkpt lat="43.22267" lon="5.37651">
        <ele>226</ele>
        <time>2014-01-05T12:48:12Z</time>
      </trkpt>
      <trkpt lat="43.22268" lon="5.37657">
        <ele>226</ele>
        <time>2014-01-05T12:48:22Z</time>
      </trkpt>
      <trkpt lat="43.22268" lon="5.3766">
        <ele>229</ele>
        <time>2014-01-05T12:48:44Z</time>
      </trkpt>
      <trkpt lat="43.22269" lon="5.37661">
        <ele>231</ele>
        <time>2014-01-05T12:49:00Z</time>
      </trkpt>
      <trkpt lat="43.22269" lon="5.37662">
        <ele>231</ele>
        <time>2014-01-05T12:49:22Z</time>
      </trkpt>
      <trkpt lat="43.22273" lon="5.37662">
        <ele>231</ele>
        <time>2014-01-05T12:49:33Z</time>
      </trkpt>
      <trkpt lat="43.22271" lon="5.37662">
        <ele>231</ele>
        <time>2014-01-05T12:49:42Z</time>
      </trkpt>
      <trkpt lat="43.22271" lon="5.37661">
        <ele>231</ele>
        <time>2014-01-05T12:49:55Z</time>
      </trkpt>
      <trkpt lat="43.22268" lon="5.37661">
        <ele>231</ele>
        <time>2014-01-05T12:50:39Z</time>
      </trkpt>
      <trkpt lat="43.22267" lon="5.37662">
        <ele>231</ele>
        <time>2014-01-05T12:50:50Z</time>
      </trkpt>
      <trkpt lat="43.22262" lon="5.37669">
        <ele>231</ele>
        <time>2014-01-05T12:50:59Z</time>
      </trkpt>
      <trkpt lat="43.22261" lon="5.37669">
        <ele>240</ele>
        <time>2014-01-05T12:51:08Z</time>
      </trkpt>
      <trkpt lat="43.22263" lon="5.37666">
        <ele>245</ele>
        <time>2014-01-05T12:51:19Z</time>
      </trkpt>
      <trkpt lat="43.22264" lon="5.37664">
        <ele>245</ele>
        <time>2014-01-05T12:51:28Z</time>
      </trkpt>
      <trkpt lat="43.22266" lon="5.37662">
        <ele>240</ele>
        <time>2014-01-05T12:51:51Z</time>
      </trkpt>
      <trkpt lat="43.22267" lon="5.37664">
        <ele>235</ele>
        <time>2014-01-05T12:52:06Z</time>
      </trkpt>
      <trkpt lat="43.22269" lon="5.37663">
        <ele>234</ele>
        <time>2014-01-05T12:52:31Z</time>
      </trkpt>
      <trkpt lat="43.22267" lon="5.37662">
        <ele>237</ele>
        <time>2014-01-05T12:52:44Z</time>
      </trkpt>
      <trkpt lat="43.22268" lon="5.37662">
        <ele>238</ele>
        <time>2014-01-05T12:53:05Z</time>
      </trkpt>
      <trkpt lat="43.22267" lon="5.37661">
        <ele>239</ele>
        <time>2014-01-05T12:54:18Z</time>
      </trkpt>
      <trkpt lat="43.22268" lon="5.37664">
        <ele>239</ele>
        <time>2014-01-05T12:54:29Z</time>
      </trkpt>
      <trkpt lat="43.22271" lon="5.3767">
        <ele>239</ele>
        <time>2014-01-05T12:54:38Z</time>
      </trkpt>
      <trkpt lat="43.22269" lon="5.37669">
        <ele>239</ele>
        <time>2014-01-05T12:55:06Z</time>
      </trkpt>
      <trkpt lat="43.22271" lon="5.37666">
        <ele>243</ele>
        <time>2014-01-05T12:55:24Z</time>
      </trkpt>
      <trkpt lat="43.22276" lon="5.37666">
        <ele>244</ele>
        <time>2014-01-05T12:55:33Z</time>
      </trkpt>
      <trkpt lat="43.22274" lon="5.37664">
        <ele>243</ele>
        <time>2014-01-05T12:55:45Z</time>
      </trkpt>
      <trkpt lat="43.2227" lon="5.37664">
        <ele>239</ele>
        <time>2014-01-05T12:56:05Z</time>
      </trkpt>
      <trkpt lat="43.2227" lon="5.37666">
        <ele>239</ele>
        <time>2014-01-05T12:56:32Z</time>
      </trkpt>
      <trkpt lat="43.22271" lon="5.37676">
        <ele>239</ele>
        <time>2014-01-05T12:56:42Z</time>
      </trkpt>
      <trkpt lat="43.22273" lon="5.37683">
        <ele>237</ele>
        <time>2014-01-05T12:56:52Z</time>
      </trkpt>
      <trkpt lat="43.22274" lon="5.37689">
        <ele>237</ele>
        <time>2014-01-05T12:57:03Z</time>
      </trkpt>
      <trkpt lat="43.22273" lon="5.37694">
        <ele>237</ele>
        <time>2014-01-05T12:57:12Z</time>
      </trkpt>
      <trkpt lat="43.22274" lon="5.37696">
        <ele>237</ele>
        <time>2014-01-05T12:57:21Z</time>
      </trkpt>
      <trkpt lat="43.22275" lon="5.37701">
        <ele>237</ele>
        <time>2014-01-05T12:57:34Z</time>
      </trkpt>
      <trkpt lat="43.22276" lon="5.377">
        <ele>240</ele>
        <time>2014-01-05T12:57:48Z</time>
      </trkpt>
      <trkpt lat="43.22277" lon="5.37702">
        <ele>240</ele>
        <time>2014-01-05T12:58:00Z</time>
      </trkpt>
      <trkpt lat="43.2228" lon="5.37704">
        <ele>241</ele>
        <time>2014-01-05T12:58:10Z</time>
      </trkpt>
      <trkpt lat="43.22281" lon="5.37711">
        <ele>244</ele>
        <time>2014-01-05T12:58:20Z</time>
      </trkpt>
      <trkpt lat="43.22284" lon="5.37718">
        <ele>245</ele>
        <time>2014-01-05T12:58:29Z</time>
      </trkpt>
      <trkpt lat="43.22292" lon="5.37723">
        <ele>245</ele>
        <time>2014-01-05T12:58:38Z</time>
      </trkpt>
      <trkpt lat="43.223" lon="5.37734">
        <ele>245</ele>
        <time>2014-01-05T12:58:48Z</time>
      </trkpt>
      <trkpt lat="43.22305" lon="5.37742">
        <ele>247</ele>
        <time>2014-01-05T12:58:57Z</time>
      </trkpt>
      <trkpt lat="43.2231" lon="5.3775">
        <ele>251</ele>
        <time>2014-01-05T12:59:07Z</time>
      </trkpt>
      <trkpt lat="43.22316" lon="5.37754">
        <ele>251</ele>
        <time>2014-01-05T12:59:16Z</time>
      </trkpt>
      <trkpt lat="43.22319" lon="5.37762">
        <ele>251</ele>
        <time>2014-01-05T12:59:25Z</time>
      </trkpt>
      <trkpt lat="43.22322" lon="5.37769">
        <ele>251</ele>
        <time>2014-01-05T12:59:36Z</time>
      </trkpt>
      <trkpt lat="43.22324" lon="5.37773">
        <ele>250</ele>
        <time>2014-01-05T12:59:46Z</time>
      </trkpt>
      <trkpt lat="43.22327" lon="5.37784">
        <ele>250</ele>
        <time>2014-01-05T12:59:56Z</time>
      </trkpt>
      <trkpt lat="43.22329" lon="5.37791">
        <ele>250</ele>
        <time>2014-01-05T13:00:05Z</time>
      </trkpt>
      <trkpt lat="43.22332" lon="5.37796">
        <ele>250</ele>
        <time>2014-01-05T13:00:14Z</time>
      </trkpt>
      <trkpt lat="43.22333" lon="5.37801">
        <ele>250</ele>
        <time>2014-01-05T13:00:23Z</time>
      </trkpt>
      <trkpt lat="43.22332" lon="5.37808">
        <ele>250</ele>
        <time>2014-01-05T13:00:34Z</time>
      </trkpt>
      <trkpt lat="43.2233" lon="5.37815">
        <ele>252</ele>
        <time>2014-01-05T13:00:44Z</time>
      </trkpt>
      <trkpt lat="43.22328" lon="5.3782">
        <ele>260</ele>
        <time>2014-01-05T13:01:04Z</time>
      </trkpt>
      <trkpt lat="43.22327" lon="5.37829">
        <ele>260</ele>
        <time>2014-01-05T13:01:14Z</time>
      </trkpt>
      <trkpt lat="43.22327" lon="5.37834">
        <ele>260</ele>
        <time>2014-01-05T13:01:23Z</time>
      </trkpt>
      <trkpt lat="43.22329" lon="5.37838">
        <ele>260</ele>
        <time>2014-01-05T13:01:37Z</time>
      </trkpt>
      <trkpt lat="43.22332" lon="5.37833">
        <ele>262</ele>
        <time>2014-01-05T13:01:48Z</time>
      </trkpt>
      <trkpt lat="43.22337" lon="5.37828">
        <ele>263</ele>
        <time>2014-01-05T13:01:59Z</time>
      </trkpt>
      <trkpt lat="43.22344" lon="5.37832">
        <ele>264</ele>
        <time>2014-01-05T13:02:09Z</time>
      </trkpt>
      <trkpt lat="43.22345" lon="5.37841">
        <ele>264</ele>
        <time>2014-01-05T13:02:18Z</time>
      </trkpt>
      <trkpt lat="43.22343" lon="5.37846">
        <ele>265</ele>
        <time>2014-01-05T13:02:27Z</time>
      </trkpt>
      <trkpt lat="43.22343" lon="5.3785">
        <ele>265</ele>
        <time>2014-01-05T13:02:38Z</time>
      </trkpt>
      <trkpt lat="43.22344" lon="5.37855">
        <ele>265</ele>
        <time>2014-01-05T13:02:47Z</time>
      </trkpt>
      <trkpt lat="43.22349" lon="5.37861">
        <ele>265</ele>
        <time>2014-01-05T13:02:58Z</time>
      </trkpt>
      <trkpt lat="43.22354" lon="5.37864">
        <ele>265</ele>
        <time>2014-01-05T13:03:09Z</time>
      </trkpt>
      <trkpt lat="43.22358" lon="5.37871">
        <ele>265</ele>
        <time>2014-01-05T13:03:20Z</time>
      </trkpt>
      <trkpt lat="43.22361" lon="5.37876">
        <ele>263</ele>
        <time>2014-01-05T13:03:29Z</time>
      </trkpt>
      <trkpt lat="43.22366" lon="5.37881">
        <ele>260</ele>
        <time>2014-01-05T13:03:42Z</time>
      </trkpt>
      <trkpt lat="43.22368" lon="5.37888">
        <ele>257</ele>
        <time>2014-01-05T13:03:52Z</time>
      </trkpt>
      <trkpt lat="43.22369" lon="5.37898">
        <ele>254</ele>
        <time>2014-01-05T13:04:02Z</time>
      </trkpt>
      <trkpt lat="43.22371" lon="5.37905">
        <ele>251</ele>
        <time>2014-01-05T13:04:13Z</time>
      </trkpt>
      <trkpt lat="43.22376" lon="5.37912">
        <ele>249</ele>
        <time>2014-01-05T13:04:22Z</time>
      </trkpt>
      <trkpt lat="43.22376" lon="5.37906">
        <ele>246</ele>
        <time>2014-01-05T13:04:31Z</time>
      </trkpt>
      <trkpt lat="43.2238" lon="5.379">
        <ele>244</ele>
        <time>2014-01-05T13:04:40Z</time>
      </trkpt>
      <trkpt lat="43.22387" lon="5.37907">
        <ele>243</ele>
        <time>2014-01-05T13:04:49Z</time>
      </trkpt>
      <trkpt lat="43.2239" lon="5.37905">
        <ele>241</ele>
        <time>2014-01-05T13:04:58Z</time>
      </trkpt>
      <trkpt lat="43.22395" lon="5.37894">
        <ele>238</ele>
        <time>2014-01-05T13:05:07Z</time>
      </trkpt>
      <trkpt lat="43.22401" lon="5.3788">
        <ele>238</ele>
        <time>2014-01-05T13:05:16Z</time>
      </trkpt>
      <trkpt lat="43.22401" lon="5.37866">
        <ele>237</ele>
        <time>2014-01-05T13:05:25Z</time>
      </trkpt>
      <trkpt lat="43.22404" lon="5.37854">
        <ele>234</ele>
        <time>2014-01-05T13:05:34Z</time>
      </trkpt>
      <trkpt lat="43.22409" lon="5.3785">
        <ele>234</ele>
        <time>2014-01-05T13:05:44Z</time>
      </trkpt>
      <trkpt lat="43.22415" lon="5.37856">
        <ele>234</ele>
        <time>2014-01-05T13:05:54Z</time>
      </trkpt>
      <trkpt lat="43.22423" lon="5.37864">
        <ele>234</ele>
        <time>2014-01-05T13:06:03Z</time>
      </trkpt>
      <trkpt lat="43.2243" lon="5.3788">
        <ele>234</ele>
        <time>2014-01-05T13:06:12Z</time>
      </trkpt>
      <trkpt lat="43.2244" lon="5.37888">
        <ele>233</ele>
        <time>2014-01-05T13:06:21Z</time>
      </trkpt>
      <trkpt lat="43.22451" lon="5.37899">
        <ele>233</ele>
        <time>2014-01-05T13:06:31Z</time>
      </trkpt>
      <trkpt lat="43.22454" lon="5.37906">
        <ele>230</ele>
        <time>2014-01-05T13:06:40Z</time>
      </trkpt>
      <trkpt lat="43.22459" lon="5.37917">
        <ele>229</ele>
        <time>2014-01-05T13:06:49Z</time>
      </trkpt>
      <trkpt lat="43.22467" lon="5.37923">
        <ele>224</ele>
        <time>2014-01-05T13:06:58Z</time>
      </trkpt>
      <trkpt lat="43.22477" lon="5.37934">
        <ele>222</ele>
        <time>2014-01-05T13:07:08Z</time>
      </trkpt>
      <trkpt lat="43.22485" lon="5.37943">
        <ele>221</ele>
        <time>2014-01-05T13:07:18Z</time>
      </trkpt>
      <trkpt lat="43.22495" lon="5.37938">
        <ele>219</ele>
        <time>2014-01-05T13:07:27Z</time>
      </trkpt>
      <trkpt lat="43.22501" lon="5.37928">
        <ele>219</ele>
        <time>2014-01-05T13:07:37Z</time>
      </trkpt>
      <trkpt lat="43.22508" lon="5.37921">
        <ele>219</ele>
        <time>2014-01-05T13:07:46Z</time>
      </trkpt>
      <trkpt lat="43.22516" lon="5.37913">
        <ele>218</ele>
        <time>2014-01-05T13:07:56Z</time>
      </trkpt>
      <trkpt lat="43.22524" lon="5.37913">
        <ele>218</ele>
        <time>2014-01-05T13:08:05Z</time>
      </trkpt>
      <trkpt lat="43.22528" lon="5.37914">
        <ele>218</ele>
        <time>2014-01-05T13:08:14Z</time>
      </trkpt>
      <trkpt lat="43.22533" lon="5.37916">
        <ele>217</ele>
        <time>2014-01-05T13:08:24Z</time>
      </trkpt>
      <trkpt lat="43.22541" lon="5.37919">
        <ele>217</ele>
        <time>2014-01-05T13:08:35Z</time>
      </trkpt>
      <trkpt lat="43.22548" lon="5.37922">
        <ele>217</ele>
        <time>2014-01-05T13:08:45Z</time>
      </trkpt>
      <trkpt lat="43.22552" lon="5.37922">
        <ele>219</ele>
        <time>2014-01-05T13:08:55Z</time>
      </trkpt>
      <trkpt lat="43.22559" lon="5.37923">
        <ele>224</ele>
        <time>2014-01-05T13:09:06Z</time>
      </trkpt>
      <trkpt lat="43.22563" lon="5.37926">
        <ele>224</ele>
        <time>2014-01-05T13:09:17Z</time>
      </trkpt>
      <trkpt lat="43.22571" lon="5.37927">
        <ele>224</ele>
        <time>2014-01-05T13:09:27Z</time>
      </trkpt>
      <trkpt lat="43.22574" lon="5.37931">
        <ele>224</ele>
        <time>2014-01-05T13:09:36Z</time>
      </trkpt>
      <trkpt lat="43.22578" lon="5.3793">
        <ele>224</ele>
        <time>2014-01-05T13:09:46Z</time>
      </trkpt>
      <trkpt lat="43.2258" lon="5.37935">
        <ele>224</ele>
        <time>2014-01-05T13:09:56Z</time>
      </trkpt>
      <trkpt lat="43.22585" lon="5.37939">
        <ele>224</ele>
        <time>2014-01-05T13:10:05Z</time>
      </trkpt>
      <trkpt lat="43.22589" lon="5.37946">
        <ele>227</ele>
        <time>2014-01-05T13:10:15Z</time>
      </trkpt>
      <trkpt lat="43.22593" lon="5.37951">
        <ele>228</ele>
        <time>2014-01-05T13:10:25Z</time>
      </trkpt>
      <trkpt lat="43.22594" lon="5.37957">
        <ele>229</ele>
        <time>2014-01-05T13:10:34Z</time>
      </trkpt>
      <trkpt lat="43.22595" lon="5.37967">
        <ele>229</ele>
        <time>2014-01-05T13:10:44Z</time>
      </trkpt>
      <trkpt lat="43.22598" lon="5.37978">
        <ele>230</ele>
        <time>2014-01-05T13:10:53Z</time>
      </trkpt>
      <trkpt lat="43.22601" lon="5.3799">
        <ele>230</ele>
        <time>2014-01-05T13:11:02Z</time>
      </trkpt>
      <trkpt lat="43.22607" lon="5.37993">
        <ele>230</ele>
        <time>2014-01-05T13:11:11Z</time>
      </trkpt>
      <trkpt lat="43.22615" lon="5.37993">
        <ele>230</ele>
        <time>2014-01-05T13:11:21Z</time>
      </trkpt>
      <trkpt lat="43.2262" lon="5.37994">
        <ele>230</ele>
        <time>2014-01-05T13:11:30Z</time>
      </trkpt>
      <trkpt lat="43.22624" lon="5.37996">
        <ele>232</ele>
        <time>2014-01-05T13:11:39Z</time>
      </trkpt>
      <trkpt lat="43.22631" lon="5.38003">
        <ele>232</ele>
        <time>2014-01-05T13:11:48Z</time>
      </trkpt>
      <trkpt lat="43.22633" lon="5.38015">
        <ele>235</ele>
        <time>2014-01-05T13:11:58Z</time>
      </trkpt>
      <trkpt lat="43.22634" lon="5.38026">
        <ele>235</ele>
        <time>2014-01-05T13:12:07Z</time>
      </trkpt>
      <trkpt lat="43.22637" lon="5.38034">
        <ele>235</ele>
        <time>2014-01-05T13:12:17Z</time>
      </trkpt>
      <trkpt lat="43.22639" lon="5.38048">
        <ele>235</ele>
        <time>2014-01-05T13:12:26Z</time>
      </trkpt>
      <trkpt lat="43.22642" lon="5.3806">
        <ele>235</ele>
        <time>2014-01-05T13:12:35Z</time>
      </trkpt>
      <trkpt lat="43.22651" lon="5.38072">
        <ele>237</ele>
        <time>2014-01-05T13:12:44Z</time>
      </trkpt>
      <trkpt lat="43.22658" lon="5.3808">
        <ele>240</ele>
        <time>2014-01-05T13:12:54Z</time>
      </trkpt>
      <trkpt lat="43.2266" lon="5.38087">
        <ele>241</ele>
        <time>2014-01-05T13:13:04Z</time>
      </trkpt>
      <trkpt lat="43.22663" lon="5.38093">
        <ele>241</ele>
        <time>2014-01-05T13:13:14Z</time>
      </trkpt>
      <trkpt lat="43.22665" lon="5.38105">
        <ele>239</ele>
        <time>2014-01-05T13:13:24Z</time>
      </trkpt>
      <trkpt lat="43.2267" lon="5.38117">
        <ele>239</ele>
        <time>2014-01-05T13:13:33Z</time>
      </trkpt>
      <trkpt lat="43.22674" lon="5.38123">
        <ele>239</ele>
        <time>2014-01-05T13:13:42Z</time>
      </trkpt>
      <trkpt lat="43.22679" lon="5.38125">
        <ele>239</ele>
        <time>2014-01-05T13:13:54Z</time>
      </trkpt>
      <trkpt lat="43.22678" lon="5.38126">
        <ele>239</ele>
        <time>2014-01-05T13:14:05Z</time>
      </trkpt>
      <trkpt lat="43.22679" lon="5.38128">
        <ele>239</ele>
        <time>2014-01-05T13:14:16Z</time>
      </trkpt>
      <trkpt lat="43.2269" lon="5.38132">
        <ele>239</ele>
        <time>2014-01-05T13:14:25Z</time>
      </trkpt>
      <trkpt lat="43.22697" lon="5.3814">
        <ele>239</ele>
        <time>2014-01-05T13:14:35Z</time>
      </trkpt>
      <trkpt lat="43.22701" lon="5.38146">
        <ele>239</ele>
        <time>2014-01-05T13:14:46Z</time>
      </trkpt>
      <trkpt lat="43.22708" lon="5.38144">
        <ele>239</ele>
        <time>2014-01-05T13:14:58Z</time>
      </trkpt>
      <trkpt lat="43.22708" lon="5.38135">
        <ele>233</ele>
        <time>2014-01-05T13:15:07Z</time>
      </trkpt>
      <trkpt lat="43.22713" lon="5.38126">
        <ele>228</ele>
        <time>2014-01-05T13:15:16Z</time>
      </trkpt>
      <trkpt lat="43.22717" lon="5.3812">
        <ele>223</ele>
        <time>2014-01-05T13:15:26Z</time>
      </trkpt>
      <trkpt lat="43.2272" lon="5.38109">
        <ele>222</ele>
        <time>2014-01-05T13:15:35Z</time>
      </trkpt>
      <trkpt lat="43.22724" lon="5.38098">
        <ele>221</ele>
        <time>2014-01-05T13:15:44Z</time>
      </trkpt>
      <trkpt lat="43.2273" lon="5.3809">
        <ele>217</ele>
        <time>2014-01-05T13:15:55Z</time>
      </trkpt>
      <trkpt lat="43.2274" lon="5.38092">
        <ele>214</ele>
        <time>2014-01-05T13:16:05Z</time>
      </trkpt>
      <trkpt lat="43.22749" lon="5.38089">
        <ele>212</ele>
        <time>2014-01-05T13:16:14Z</time>
      </trkpt>
      <trkpt lat="43.22754" lon="5.3808">
        <ele>210</ele>
        <time>2014-01-05T13:16:23Z</time>
      </trkpt>
      <trkpt lat="43.2276" lon="5.3807">
        <ele>210</ele>
        <time>2014-01-05T13:16:34Z</time>
      </trkpt>
      <trkpt lat="43.22767" lon="5.38059">
        <ele>210</ele>
        <time>2014-01-05T13:16:44Z</time>
      </trkpt>
      <trkpt lat="43.22772" lon="5.38047">
        <ele>210</ele>
        <time>2014-01-05T13:16:53Z</time>
      </trkpt>
      <trkpt lat="43.22777" lon="5.38035">
        <ele>210</ele>
        <time>2014-01-05T13:17:02Z</time>
      </trkpt>
      <trkpt lat="43.22782" lon="5.38025">
        <ele>209</ele>
        <time>2014-01-05T13:17:11Z</time>
      </trkpt>
      <trkpt lat="43.22784" lon="5.38017">
        <ele>207</ele>
        <time>2014-01-05T13:17:21Z</time>
      </trkpt>
      <trkpt lat="43.22754" lon="5.37996">
        <ele>207</ele>
        <time>2014-01-05T13:17:56Z</time>
      </trkpt>
      <trkpt lat="43.22758" lon="5.37998">
        <ele>207</ele>
        <time>2014-01-05T13:18:07Z</time>
      </trkpt>
      <trkpt lat="43.22761" lon="5.38004">
        <ele>208</ele>
        <time>2014-01-05T13:18:18Z</time>
      </trkpt>
      <trkpt lat="43.22762" lon="5.38009">
        <ele>207</ele>
        <time>2014-01-05T13:18:29Z</time>
      </trkpt>
      <trkpt lat="43.22761" lon="5.38008">
        <ele>201</ele>
        <time>2014-01-05T13:18:42Z</time>
      </trkpt>
      <trkpt lat="43.22761" lon="5.38006">
        <ele>201</ele>
        <time>2014-01-05T13:18:52Z</time>
      </trkpt>
      <trkpt lat="43.22761" lon="5.3801">
        <ele>197</ele>
        <time>2014-01-05T13:19:04Z</time>
      </trkpt>
      <trkpt lat="43.22763" lon="5.38003">
        <ele>194</ele>
        <time>2014-01-05T13:19:14Z</time>
      </trkpt>
      <trkpt lat="43.22762" lon="5.37998">
        <ele>192</ele>
        <time>2014-01-05T13:19:24Z</time>
      </trkpt>
      <trkpt lat="43.22762" lon="5.37997">
        <ele>192</ele>
        <time>2014-01-05T13:19:35Z</time>
      </trkpt>
      <trkpt lat="43.22761" lon="5.37995">
        <ele>192</ele>
        <time>2014-01-05T13:19:44Z</time>
      </trkpt>
      <trkpt lat="43.22763" lon="5.37992">
        <ele>192</ele>
        <time>2014-01-05T13:19:53Z</time>
      </trkpt>
      <trkpt lat="43.22765" lon="5.37989">
        <ele>192</ele>
        <time>2014-01-05T13:20:07Z</time>
      </trkpt>
      <trkpt lat="43.22765" lon="5.37987">
        <ele>192</ele>
        <time>2014-01-05T13:20:17Z</time>
      </trkpt>
      <trkpt lat="43.22766" lon="5.37985">
        <ele>189</ele>
        <time>2014-01-05T13:20:27Z</time>
      </trkpt>
      <trkpt lat="43.22767" lon="5.37981">
        <ele>187</ele>
        <time>2014-01-05T13:20:36Z</time>
      </trkpt>
      <trkpt lat="43.22768" lon="5.37972">
        <ele>186</ele>
        <time>2014-01-05T13:20:46Z</time>
      </trkpt>
      <trkpt lat="43.22767" lon="5.3797">
        <ele>185</ele>
        <time>2014-01-05T13:20:58Z</time>
      </trkpt>
      <trkpt lat="43.22768" lon="5.37962">
        <ele>181</ele>
        <time>2014-01-05T13:21:08Z</time>
      </trkpt>
      <trkpt lat="43.2277" lon="5.37953">
        <ele>179</ele>
        <time>2014-01-05T13:21:30Z</time>
      </trkpt>
      <trkpt lat="43.2277" lon="5.3795">
        <ele>178</ele>
        <time>2014-01-05T13:21:39Z</time>
      </trkpt>
      <trkpt lat="43.22769" lon="5.37947">
        <ele>177</ele>
        <time>2014-01-05T13:21:48Z</time>
      </trkpt>
      <trkpt lat="43.22768" lon="5.37943">
        <ele>177</ele>
        <time>2014-01-05T13:22:00Z</time>
      </trkpt>
      <trkpt lat="43.22769" lon="5.37938">
        <ele>176</ele>
        <time>2014-01-05T13:22:10Z</time>
      </trkpt>
      <trkpt lat="43.22769" lon="5.37936">
        <ele>173</ele>
        <time>2014-01-05T13:22:24Z</time>
      </trkpt>
      <trkpt lat="43.22768" lon="5.37928">
        <ele>171</ele>
        <time>2014-01-05T13:22:33Z</time>
      </trkpt>
      <trkpt lat="43.22768" lon="5.37926">
        <ele>168</ele>
        <time>2014-01-05T13:22:45Z</time>
      </trkpt>
      <trkpt lat="43.22766" lon="5.37926">
        <ele>165</ele>
        <time>2014-01-05T13:22:58Z</time>
      </trkpt>
      <trkpt lat="43.22765" lon="5.37923">
        <ele>165</ele>
        <time>2014-01-05T13:23:07Z</time>
      </trkpt>
      <trkpt lat="43.22766" lon="5.3792">
        <ele>164</ele>
        <time>2014-01-05T13:23:16Z</time>
      </trkpt>
      <trkpt lat="43.22766" lon="5.37919">
        <ele>164</ele>
        <time>2014-01-05T13:23:27Z</time>
      </trkpt>
      <trkpt lat="43.22765" lon="5.37917">
        <ele>164</ele>
        <time>2014-01-05T13:23:37Z</time>
      </trkpt>
      <trkpt lat="43.22765" lon="5.37916">
        <ele>164</ele>
        <time>2014-01-05T13:23:46Z</time>
      </trkpt>
      <trkpt lat="43.22763" lon="5.37913">
        <ele>164</ele>
        <time>2014-01-05T13:23:56Z</time>
      </trkpt>
      <trkpt lat="43.22763" lon="5.37911">
        <ele>164</ele>
        <time>2014-01-05T13:24:11Z</time>
      </trkpt>
      <trkpt lat="43.22763" lon="5.37911">
        <ele>164</ele>
        <time>2014-01-05T13:24:27Z</time>
      </trkpt>
      <trkpt lat="43.22761" lon="5.37916">
        <ele>164</ele>
        <time>2014-01-05T13:24:37Z</time>
      </trkpt>
      <trkpt lat="43.22758" lon="5.3793">
        <ele>158</ele>
        <time>2014-01-05T13:24:47Z</time>
      </trkpt>
      <trkpt lat="43.22753" lon="5.37943">
        <ele>155</ele>
        <time>2014-01-05T13:24:57Z</time>
      </trkpt>
      <trkpt lat="43.22741" lon="5.37943">
        <ele>154</ele>
        <time>2014-01-05T13:25:07Z</time>
      </trkpt>
      <trkpt lat="43.22741" lon="5.37941">
        <ele>162</ele>
        <time>2014-01-05T13:25:17Z</time>
      </trkpt>
      <trkpt lat="43.22741" lon="5.37937">
        <ele>164</ele>
        <time>2014-01-05T13:25:26Z</time>
      </trkpt>
      <trkpt lat="43.22733" lon="5.37935">
        <ele>163</ele>
        <time>2014-01-05T13:25:37Z</time>
      </trkpt>
      <trkpt lat="43.22731" lon="5.37928">
        <ele>155</ele>
        <time>2014-01-05T13:25:47Z</time>
      </trkpt>
      <trkpt lat="43.22725" lon="5.37925">
        <ele>149</ele>
        <time>2014-01-05T13:25:59Z</time>
      </trkpt>
      <trkpt lat="43.22723" lon="5.37915">
        <ele>145</ele>
        <time>2014-01-05T13:26:10Z</time>
      </trkpt>
      <trkpt lat="43.22722" lon="5.37903">
        <ele>139</ele>
        <time>2014-01-05T13:26:20Z</time>
      </trkpt>
      <trkpt lat="43.2272" lon="5.37889">
        <ele>139</ele>
        <time>2014-01-05T13:26:30Z</time>
      </trkpt>
      <trkpt lat="43.22712" lon="5.37881">
        <ele>137</ele>
        <time>2014-01-05T13:26:40Z</time>
      </trkpt>
      <trkpt lat="43.22707" lon="5.37877">
        <ele>133</ele>
        <time>2014-01-05T13:26:49Z</time>
      </trkpt>
      <trkpt lat="43.22699" lon="5.3787">
        <ele>128</ele>
        <time>2014-01-05T13:26:59Z</time>
      </trkpt>
      <trkpt lat="43.22693" lon="5.37859">
        <ele>127</ele>
        <time>2014-01-05T13:27:08Z</time>
      </trkpt>
      <trkpt lat="43.22684" lon="5.37851">
        <ele>126</ele>
        <time>2014-01-05T13:27:18Z</time>
      </trkpt>
      <trkpt lat="43.22679" lon="5.37844">
        <ele>123</ele>
        <time>2014-01-05T13:27:27Z</time>
      </trkpt>
      <trkpt lat="43.22671" lon="5.37834">
        <ele>119</ele>
        <time>2014-01-05T13:27:37Z</time>
      </trkpt>
      <trkpt lat="43.22671" lon="5.37822">
        <ele>119</ele>
        <time>2014-01-05T13:27:46Z</time>
      </trkpt>
      <trkpt lat="43.22678" lon="5.37818">
        <ele>119</ele>
        <time>2014-01-05T13:27:55Z</time>
      </trkpt>
      <trkpt lat="43.22688" lon="5.37816">
        <ele>119</ele>
        <time>2014-01-05T13:28:04Z</time>
      </trkpt>
      <trkpt lat="43.22697" lon="5.37806">
        <ele>120</ele>
        <time>2014-01-05T13:28:13Z</time>
      </trkpt>
      <trkpt lat="43.22707" lon="5.37799">
        <ele>120</ele>
        <time>2014-01-05T13:28:23Z</time>
      </trkpt>
      <trkpt lat="43.22716" lon="5.3779">
        <ele>120</ele>
        <time>2014-01-05T13:28:32Z</time>
      </trkpt>
      <trkpt lat="43.22725" lon="5.37779">
        <ele>120</ele>
        <time>2014-01-05T13:28:42Z</time>
      </trkpt>
      <trkpt lat="43.22735" lon="5.37773">
        <ele>119</ele>
        <time>2014-01-05T13:28:51Z</time>
      </trkpt>
      <trkpt lat="43.22744" lon="5.3776">
        <ele>117</ele>
        <time>2014-01-05T13:29:01Z</time>
      </trkpt>
      <trkpt lat="43.22753" lon="5.37757">
        <ele>117</ele>
        <time>2014-01-05T13:29:10Z</time>
      </trkpt>
      <trkpt lat="43.22765" lon="5.37755">
        <ele>117</ele>
        <time>2014-01-05T13:29:20Z</time>
      </trkpt>
      <trkpt lat="43.22775" lon="5.37746">
        <ele>118</ele>
        <time>2014-01-05T13:29:30Z</time>
      </trkpt>
      <trkpt lat="43.22785" lon="5.37741">
        <ele>119</ele>
        <time>2014-01-05T13:29:39Z</time>
      </trkpt>
      <trkpt lat="43.22794" lon="5.37742">
        <ele>119</ele>
        <time>2014-01-05T13:29:48Z</time>
      </trkpt>
      <trkpt lat="43.22802" lon="5.37735">
        <ele>116</ele>
        <time>2014-01-05T13:29:58Z</time>
      </trkpt>
      <trkpt lat="43.22812" lon="5.37727">
        <ele>112</ele>
        <time>2014-01-05T13:30:08Z</time>
      </trkpt>
      <trkpt lat="43.2282" lon="5.37725">
        <ele>112</ele>
        <time>2014-01-05T13:30:17Z</time>
      </trkpt>
      <trkpt lat="43.22829" lon="5.3772">
        <ele>112</ele>
        <time>2014-01-05T13:30:27Z</time>
      </trkpt>
      <trkpt lat="43.22834" lon="5.37707">
        <ele>112</ele>
        <time>2014-01-05T13:30:36Z</time>
      </trkpt>
      <trkpt lat="43.22842" lon="5.37698">
        <ele>112</ele>
        <time>2014-01-05T13:30:46Z</time>
      </trkpt>
      <trkpt lat="43.2285" lon="5.37691">
        <ele>110</ele>
        <time>2014-01-05T13:30:55Z</time>
      </trkpt>
      <trkpt lat="43.22856" lon="5.37685">
        <ele>107</ele>
        <time>2014-01-05T13:31:04Z</time>
      </trkpt>
      <trkpt lat="43.22857" lon="5.37675">
        <ele>105</ele>
        <time>2014-01-05T13:31:13Z</time>
      </trkpt>
      <trkpt lat="43.22861" lon="5.37671">
        <ele>105</ele>
        <time>2014-01-05T13:31:22Z</time>
      </trkpt>
      <trkpt lat="43.22866" lon="5.37664">
        <ele>103</ele>
        <time>2014-01-05T13:31:31Z</time>
      </trkpt>
      <trkpt lat="43.22872" lon="5.37659">
        <ele>103</ele>
        <time>2014-01-05T13:31:41Z</time>
      </trkpt>
      <trkpt lat="43.2288" lon="5.37655">
        <ele>103</ele>
        <time>2014-01-05T13:31:53Z</time>
      </trkpt>
      <trkpt lat="43.22887" lon="5.37655">
        <ele>104</ele>
        <time>2014-01-05T13:32:02Z</time>
      </trkpt>
      <trkpt lat="43.22892" lon="5.37654">
        <ele>105</ele>
        <time>2014-01-05T13:32:11Z</time>
      </trkpt>
      <trkpt lat="43.229" lon="5.37649">
        <ele>98</ele>
        <time>2014-01-05T13:32:20Z</time>
      </trkpt>
      <trkpt lat="43.22904" lon="5.37641">
        <ele>92</ele>
        <time>2014-01-05T13:32:29Z</time>
      </trkpt>
      <trkpt lat="43.22907" lon="5.37639">
        <ele>92</ele>
        <time>2014-01-05T13:32:39Z</time>
      </trkpt>
      <trkpt lat="43.22909" lon="5.37635">
        <ele>92</ele>
        <time>2014-01-05T13:32:48Z</time>
      </trkpt>
      <trkpt lat="43.22917" lon="5.37638">
        <ele>92</ele>
        <time>2014-01-05T13:32:57Z</time>
      </trkpt>
      <trkpt lat="43.22924" lon="5.37635">
        <ele>93</ele>
        <time>2014-01-05T13:33:07Z</time>
      </trkpt>
      <trkpt lat="43.22928" lon="5.37626">
        <ele>89</ele>
        <time>2014-01-05T13:33:17Z</time>
      </trkpt>
      <trkpt lat="43.2293" lon="5.37618">
        <ele>81</ele>
        <time>2014-01-05T13:33:26Z</time>
      </trkpt>
      <trkpt lat="43.22932" lon="5.37613">
        <ele>77</ele>
        <time>2014-01-05T13:33:36Z</time>
      </trkpt>
      <trkpt lat="43.22934" lon="5.37605">
        <ele>72</ele>
        <time>2014-01-05T13:33:47Z</time>
      </trkpt>
      <trkpt lat="43.22936" lon="5.37596">
        <ele>78</ele>
        <time>2014-01-05T13:33:57Z</time>
      </trkpt>
      <trkpt lat="43.2294" lon="5.37593">
        <ele>79</ele>
        <time>2014-01-05T13:34:06Z</time>
      </trkpt>
      <trkpt lat="43.22946" lon="5.37595">
        <ele>81</ele>
        <time>2014-01-05T13:34:15Z</time>
      </trkpt>
      <trkpt lat="43.22955" lon="5.37597">
        <ele>81</ele>
        <time>2014-01-05T13:34:24Z</time>
      </trkpt>
      <trkpt lat="43.22961" lon="5.37595">
        <ele>72</ele>
        <time>2014-01-05T13:34:33Z</time>
      </trkpt>
      <trkpt lat="43.22965" lon="5.37592">
        <ele>68</ele>
        <time>2014-01-05T13:34:43Z</time>
      </trkpt>
      <trkpt lat="43.22969" lon="5.37592">
        <ele>63</ele>
        <time>2014-01-05T13:34:52Z</time>
      </trkpt>
      <trkpt lat="43.22976" lon="5.37594">
        <ele>62</ele>
        <time>2014-01-05T13:35:02Z</time>
      </trkpt>
      <trkpt lat="43.22986" lon="5.37596">
        <ele>62</ele>
        <time>2014-01-05T13:35:12Z</time>
      </trkpt>
      <trkpt lat="43.22997" lon="5.37592">
        <ele>62</ele>
        <time>2014-01-05T13:35:22Z</time>
      </trkpt>
      <trkpt lat="43.23003" lon="5.37582">
        <ele>59</ele>
        <time>2014-01-05T13:35:34Z</time>
      </trkpt>
      <trkpt lat="43.23011" lon="5.37573">
        <ele>55</ele>
        <time>2014-01-05T13:35:45Z</time>
      </trkpt>
      <trkpt lat="43.23017" lon="5.37564">
        <ele>53</ele>
        <time>2014-01-05T13:35:54Z</time>
      </trkpt>
      <trkpt lat="43.23022" lon="5.37549">
        <ele>53</ele>
        <time>2014-01-05T13:36:03Z</time>
      </trkpt>
      <trkpt lat="43.23027" lon="5.37539">
        <ele>51</ele>
        <time>2014-01-05T13:36:12Z</time>
      </trkpt>
      <trkpt lat="43.23036" lon="5.37527">
        <ele>48</ele>
        <time>2014-01-05T13:36:21Z</time>
      </trkpt>
      <trkpt lat="43.23048" lon="5.37518">
        <ele>47</ele>
        <time>2014-01-05T13:36:31Z</time>
      </trkpt>
      <trkpt lat="43.23057" lon="5.37508">
        <ele>45</ele>
        <time>2014-01-05T13:36:40Z</time>
      </trkpt>
      <trkpt lat="43.23065" lon="5.37497">
        <ele>43</ele>
        <time>2014-01-05T13:36:49Z</time>
      </trkpt>
      <trkpt lat="43.23072" lon="5.37485">
        <ele>43</ele>
        <time>2014-01-05T13:36:58Z</time>
      </trkpt>
      <trkpt lat="43.23081" lon="5.37474">
        <ele>43</ele>
        <time>2014-01-05T13:37:07Z</time>
      </trkpt>
      <trkpt lat="43.23092" lon="5.37467">
        <ele>43</ele>
        <time>2014-01-05T13:37:16Z</time>
      </trkpt>
      <trkpt lat="43.23101" lon="5.37463">
        <ele>42</ele>
        <time>2014-01-05T13:37:25Z</time>
      </trkpt>
      <trkpt lat="43.23111" lon="5.37454">
        <ele>39</ele>
        <time>2014-01-05T13:37:34Z</time>
      </trkpt>
      <trkpt lat="43.23123" lon="5.37448">
        <ele>39</ele>
        <time>2014-01-05T13:37:44Z</time>
      </trkpt>
      <trkpt lat="43.23133" lon="5.37442">
        <ele>37</ele>
        <time>2014-01-05T13:37:53Z</time>
      </trkpt>
      <trkpt lat="43.23143" lon="5.37433">
        <ele>37</ele>
        <time>2014-01-05T13:38:02Z</time>
      </trkpt>
      <trkpt lat="43.23152" lon="5.3742">
        <ele>37</ele>
        <time>2014-01-05T13:38:12Z</time>
      </trkpt>
      <trkpt lat="43.23163" lon="5.37411">
        <ele>37</ele>
        <time>2014-01-05T13:38:22Z</time>
      </trkpt>
      <trkpt lat="43.23173" lon="5.37403">
        <ele>37</ele>
        <time>2014-01-05T13:38:31Z</time>
      </trkpt>
      <trkpt lat="43.23183" lon="5.37396">
        <ele>37</ele>
        <time>2014-01-05T13:38:40Z</time>
      </trkpt>
      <trkpt lat="43.23189" lon="5.37405">
        <ele>37</ele>
        <time>2014-01-05T13:38:50Z</time>
      </trkpt>
      <trkpt lat="43.23196" lon="5.37411">
        <ele>37</ele>
        <time>2014-01-05T13:39:00Z</time>
      </trkpt>
      <trkpt lat="43.23208" lon="5.37412">
        <ele>36</ele>
        <time>2014-01-05T13:39:11Z</time>
      </trkpt>
      <trkpt lat="43.23218" lon="5.37406">
        <ele>39</ele>
        <time>2014-01-05T13:39:21Z</time>
      </trkpt>
      <trkpt lat="43.23225" lon="5.37401">
        <ele>42</ele>
        <time>2014-01-05T13:39:30Z</time>
      </trkpt>
      <trkpt lat="43.23233" lon="5.37391">
        <ele>42</ele>
        <time>2014-01-05T13:39:39Z</time>
      </trkpt>
      <trkpt lat="43.23241" lon="5.37381">
        <ele>42</ele>
        <time>2014-01-05T13:39:49Z</time>
      </trkpt>
      <trkpt lat="43.23247" lon="5.37369">
        <ele>42</ele>
        <time>2014-01-05T13:39:58Z</time>
      </trkpt>
      <trkpt lat="43.23253" lon="5.37359">
        <ele>42</ele>
        <time>2014-01-05T13:40:07Z</time>
      </trkpt>
      <trkpt lat="43.23263" lon="5.37351">
        <ele>42</ele>
        <time>2014-01-05T13:40:18Z</time>
      </trkpt>
      <trkpt lat="43.23272" lon="5.37354">
        <ele>42</ele>
        <time>2014-01-05T13:40:27Z</time>
      </trkpt>
      <trkpt lat="43.23281" lon="5.37348">
        <ele>42</ele>
        <time>2014-01-05T13:40:36Z</time>
      </trkpt>
      <trkpt lat="43.23291" lon="5.37337">
        <ele>42</ele>
        <time>2014-01-05T13:40:46Z</time>
      </trkpt>
      <trkpt lat="43.23299" lon="5.37328">
        <ele>42</ele>
        <time>2014-01-05T13:40:55Z</time>
      </trkpt>
      <trkpt lat="43.23307" lon="5.37322">
        <ele>43</ele>
        <time>2014-01-05T13:41:04Z</time>
      </trkpt>
      <trkpt lat="43.23316" lon="5.37316">
        <ele>44</ele>
        <time>2014-01-05T13:41:13Z</time>
      </trkpt>
      <trkpt lat="43.23324" lon="5.37314">
        <ele>47</ele>
        <time>2014-01-05T13:41:22Z</time>
      </trkpt>
      <trkpt lat="43.23333" lon="5.3731">
        <ele>47</ele>
        <time>2014-01-05T13:41:31Z</time>
      </trkpt>
      <trkpt lat="43.23344" lon="5.37311">
        <ele>47</ele>
        <time>2014-01-05T13:41:41Z</time>
      </trkpt>
      <trkpt lat="43.23352" lon="5.37316">
        <ele>47</ele>
        <time>2014-01-05T13:41:52Z</time>
      </trkpt>
      <trkpt lat="43.23354" lon="5.37328">
        <ele>47</ele>
        <time>2014-01-05T13:42:02Z</time>
      </trkpt>
      <trkpt lat="43.23358" lon="5.37341">
        <ele>47</ele>
        <time>2014-01-05T13:42:12Z</time>
      </trkpt>
      <trkpt lat="43.23363" lon="5.37351">
        <ele>47</ele>
        <time>2014-01-05T13:42:21Z</time>
      </trkpt>
      <trkpt lat="43.2337" lon="5.3736">
        <ele>45</ele>
        <time>2014-01-05T13:42:31Z</time>
      </trkpt>
      <trkpt lat="43.23375" lon="5.37365">
        <ele>45</ele>
        <time>2014-01-05T13:42:40Z</time>
      </trkpt>
      <trkpt lat="43.23381" lon="5.37367">
        <ele>45</ele>
        <time>2014-01-05T13:42:49Z</time>
      </trkpt>
      <trkpt lat="43.23389" lon="5.37359">
        <ele>45</ele>
        <time>2014-01-05T13:42:58Z</time>
      </trkpt>
      <trkpt lat="43.23394" lon="5.37351">
        <ele>45</ele>
        <time>2014-01-05T13:43:07Z</time>
      </trkpt>
      <trkpt lat="43.23402" lon="5.37347">
        <ele>47</ele>
        <time>2014-01-05T13:43:16Z</time>
      </trkpt>
      <trkpt lat="43.2341" lon="5.3734">
        <ele>47</ele>
        <time>2014-01-05T13:43:25Z</time>
      </trkpt>
      <trkpt lat="43.23417" lon="5.37329">
        <ele>47</ele>
        <time>2014-01-05T13:43:35Z</time>
      </trkpt>
      <trkpt lat="43.23422" lon="5.37318">
        <ele>45</ele>
        <time>2014-01-05T13:43:45Z</time>
      </trkpt>
      <trkpt lat="43.23426" lon="5.37304">
        <ele>40</ele>
        <time>2014-01-05T13:43:55Z</time>
      </trkpt>
      <trkpt lat="43.23429" lon="5.37293">
        <ele>37</ele>
        <time>2014-01-05T13:44:04Z</time>
      </trkpt>
      <trkpt lat="43.23432" lon="5.37278">
        <ele>36</ele>
        <time>2014-01-05T13:44:13Z</time>
      </trkpt>
      <trkpt lat="43.23435" lon="5.37265">
        <ele>36</ele>
        <time>2014-01-05T13:44:22Z</time>
      </trkpt>
      <trkpt lat="43.23438" lon="5.37248">
        <ele>36</ele>
        <time>2014-01-05T13:44:31Z</time>
      </trkpt>
      <trkpt lat="43.23443" lon="5.37235">
        <ele>36</ele>
        <time>2014-01-05T13:44:41Z</time>
      </trkpt>
      <trkpt lat="43.23449" lon="5.37223">
        <ele>36</ele>
        <time>2014-01-05T13:44:50Z</time>
      </trkpt>
      <trkpt lat="43.23459" lon="5.37216">
        <ele>36</ele>
        <time>2014-01-05T13:45:00Z</time>
      </trkpt>
      <trkpt lat="43.23468" lon="5.37208">
        <ele>36</ele>
        <time>2014-01-05T13:45:10Z</time>
      </trkpt>
      <trkpt lat="43.23477" lon="5.37198">
        <ele>33</ele>
        <time>2014-01-05T13:45:20Z</time>
      </trkpt>
      <trkpt lat="43.23487" lon="5.37191">
        <ele>31</ele>
        <time>2014-01-05T13:45:30Z</time>
      </trkpt>
      <trkpt lat="43.23493" lon="5.37181">
        <ele>30</ele>
        <time>2014-01-05T13:45:40Z</time>
      </trkpt>
      <trkpt lat="43.23502" lon="5.37174">
        <ele>30</ele>
        <time>2014-01-05T13:45:50Z</time>
      </trkpt>
      <trkpt lat="43.2351" lon="5.37165">
        <ele>31</ele>
        <time>2014-01-05T13:46:00Z</time>
      </trkpt>
      <trkpt lat="43.23517" lon="5.37157">
        <ele>32</ele>
        <time>2014-01-05T13:46:11Z</time>
      </trkpt>
      <trkpt lat="43.23524" lon="5.3715">
        <ele>36</ele>
        <time>2014-01-05T13:46:21Z</time>
      </trkpt>
      <trkpt lat="43.23532" lon="5.37142">
        <ele>36</ele>
        <time>2014-01-05T13:46:30Z</time>
      </trkpt>
      <trkpt lat="43.2354" lon="5.37136">
        <ele>33</ele>
        <time>2014-01-05T13:46:40Z</time>
      </trkpt>
      <trkpt lat="43.23549" lon="5.37126">
        <ele>29</ele>
        <time>2014-01-05T13:46:50Z</time>
      </trkpt>
      <trkpt lat="43.23558" lon="5.37117">
        <ele>29</ele>
        <time>2014-01-05T13:46:59Z</time>
      </trkpt>
      <trkpt lat="43.23566" lon="5.37108">
        <ele>29</ele>
        <time>2014-01-05T13:47:09Z</time>
      </trkpt>
      <trkpt lat="43.23576" lon="5.371">
        <ele>29</ele>
        <time>2014-01-05T13:47:19Z</time>
      </trkpt>
      <trkpt lat="43.23585" lon="5.37088">
        <ele>29</ele>
        <time>2014-01-05T13:47:29Z</time>
      </trkpt>
      <trkpt lat="43.23592" lon="5.3708">
        <ele>29</ele>
        <time>2014-01-05T13:47:38Z</time>
      </trkpt>
      <trkpt lat="43.23602" lon="5.37072">
        <ele>29</ele>
        <time>2014-01-05T13:47:47Z</time>
      </trkpt>
      <trkpt lat="43.23611" lon="5.37065">
        <ele>29</ele>
        <time>2014-01-05T13:47:57Z</time>
      </trkpt>
      <trkpt lat="43.23621" lon="5.37058">
        <ele>29</ele>
        <time>2014-01-05T13:48:07Z</time>
      </trkpt>
      <trkpt lat="43.2363" lon="5.37049">
        <ele>29</ele>
        <time>2014-01-05T13:48:17Z</time>
      </trkpt>
      <trkpt lat="43.23639" lon="5.37042">
        <ele>29</ele>
        <time>2014-01-05T13:48:26Z</time>
      </trkpt>
      <trkpt lat="43.23648" lon="5.37034">
        <ele>26</ele>
        <time>2014-01-05T13:48:36Z</time>
      </trkpt>
      <trkpt lat="43.23658" lon="5.37026">
        <ele>24</ele>
        <time>2014-01-05T13:48:46Z</time>
      </trkpt>
      <trkpt lat="43.23666" lon="5.37017">
        <ele>24</ele>
        <time>2014-01-05T13:48:55Z</time>
      </trkpt>
      <trkpt lat="43.23675" lon="5.37009">
        <ele>24</ele>
        <time>2014-01-05T13:49:05Z</time>
      </trkpt>
      <trkpt lat="43.23684" lon="5.37002">
        <ele>24</ele>
        <time>2014-01-05T13:49:15Z</time>
      </trkpt>
      <trkpt lat="43.23692" lon="5.36994">
        <ele>24</ele>
        <time>2014-01-05T13:49:25Z</time>
      </trkpt>
      <trkpt lat="43.237" lon="5.36985">
        <ele>24</ele>
        <time>2014-01-05T13:49:35Z</time>
      </trkpt>
      <trkpt lat="43.23709" lon="5.36976">
        <ele>24</ele>
        <time>2014-01-05T13:49:45Z</time>
      </trkpt>
      <trkpt lat="43.23719" lon="5.3697">
        <ele>21</ele>
        <time>2014-01-05T13:49:55Z</time>
      </trkpt>
      <trkpt lat="43.23725" lon="5.36961">
        <ele>21</ele>
        <time>2014-01-05T13:50:04Z</time>
      </trkpt>
      <trkpt lat="43.23736" lon="5.36953">
        <ele>21</ele>
        <time>2014-01-05T13:50:14Z</time>
      </trkpt>
      <trkpt lat="43.23744" lon="5.36946">
        <ele>20</ele>
        <time>2014-01-05T13:50:23Z</time>
      </trkpt>
      <trkpt lat="43.23755" lon="5.36937">
        <ele>20</ele>
        <time>2014-01-05T13:50:33Z</time>
      </trkpt>
      <trkpt lat="43.23765" lon="5.36927">
        <ele>19</ele>
        <time>2014-01-05T13:50:43Z</time>
      </trkpt>
      <trkpt lat="43.23771" lon="5.36921">
        <ele>19</ele>
        <time>2014-01-05T13:50:58Z</time>
      </trkpt>
      <trkpt lat="43.23762" lon="5.36927">
        <ele>19</ele>
        <time>2014-01-05T13:51:08Z</time>
      </trkpt>
      <trkpt lat="43.23753" lon="5.36935">
        <ele>19</ele>
        <time>2014-01-05T13:51:17Z</time>
      </trkpt>
      <trkpt lat="43.23743" lon="5.36944">
        <ele>19</ele>
        <time>2014-01-05T13:51:27Z</time>
      </trkpt>
      <trkpt lat="43.23736" lon="5.36946">
        <ele>19</ele>
        <time>2014-01-05T13:51:36Z</time>
      </trkpt>
      <trkpt lat="43.23743" lon="5.36939">
        <ele>19</ele>
        <time>2014-01-05T13:51:45Z</time>
      </trkpt>
      <trkpt lat="43.23752" lon="5.36931">
        <ele>19</ele>
        <time>2014-01-05T13:51:55Z</time>
      </trkpt>
      <trkpt lat="43.23761" lon="5.36922">
        <ele>19</ele>
        <time>2014-01-05T13:52:05Z</time>
      </trkpt>
      <trkpt lat="43.2377" lon="5.36914">
        <ele>19</ele>
        <time>2014-01-05T13:52:15Z</time>
      </trkpt>
      <trkpt lat="43.23779" lon="5.36904">
        <ele>19</ele>
        <time>2014-01-05T13:52:25Z</time>
      </trkpt>
      <trkpt lat="43.23788" lon="5.36897">
        <ele>19</ele>
        <time>2014-01-05T13:52:34Z</time>
      </trkpt>
      <trkpt lat="43.23797" lon="5.36888">
        <ele>19</ele>
        <time>2014-01-05T13:52:44Z</time>
      </trkpt>
      <trkpt lat="43.23806" lon="5.3688">
        <ele>19</ele>
        <time>2014-01-05T13:52:55Z</time>
      </trkpt>
      <trkpt lat="43.23815" lon="5.36874">
        <ele>18</ele>
        <time>2014-01-05T13:53:05Z</time>
      </trkpt>
      <trkpt lat="43.23824" lon="5.36866">
        <ele>17</ele>
        <time>2014-01-05T13:53:14Z</time>
      </trkpt>
      <trkpt lat="43.23832" lon="5.36858">
        <ele>16</ele>
        <time>2014-01-05T13:53:23Z</time>
      </trkpt>
      <trkpt lat="43.23843" lon="5.3685">
        <ele>14</ele>
        <time>2014-01-05T13:53:33Z</time>
      </trkpt>
      <trkpt lat="43.23851" lon="5.3684">
        <ele>12</ele>
        <time>2014-01-05T13:53:42Z</time>
      </trkpt>
      <trkpt lat="43.2386" lon="5.36832">
        <ele>12</ele>
        <time>2014-01-05T13:53:51Z</time>
      </trkpt>
      <trkpt lat="43.23867" lon="5.36824">
        <ele>12</ele>
        <time>2014-01-05T13:54:01Z</time>
      </trkpt>
      <trkpt lat="43.23874" lon="5.36813">
        <ele>12</ele>
        <time>2014-01-05T13:54:10Z</time>
      </trkpt>
      <trkpt lat="43.23886" lon="5.36806">
        <ele>12</ele>
        <time>2014-01-05T13:54:19Z</time>
      </trkpt>
      <trkpt lat="43.23895" lon="5.36798">
        <ele>12</ele>
        <time>2014-01-05T13:54:28Z</time>
      </trkpt>
      <trkpt lat="43.23905" lon="5.36788">
        <ele>12</ele>
        <time>2014-01-05T13:54:37Z</time>
      </trkpt>
      <trkpt lat="43.23913" lon="5.36777">
        <ele>12</ele>
        <time>2014-01-05T13:54:46Z</time>
      </trkpt>
      <trkpt lat="43.23923" lon="5.36769">
        <ele>12</ele>
        <time>2014-01-05T13:54:55Z</time>
      </trkpt>
      <trkpt lat="43.23933" lon="5.36759">
        <ele>12</ele>
        <time>2014-01-05T13:55:05Z</time>
      </trkpt>
      <trkpt lat="43.23942" lon="5.3675">
        <ele>12</ele>
        <time>2014-01-05T13:55:14Z</time>
      </trkpt>
      <trkpt lat="43.23951" lon="5.36741">
        <ele>11</ele>
        <time>2014-01-05T13:55:23Z</time>
      </trkpt>
      <trkpt lat="43.23958" lon="5.36731">
        <ele>7</ele>
        <time>2014-01-05T13:55:32Z</time>
      </trkpt>
      <trkpt lat="43.23967" lon="5.36721">
        <ele>5</ele>
        <time>2014-01-05T13:55:41Z</time>
      </trkpt>
      <trkpt lat="43.2398" lon="5.36714">
        <ele>4</ele>
        <time>2014-01-05T13:55:51Z</time>
      </trkpt>
      <trkpt lat="43.23987" lon="5.36702">
        <ele>4</ele>
        <time>2014-01-05T13:56:01Z</time>
      </trkpt>
      <trkpt lat="43.23993" lon="5.3669">
        <ele>4</ele>
        <time>2014-01-05T13:56:11Z</time>
      </trkpt>
      <trkpt lat="43.23988" lon="5.36679">
        <ele>4</ele>
        <time>2014-01-05T13:56:20Z</time>
      </trkpt>
      <trkpt lat="43.2398" lon="5.36668">
        <ele>4</ele>
        <time>2014-01-05T13:56:30Z</time>
      </trkpt>
      <trkpt lat="43.23974" lon="5.36657">
        <ele>4</ele>
        <time>2014-01-05T13:56:39Z</time>
      </trkpt>
      <trkpt lat="43.23981" lon="5.36644">
        <ele>4</ele>
        <time>2014-01-05T13:56:49Z</time>
      </trkpt>
      <trkpt lat="43.23986" lon="5.36636">
        <ele>4</ele>
        <time>2014-01-05T13:56:58Z</time>
      </trkpt>
      <trkpt lat="43.2399" lon="5.36624">
        <ele>4</ele>
        <time>2014-01-05T13:57:07Z</time>
      </trkpt>
      <trkpt lat="43.23996" lon="5.36609">
        <ele>4</ele>
        <time>2014-01-05T13:57:16Z</time>
      </trkpt>
      <trkpt lat="43.23995" lon="5.36593">
        <ele>4</ele>
        <time>2014-01-05T13:57:25Z</time>
      </trkpt>
      <trkpt lat="43.23994" lon="5.36576">
        <ele>4</ele>
        <time>2014-01-05T13:57:34Z</time>
      </trkpt>
      <trkpt lat="43.23992" lon="5.36562">
        <ele>4</ele>
        <time>2014-01-05T13:57:43Z</time>
      </trkpt>
      <trkpt lat="43.23988" lon="5.36547">
        <ele>4</ele>
        <time>2014-01-05T13:57:52Z</time>
      </trkpt>
      <trkpt lat="43.23986" lon="5.36531">
        <ele>4</ele>
        <time>2014-01-05T13:58:01Z</time>
      </trkpt>
      <trkpt lat="43.23985" lon="5.36515">
        <ele>4</ele>
        <time>2014-01-05T13:58:10Z</time>
      </trkpt>
      <trkpt lat="43.23982" lon="5.36502">
        <ele>3</ele>
        <time>2014-01-05T13:58:19Z</time>
      </trkpt>
      <trkpt lat="43.23979" lon="5.36486">
        <ele>3</ele>
        <time>2014-01-05T13:58:28Z</time>
      </trkpt>
      <trkpt lat="43.23976" lon="5.3647">
        <ele>3</ele>
        <time>2014-01-05T13:58:37Z</time>
      </trkpt>
      <trkpt lat="43.23972" lon="5.36452">
        <ele>3</ele>
        <time>2014-01-05T13:58:46Z</time>
      </trkpt>
      <trkpt lat="43.23965" lon="5.36436">
        <ele>3</ele>
        <time>2014-01-05T13:58:56Z</time>
      </trkpt>
      <trkpt lat="43.2396" lon="5.36421">
        <ele>3</ele>
        <time>2014-01-05T13:59:05Z</time>
      </trkpt>
      <trkpt lat="43.23952" lon="5.36406">
        <ele>3</ele>
        <time>2014-01-05T13:59:14Z</time>
      </trkpt>
      <trkpt lat="43.23948" lon="5.36392">
        <ele>3</ele>
        <time>2014-01-05T13:59:23Z</time>
      </trkpt>
      <trkpt lat="43.23942" lon="5.36377">
        <ele>3</ele>
        <time>2014-01-05T13:59:33Z</time>
      </trkpt>
      <trkpt lat="43.23941" lon="5.36363">
        <ele>3</ele>
        <time>2014-01-05T13:59:42Z</time>
      </trkpt>
      <trkpt lat="43.23941" lon="5.36356">
        <ele>3</ele>
        <time>2014-01-05T13:59:54Z</time>
      </trkpt>
      <trkpt lat="43.2394" lon="5.36358">
        <ele>3</ele>
        <time>2014-01-05T14:00:10Z</time>
      </trkpt>
      <trkpt lat="43.23941" lon="5.3636">
        <ele>3</ele>
        <time>2014-01-05T14:00:22Z</time>
      </trkpt>
      <trkpt lat="43.23941" lon="5.36358">
        <ele>3</ele>
        <time>2014-01-05T14:01:03Z</time>
      </trkpt>
      <trkpt lat="43.23942" lon="5.36359">
        <ele>3</ele>
        <time>2014-01-05T14:01:41Z</time>
      </trkpt>
      <trkpt lat="43.23942" lon="5.36359">
        <ele>3</ele>
        <time>2014-01-05T14:01:47Z</time>
      </trkpt>
    </trkseg>
  </trk>
</gpx>